<?xml version="1.0" encoding="UTF-8" standalone="no" ?>
<gpx xmlns="http://www.topografix.com/GPX/1/1" xmlns:xsi="http://www.w3.org/2001/XMLSchema-instance" xsi:schemaLocation="http://www.topografix.com/GPX/1/1 http://www.topografix.com/GPX/1/1/gpx.xsd" version="1.1" creator="VisuGPX - https://www.visugpx.com">
  <metadata>
    <name>Au départ de St Beauzire</name>
    <desc><![CDATA[Du coté d'Aigueperse, Vensat, Artonne avec quelques bosses ]]></desc>
  </metadata>
  <trk>
    <name><![CDATA[Puy Guillaume]]></name>
    <trkseg>
      <trkpt lat="45.84906" lon="3.17281">
        <ele>346.69</ele>
        <time>2009-11-30T11:42:39.000Z</time>
      </trkpt>
      <trkpt lat="45.84904" lon="3.17288">
        <ele>327.05</ele>
        <time>2009-11-30T11:43:10.000Z</time>
      </trkpt>
      <trkpt lat="45.84904" lon="3.17289">
        <ele>327.08</ele>
        <time>2009-11-30T11:43:11.000Z</time>
      </trkpt>
      <trkpt lat="45.84904" lon="3.17284">
        <ele>327.44</ele>
        <time>2009-11-30T11:43:40.000Z</time>
      </trkpt>
      <trkpt lat="45.84893" lon="3.17278">
        <ele>327.43</ele>
        <time>2009-11-30T11:43:51.000Z</time>
      </trkpt>
      <trkpt lat="45.84882" lon="3.17274">
        <ele>327.73</ele>
        <time>2009-11-30T11:43:57.000Z</time>
      </trkpt>
      <trkpt lat="45.84881" lon="3.17293">
        <ele>328.04</ele>
        <time>2009-11-30T11:44:02.000Z</time>
      </trkpt>
      <trkpt lat="45.84882" lon="3.17321">
        <ele>327.03</ele>
        <time>2009-11-30T11:44:07.000Z</time>
      </trkpt>
      <trkpt lat="45.84886" lon="3.17384">
        <ele>327.05</ele>
        <time>2009-11-30T11:44:16.000Z</time>
      </trkpt>
      <trkpt lat="45.8489" lon="3.17449">
        <ele>326.97</ele>
        <time>2009-11-30T11:44:24.000Z</time>
      </trkpt>
      <trkpt lat="45.84896" lon="3.17541">
        <ele>326.4</ele>
        <time>2009-11-30T11:44:35.000Z</time>
      </trkpt>
      <trkpt lat="45.849" lon="3.17629">
        <ele>326.59</ele>
        <time>2009-11-30T11:44:45.000Z</time>
      </trkpt>
      <trkpt lat="45.84908" lon="3.17718">
        <ele>326.24</ele>
        <time>2009-11-30T11:44:55.000Z</time>
      </trkpt>
      <trkpt lat="45.84916" lon="3.1781">
        <ele>326.45</ele>
        <time>2009-11-30T11:45:05.000Z</time>
      </trkpt>
      <trkpt lat="45.84918" lon="3.17874">
        <ele>326.43</ele>
        <time>2009-11-30T11:45:12.000Z</time>
      </trkpt>
      <trkpt lat="45.84918" lon="3.17976">
        <ele>326.04</ele>
        <time>2009-11-30T11:45:23.000Z</time>
      </trkpt>
      <trkpt lat="45.84923" lon="3.1804">
        <ele>325.79</ele>
        <time>2009-11-30T11:45:30.000Z</time>
      </trkpt>
      <trkpt lat="45.84934" lon="3.18071">
        <ele>326.13</ele>
        <time>2009-11-30T11:45:34.000Z</time>
      </trkpt>
      <trkpt lat="45.84941" lon="3.18091">
        <ele>326.46</ele>
        <time>2009-11-30T11:45:37.000Z</time>
      </trkpt>
      <trkpt lat="45.84937" lon="3.18108">
        <ele>325.74</ele>
        <time>2009-11-30T11:45:39.000Z</time>
      </trkpt>
      <trkpt lat="45.84929" lon="3.18141">
        <ele>325.45</ele>
        <time>2009-11-30T11:45:43.000Z</time>
      </trkpt>
      <trkpt lat="45.84927" lon="3.18179">
        <ele>324.71</ele>
        <time>2009-11-30T11:45:47.000Z</time>
      </trkpt>
      <trkpt lat="45.84935" lon="3.18235">
        <ele>325.58</ele>
        <time>2009-11-30T11:45:53.000Z</time>
      </trkpt>
      <trkpt lat="45.8493" lon="3.18273">
        <ele>324.5</ele>
        <time>2009-11-30T11:45:57.000Z</time>
      </trkpt>
      <trkpt lat="45.84912" lon="3.18286">
        <ele>325.02</ele>
        <time>2009-11-30T11:46:00.000Z</time>
      </trkpt>
      <trkpt lat="45.84856" lon="3.18323">
        <ele>324.99</ele>
        <time>2009-11-30T11:46:09.000Z</time>
      </trkpt>
      <trkpt lat="45.84851" lon="3.18328">
        <ele>324.92</ele>
        <time>2009-11-30T11:46:10.000Z</time>
      </trkpt>
      <trkpt lat="45.84812" lon="3.18382">
        <ele>324.63</ele>
        <time>2009-11-30T11:46:18.000Z</time>
      </trkpt>
      <trkpt lat="45.84794" lon="3.1841">
        <ele>324.75</ele>
        <time>2009-11-30T11:46:22.000Z</time>
      </trkpt>
      <trkpt lat="45.84767" lon="3.18434">
        <ele>325.55</ele>
        <time>2009-11-30T11:46:27.000Z</time>
      </trkpt>
      <trkpt lat="45.84755" lon="3.18438">
        <ele>325.72</ele>
        <time>2009-11-30T11:46:29.000Z</time>
      </trkpt>
      <trkpt lat="45.84728" lon="3.18456">
        <ele>326.2</ele>
        <time>2009-11-30T11:46:34.000Z</time>
      </trkpt>
      <trkpt lat="45.84729" lon="3.18474">
        <ele>326.21</ele>
        <time>2009-11-30T11:46:36.000Z</time>
      </trkpt>
      <trkpt lat="45.84744" lon="3.18508">
        <ele>325.89</ele>
        <time>2009-11-30T11:46:40.000Z</time>
      </trkpt>
      <trkpt lat="45.84749" lon="3.1855">
        <ele>325.02</ele>
        <time>2009-11-30T11:46:44.000Z</time>
      </trkpt>
      <trkpt lat="45.84746" lon="3.18582">
        <ele>324.17</ele>
        <time>2009-11-30T11:46:47.000Z</time>
      </trkpt>
      <trkpt lat="45.84727" lon="3.18659">
        <ele>324.6</ele>
        <time>2009-11-30T11:46:55.000Z</time>
      </trkpt>
      <trkpt lat="45.84695" lon="3.18735">
        <ele>324.71</ele>
        <time>2009-11-30T11:47:04.000Z</time>
      </trkpt>
      <trkpt lat="45.84659" lon="3.18817">
        <ele>324.33</ele>
        <time>2009-11-30T11:47:14.000Z</time>
      </trkpt>
      <trkpt lat="45.84628" lon="3.18901">
        <ele>325.65</ele>
        <time>2009-11-30T11:47:24.000Z</time>
      </trkpt>
      <trkpt lat="45.84616" lon="3.18968">
        <ele>324.37</ele>
        <time>2009-11-30T11:47:31.000Z</time>
      </trkpt>
      <trkpt lat="45.84601" lon="3.19069">
        <ele>324.23</ele>
        <time>2009-11-30T11:47:41.000Z</time>
      </trkpt>
      <trkpt lat="45.84582" lon="3.19198">
        <ele>323.93</ele>
        <time>2009-11-30T11:47:54.000Z</time>
      </trkpt>
      <trkpt lat="45.84579" lon="3.19268">
        <ele>323.95</ele>
        <time>2009-11-30T11:48:01.000Z</time>
      </trkpt>
      <trkpt lat="45.84582" lon="3.19411">
        <ele>322.72</ele>
        <time>2009-11-30T11:48:15.000Z</time>
      </trkpt>
      <trkpt lat="45.84584" lon="3.19493">
        <ele>323.21</ele>
        <time>2009-11-30T11:48:23.000Z</time>
      </trkpt>
      <trkpt lat="45.84585" lon="3.19607">
        <ele>323.01</ele>
        <time>2009-11-30T11:48:34.000Z</time>
      </trkpt>
      <trkpt lat="45.84576" lon="3.19687">
        <ele>323.61</ele>
        <time>2009-11-30T11:48:42.000Z</time>
      </trkpt>
      <trkpt lat="45.84559" lon="3.19796">
        <ele>323.53</ele>
        <time>2009-11-30T11:48:53.000Z</time>
      </trkpt>
      <trkpt lat="45.84548" lon="3.19876">
        <ele>323.59</ele>
        <time>2009-11-30T11:49:01.000Z</time>
      </trkpt>
      <trkpt lat="45.84532" lon="3.19986">
        <ele>322.11</ele>
        <time>2009-11-30T11:49:12.000Z</time>
      </trkpt>
      <trkpt lat="45.84517" lon="3.20056">
        <ele>322.72</ele>
        <time>2009-11-30T11:49:19.000Z</time>
      </trkpt>
      <trkpt lat="45.8449" lon="3.20121">
        <ele>322.85</ele>
        <time>2009-11-30T11:49:26.000Z</time>
      </trkpt>
      <trkpt lat="45.84458" lon="3.20201">
        <ele>323.26</ele>
        <time>2009-11-30T11:49:35.000Z</time>
      </trkpt>
      <trkpt lat="45.84437" lon="3.20276">
        <ele>323.84</ele>
        <time>2009-11-30T11:49:43.000Z</time>
      </trkpt>
      <trkpt lat="45.84409" lon="3.20393">
        <ele>322.9</ele>
        <time>2009-11-30T11:49:55.000Z</time>
      </trkpt>
      <trkpt lat="45.84391" lon="3.20469">
        <ele>321.83</ele>
        <time>2009-11-30T11:50:03.000Z</time>
      </trkpt>
      <trkpt lat="45.84367" lon="3.20571">
        <ele>323.28</ele>
        <time>2009-11-30T11:50:14.000Z</time>
      </trkpt>
      <trkpt lat="45.84346" lon="3.20635">
        <ele>323.24</ele>
        <time>2009-11-30T11:50:21.000Z</time>
      </trkpt>
      <trkpt lat="45.84308" lon="3.2071">
        <ele>325.02</ele>
        <time>2009-11-30T11:50:30.000Z</time>
      </trkpt>
      <trkpt lat="45.84256" lon="3.20807">
        <ele>323.49</ele>
        <time>2009-11-30T11:50:42.000Z</time>
      </trkpt>
      <trkpt lat="45.84252" lon="3.20815">
        <ele>323.36</ele>
        <time>2009-11-30T11:50:43.000Z</time>
      </trkpt>
      <trkpt lat="45.84228" lon="3.20878">
        <ele>323.08</ele>
        <time>2009-11-30T11:50:50.000Z</time>
      </trkpt>
      <trkpt lat="45.84199" lon="3.20984">
        <ele>322.34</ele>
        <time>2009-11-30T11:51:01.000Z</time>
      </trkpt>
      <trkpt lat="45.84197" lon="3.20994">
        <ele>322.93</ele>
        <time>2009-11-30T11:51:02.000Z</time>
      </trkpt>
      <trkpt lat="45.84168" lon="3.21105">
        <ele>322.49</ele>
        <time>2009-11-30T11:51:13.000Z</time>
      </trkpt>
      <trkpt lat="45.84163" lon="3.21124">
        <ele>322.57</ele>
        <time>2009-11-30T11:51:15.000Z</time>
      </trkpt>
      <trkpt lat="45.84144" lon="3.21154">
        <ele>322.7</ele>
        <time>2009-11-30T11:51:19.000Z</time>
      </trkpt>
      <trkpt lat="45.84136" lon="3.21172">
        <ele>323.01</ele>
        <time>2009-11-30T11:51:21.000Z</time>
      </trkpt>
      <trkpt lat="45.84139" lon="3.21191">
        <ele>323.35</ele>
        <time>2009-11-30T11:51:23.000Z</time>
      </trkpt>
      <trkpt lat="45.84143" lon="3.21198">
        <ele>323.24</ele>
        <time>2009-11-30T11:51:24.000Z</time>
      </trkpt>
      <trkpt lat="45.84161" lon="3.21255">
        <ele>322.66</ele>
        <time>2009-11-30T11:51:30.000Z</time>
      </trkpt>
      <trkpt lat="45.84182" lon="3.21378">
        <ele>323.1</ele>
        <time>2009-11-30T11:51:42.000Z</time>
      </trkpt>
      <trkpt lat="45.84196" lon="3.21458">
        <ele>323.33</ele>
        <time>2009-11-30T11:51:50.000Z</time>
      </trkpt>
      <trkpt lat="45.84197" lon="3.21466">
        <ele>323.72</ele>
        <time>2009-11-30T11:51:51.000Z</time>
      </trkpt>
      <trkpt lat="45.84207" lon="3.21482">
        <ele>324.29</ele>
        <time>2009-11-30T11:51:54.000Z</time>
      </trkpt>
      <trkpt lat="45.84213" lon="3.21483">
        <ele>324.02</ele>
        <time>2009-11-30T11:51:55.000Z</time>
      </trkpt>
      <trkpt lat="45.84268" lon="3.21495">
        <ele>323.32</ele>
        <time>2009-11-30T11:52:03.000Z</time>
      </trkpt>
      <trkpt lat="45.84311" lon="3.21512">
        <ele>323.44</ele>
        <time>2009-11-30T11:52:09.000Z</time>
      </trkpt>
      <trkpt lat="45.84386" lon="3.21559">
        <ele>324.09</ele>
        <time>2009-11-30T11:52:20.000Z</time>
      </trkpt>
      <trkpt lat="45.84456" lon="3.21602">
        <ele>323</ele>
        <time>2009-11-30T11:52:30.000Z</time>
      </trkpt>
      <trkpt lat="45.84533" lon="3.21644">
        <ele>323.71</ele>
        <time>2009-11-30T11:52:41.000Z</time>
      </trkpt>
      <trkpt lat="45.84622" lon="3.21674">
        <ele>325.15</ele>
        <time>2009-11-30T11:52:53.000Z</time>
      </trkpt>
      <trkpt lat="45.84703" lon="3.21699">
        <ele>325.89</ele>
        <time>2009-11-30T11:53:04.000Z</time>
      </trkpt>
      <trkpt lat="45.84784" lon="3.21716">
        <ele>326.15</ele>
        <time>2009-11-30T11:53:15.000Z</time>
      </trkpt>
      <trkpt lat="45.84872" lon="3.21737">
        <ele>326.98</ele>
        <time>2009-11-30T11:53:27.000Z</time>
      </trkpt>
      <trkpt lat="45.84949" lon="3.2177">
        <ele>327.31</ele>
        <time>2009-11-30T11:53:38.000Z</time>
      </trkpt>
      <trkpt lat="45.85013" lon="3.21795">
        <ele>327.6</ele>
        <time>2009-11-30T11:53:47.000Z</time>
      </trkpt>
      <trkpt lat="45.85027" lon="3.21799">
        <ele>327.73</ele>
        <time>2009-11-30T11:53:50.000Z</time>
      </trkpt>
      <trkpt lat="45.85029" lon="3.21801">
        <ele>327.65</ele>
        <time>2009-11-30T11:53:53.000Z</time>
      </trkpt>
      <trkpt lat="45.85038" lon="3.21799">
        <ele>327.23</ele>
        <time>2009-11-30T11:54:12.000Z</time>
      </trkpt>
      <trkpt lat="45.85063" lon="3.21799">
        <ele>326.5</ele>
        <time>2009-11-30T11:54:18.000Z</time>
      </trkpt>
      <trkpt lat="45.85106" lon="3.21796">
        <ele>325.27</ele>
        <time>2009-11-30T11:54:25.000Z</time>
      </trkpt>
      <trkpt lat="45.85162" lon="3.21791">
        <ele>324.96</ele>
        <time>2009-11-30T11:54:33.000Z</time>
      </trkpt>
      <trkpt lat="45.85237" lon="3.21786">
        <ele>324.69</ele>
        <time>2009-11-30T11:54:43.000Z</time>
      </trkpt>
      <trkpt lat="45.85328" lon="3.2178">
        <ele>324.41</ele>
        <time>2009-11-30T11:54:55.000Z</time>
      </trkpt>
      <trkpt lat="45.85418" lon="3.21779">
        <ele>323.74</ele>
        <time>2009-11-30T11:55:07.000Z</time>
      </trkpt>
      <trkpt lat="45.85484" lon="3.21792">
        <ele>324.38</ele>
        <time>2009-11-30T11:55:16.000Z</time>
      </trkpt>
      <trkpt lat="45.85564" lon="3.21816">
        <ele>323.89</ele>
        <time>2009-11-30T11:55:27.000Z</time>
      </trkpt>
      <trkpt lat="45.8566" lon="3.21837">
        <ele>323.06</ele>
        <time>2009-11-30T11:55:40.000Z</time>
      </trkpt>
      <trkpt lat="45.85746" lon="3.21849">
        <ele>322.65</ele>
        <time>2009-11-30T11:55:51.000Z</time>
      </trkpt>
      <trkpt lat="45.85827" lon="3.21852">
        <ele>321.93</ele>
        <time>2009-11-30T11:56:01.000Z</time>
      </trkpt>
      <trkpt lat="45.85933" lon="3.21845">
        <ele>321.11</ele>
        <time>2009-11-30T11:56:14.000Z</time>
      </trkpt>
      <trkpt lat="45.86054" lon="3.21836">
        <ele>319.86</ele>
        <time>2009-11-30T11:56:29.000Z</time>
      </trkpt>
      <trkpt lat="45.86147" lon="3.21824">
        <ele>319.32</ele>
        <time>2009-11-30T11:56:41.000Z</time>
      </trkpt>
      <trkpt lat="45.8624" lon="3.2181">
        <ele>318.34</ele>
        <time>2009-11-30T11:56:53.000Z</time>
      </trkpt>
      <trkpt lat="45.86302" lon="3.21807">
        <ele>318.12</ele>
        <time>2009-11-30T11:57:01.000Z</time>
      </trkpt>
      <trkpt lat="45.86354" lon="3.21822">
        <ele>318.49</ele>
        <time>2009-11-30T11:57:08.000Z</time>
      </trkpt>
      <trkpt lat="45.86361" lon="3.21824">
        <ele>317.79</ele>
        <time>2009-11-30T11:57:09.000Z</time>
      </trkpt>
      <trkpt lat="45.86402" lon="3.21853">
        <ele>317.51</ele>
        <time>2009-11-30T11:57:15.000Z</time>
      </trkpt>
      <trkpt lat="45.86409" lon="3.21858">
        <ele>317.52</ele>
        <time>2009-11-30T11:57:16.000Z</time>
      </trkpt>
      <trkpt lat="45.86459" lon="3.21909">
        <ele>317.84</ele>
        <time>2009-11-30T11:57:24.000Z</time>
      </trkpt>
      <trkpt lat="45.86513" lon="3.21964">
        <ele>317.67</ele>
        <time>2009-11-30T11:57:33.000Z</time>
      </trkpt>
      <trkpt lat="45.86571" lon="3.22033">
        <ele>317.21</ele>
        <time>2009-11-30T11:57:43.000Z</time>
      </trkpt>
      <trkpt lat="45.86634" lon="3.2211">
        <ele>317</ele>
        <time>2009-11-30T11:57:54.000Z</time>
      </trkpt>
      <trkpt lat="45.86671" lon="3.22158">
        <ele>317.43</ele>
        <time>2009-11-30T11:58:01.000Z</time>
      </trkpt>
      <trkpt lat="45.86713" lon="3.22228">
        <ele>318.07</ele>
        <time>2009-11-30T11:58:10.000Z</time>
      </trkpt>
      <trkpt lat="45.86744" lon="3.22281">
        <ele>316.67</ele>
        <time>2009-11-30T11:58:17.000Z</time>
      </trkpt>
      <trkpt lat="45.86782" lon="3.22349">
        <ele>316.84</ele>
        <time>2009-11-30T11:58:26.000Z</time>
      </trkpt>
      <trkpt lat="45.86828" lon="3.22421">
        <ele>316.83</ele>
        <time>2009-11-30T11:58:36.000Z</time>
      </trkpt>
      <trkpt lat="45.86873" lon="3.22478">
        <ele>317.51</ele>
        <time>2009-11-30T11:58:45.000Z</time>
      </trkpt>
      <trkpt lat="45.86915" lon="3.22532">
        <ele>317.15</ele>
        <time>2009-11-30T11:58:53.000Z</time>
      </trkpt>
      <trkpt lat="45.86984" lon="3.22619">
        <ele>317.37</ele>
        <time>2009-11-30T11:59:06.000Z</time>
      </trkpt>
      <trkpt lat="45.8704" lon="3.22698">
        <ele>316.96</ele>
        <time>2009-11-30T11:59:17.000Z</time>
      </trkpt>
      <trkpt lat="45.87083" lon="3.22772">
        <ele>316.92</ele>
        <time>2009-11-30T11:59:26.000Z</time>
      </trkpt>
      <trkpt lat="45.87116" lon="3.22843">
        <ele>317.39</ele>
        <time>2009-11-30T11:59:34.000Z</time>
      </trkpt>
      <trkpt lat="45.87153" lon="3.22911">
        <ele>317.26</ele>
        <time>2009-11-30T11:59:42.000Z</time>
      </trkpt>
      <trkpt lat="45.87168" lon="3.22932">
        <ele>316.31</ele>
        <time>2009-11-30T11:59:45.000Z</time>
      </trkpt>
      <trkpt lat="45.87192" lon="3.22944">
        <ele>316.25</ele>
        <time>2009-11-30T11:59:49.000Z</time>
      </trkpt>
      <trkpt lat="45.87209" lon="3.22936">
        <ele>317</ele>
        <time>2009-11-30T11:59:52.000Z</time>
      </trkpt>
      <trkpt lat="45.87218" lon="3.22943">
        <ele>316.54</ele>
        <time>2009-11-30T11:59:54.000Z</time>
      </trkpt>
      <trkpt lat="45.87221" lon="3.22951">
        <ele>316.05</ele>
        <time>2009-11-30T11:59:55.000Z</time>
      </trkpt>
      <trkpt lat="45.87238" lon="3.23015">
        <ele>316.2</ele>
        <time>2009-11-30T12:00:02.000Z</time>
      </trkpt>
      <trkpt lat="45.87268" lon="3.23076">
        <ele>316.18</ele>
        <time>2009-11-30T12:00:09.000Z</time>
      </trkpt>
      <trkpt lat="45.87332" lon="3.2319">
        <ele>315.9</ele>
        <time>2009-11-30T12:00:23.000Z</time>
      </trkpt>
      <trkpt lat="45.87399" lon="3.23309">
        <ele>316.52</ele>
        <time>2009-11-30T12:00:37.000Z</time>
      </trkpt>
      <trkpt lat="45.87437" lon="3.23389">
        <ele>315.82</ele>
        <time>2009-11-30T12:00:46.000Z</time>
      </trkpt>
      <trkpt lat="45.87476" lon="3.23494">
        <ele>315.62</ele>
        <time>2009-11-30T12:00:57.000Z</time>
      </trkpt>
      <trkpt lat="45.87524" lon="3.23626">
        <ele>316.07</ele>
        <time>2009-11-30T12:01:11.000Z</time>
      </trkpt>
      <trkpt lat="45.87576" lon="3.23763">
        <ele>315.71</ele>
        <time>2009-11-30T12:01:25.000Z</time>
      </trkpt>
      <trkpt lat="45.87613" lon="3.23846">
        <ele>314.13</ele>
        <time>2009-11-30T12:01:34.000Z</time>
      </trkpt>
      <trkpt lat="45.87652" lon="3.23939">
        <ele>315.15</ele>
        <time>2009-11-30T12:01:44.000Z</time>
      </trkpt>
      <trkpt lat="45.87691" lon="3.24046">
        <ele>314.91</ele>
        <time>2009-11-30T12:01:55.000Z</time>
      </trkpt>
      <trkpt lat="45.87734" lon="3.24172">
        <ele>315.08</ele>
        <time>2009-11-30T12:02:08.000Z</time>
      </trkpt>
      <trkpt lat="45.87779" lon="3.24305">
        <ele>314.47</ele>
        <time>2009-11-30T12:02:22.000Z</time>
      </trkpt>
      <trkpt lat="45.87821" lon="3.24427">
        <ele>315.37</ele>
        <time>2009-11-30T12:02:35.000Z</time>
      </trkpt>
      <trkpt lat="45.8785" lon="3.24514">
        <ele>315.12</ele>
        <time>2009-11-30T12:02:44.000Z</time>
      </trkpt>
      <trkpt lat="45.879" lon="3.24662">
        <ele>313.5</ele>
        <time>2009-11-30T12:02:59.000Z</time>
      </trkpt>
      <trkpt lat="45.87938" lon="3.2477">
        <ele>312.31</ele>
        <time>2009-11-30T12:03:10.000Z</time>
      </trkpt>
      <trkpt lat="45.87968" lon="3.24859">
        <ele>312.34</ele>
        <time>2009-11-30T12:03:19.000Z</time>
      </trkpt>
      <trkpt lat="45.88001" lon="3.24964">
        <ele>313.11</ele>
        <time>2009-11-30T12:03:30.000Z</time>
      </trkpt>
      <trkpt lat="45.88018" lon="3.25044">
        <ele>313.5</ele>
        <time>2009-11-30T12:03:38.000Z</time>
      </trkpt>
      <trkpt lat="45.88039" lon="3.25157">
        <ele>312.69</ele>
        <time>2009-11-30T12:03:49.000Z</time>
      </trkpt>
      <trkpt lat="45.88062" lon="3.25258">
        <ele>312.96</ele>
        <time>2009-11-30T12:03:59.000Z</time>
      </trkpt>
      <trkpt lat="45.88085" lon="3.25313">
        <ele>312.61</ele>
        <time>2009-11-30T12:04:05.000Z</time>
      </trkpt>
      <trkpt lat="45.88126" lon="3.25391">
        <ele>312.73</ele>
        <time>2009-11-30T12:04:14.000Z</time>
      </trkpt>
      <trkpt lat="45.88179" lon="3.25498">
        <ele>311.68</ele>
        <time>2009-11-30T12:04:26.000Z</time>
      </trkpt>
      <trkpt lat="45.88228" lon="3.25596">
        <ele>311.68</ele>
        <time>2009-11-30T12:04:37.000Z</time>
      </trkpt>
      <trkpt lat="45.8829" lon="3.25719">
        <ele>311.69</ele>
        <time>2009-11-30T12:04:51.000Z</time>
      </trkpt>
      <trkpt lat="45.8835" lon="3.2584">
        <ele>311.2</ele>
        <time>2009-11-30T12:05:05.000Z</time>
      </trkpt>
      <trkpt lat="45.88373" lon="3.25905">
        <ele>311.62</ele>
        <time>2009-11-30T12:05:12.000Z</time>
      </trkpt>
      <trkpt lat="45.88404" lon="3.26001">
        <ele>310.99</ele>
        <time>2009-11-30T12:05:22.000Z</time>
      </trkpt>
      <trkpt lat="45.88441" lon="3.26114">
        <ele>309.95</ele>
        <time>2009-11-30T12:05:34.000Z</time>
      </trkpt>
      <trkpt lat="45.8846" lon="3.26178">
        <ele>310.9</ele>
        <time>2009-11-30T12:05:41.000Z</time>
      </trkpt>
      <trkpt lat="45.88457" lon="3.26217">
        <ele>309.62</ele>
        <time>2009-11-30T12:05:45.000Z</time>
      </trkpt>
      <trkpt lat="45.88446" lon="3.2623">
        <ele>309.42</ele>
        <time>2009-11-30T12:05:47.000Z</time>
      </trkpt>
      <trkpt lat="45.88389" lon="3.26266">
        <ele>310.78</ele>
        <time>2009-11-30T12:05:56.000Z</time>
      </trkpt>
      <trkpt lat="45.88308" lon="3.26318">
        <ele>310.74</ele>
        <time>2009-11-30T12:06:09.000Z</time>
      </trkpt>
      <trkpt lat="45.88235" lon="3.26365">
        <ele>311.72</ele>
        <time>2009-11-30T12:06:21.000Z</time>
      </trkpt>
      <trkpt lat="45.88167" lon="3.2641">
        <ele>313.03</ele>
        <time>2009-11-30T12:06:32.000Z</time>
      </trkpt>
      <trkpt lat="45.88074" lon="3.2647">
        <ele>313.53</ele>
        <time>2009-11-30T12:06:47.000Z</time>
      </trkpt>
      <trkpt lat="45.88044" lon="3.2649">
        <ele>314.95</ele>
        <time>2009-11-30T12:06:52.000Z</time>
      </trkpt>
      <trkpt lat="45.87974" lon="3.26537">
        <ele>316.94</ele>
        <time>2009-11-30T12:07:04.000Z</time>
      </trkpt>
      <trkpt lat="45.87904" lon="3.26586">
        <ele>316.75</ele>
        <time>2009-11-30T12:07:16.000Z</time>
      </trkpt>
      <trkpt lat="45.87855" lon="3.26621">
        <ele>317.66</ele>
        <time>2009-11-30T12:07:24.000Z</time>
      </trkpt>
      <trkpt lat="45.87768" lon="3.26682">
        <ele>316.88</ele>
        <time>2009-11-30T12:07:38.000Z</time>
      </trkpt>
      <trkpt lat="45.87694" lon="3.26733">
        <ele>317.87</ele>
        <time>2009-11-30T12:07:50.000Z</time>
      </trkpt>
      <trkpt lat="45.87633" lon="3.26779">
        <ele>318.7</ele>
        <time>2009-11-30T12:08:00.000Z</time>
      </trkpt>
      <trkpt lat="45.8761" lon="3.26816">
        <ele>319.26</ele>
        <time>2009-11-30T12:08:05.000Z</time>
      </trkpt>
      <trkpt lat="45.87607" lon="3.26826">
        <ele>318.46</ele>
        <time>2009-11-30T12:08:06.000Z</time>
      </trkpt>
      <trkpt lat="45.87598" lon="3.26899">
        <ele>319.04</ele>
        <time>2009-11-30T12:08:13.000Z</time>
      </trkpt>
      <trkpt lat="45.87585" lon="3.27016">
        <ele>318.59</ele>
        <time>2009-11-30T12:08:25.000Z</time>
      </trkpt>
      <trkpt lat="45.87575" lon="3.27114">
        <ele>320.13</ele>
        <time>2009-11-30T12:08:35.000Z</time>
      </trkpt>
      <trkpt lat="45.87565" lon="3.27222">
        <ele>321.01</ele>
        <time>2009-11-30T12:08:46.000Z</time>
      </trkpt>
      <trkpt lat="45.87553" lon="3.27337">
        <ele>322.6</ele>
        <time>2009-11-30T12:08:58.000Z</time>
      </trkpt>
      <trkpt lat="45.87536" lon="3.27412">
        <ele>323.96</ele>
        <time>2009-11-30T12:09:06.000Z</time>
      </trkpt>
      <trkpt lat="45.87507" lon="3.27503">
        <ele>323.62</ele>
        <time>2009-11-30T12:09:16.000Z</time>
      </trkpt>
      <trkpt lat="45.87487" lon="3.2758">
        <ele>324.21</ele>
        <time>2009-11-30T12:09:24.000Z</time>
      </trkpt>
      <trkpt lat="45.87482" lon="3.27642">
        <ele>323.61</ele>
        <time>2009-11-30T12:09:30.000Z</time>
      </trkpt>
      <trkpt lat="45.87479" lon="3.2779">
        <ele>321.72</ele>
        <time>2009-11-30T12:09:44.000Z</time>
      </trkpt>
      <trkpt lat="45.87474" lon="3.27886">
        <ele>321.62</ele>
        <time>2009-11-30T12:09:53.000Z</time>
      </trkpt>
      <trkpt lat="45.87461" lon="3.27937">
        <ele>321.95</ele>
        <time>2009-11-30T12:09:58.000Z</time>
      </trkpt>
      <trkpt lat="45.87424" lon="3.28029">
        <ele>321.58</ele>
        <time>2009-11-30T12:10:08.000Z</time>
      </trkpt>
      <trkpt lat="45.8737" lon="3.28156">
        <ele>321.07</ele>
        <time>2009-11-30T12:10:22.000Z</time>
      </trkpt>
      <trkpt lat="45.87331" lon="3.28255">
        <ele>321.76</ele>
        <time>2009-11-30T12:10:33.000Z</time>
      </trkpt>
      <trkpt lat="45.87297" lon="3.28357">
        <ele>322.39</ele>
        <time>2009-11-30T12:10:44.000Z</time>
      </trkpt>
      <trkpt lat="45.87258" lon="3.28473">
        <ele>321.52</ele>
        <time>2009-11-30T12:10:56.000Z</time>
      </trkpt>
      <trkpt lat="45.87226" lon="3.28571">
        <ele>321.91</ele>
        <time>2009-11-30T12:11:06.000Z</time>
      </trkpt>
      <trkpt lat="45.87188" lon="3.28672">
        <ele>322.62</ele>
        <time>2009-11-30T12:11:17.000Z</time>
      </trkpt>
      <trkpt lat="45.87152" lon="3.28734">
        <ele>322.7</ele>
        <time>2009-11-30T12:11:25.000Z</time>
      </trkpt>
      <trkpt lat="45.87084" lon="3.28829">
        <ele>325.15</ele>
        <time>2009-11-30T12:11:39.000Z</time>
      </trkpt>
      <trkpt lat="45.87026" lon="3.28912">
        <ele>326.06</ele>
        <time>2009-11-30T12:11:51.000Z</time>
      </trkpt>
      <trkpt lat="45.8699" lon="3.28978">
        <ele>323.82</ele>
        <time>2009-11-30T12:11:59.000Z</time>
      </trkpt>
      <trkpt lat="45.86985" lon="3.28987">
        <ele>323.59</ele>
        <time>2009-11-30T12:12:00.000Z</time>
      </trkpt>
      <trkpt lat="45.86958" lon="3.29043">
        <ele>321.94</ele>
        <time>2009-11-30T12:12:06.000Z</time>
      </trkpt>
      <trkpt lat="45.86929" lon="3.29111">
        <ele>320.77</ele>
        <time>2009-11-30T12:12:13.000Z</time>
      </trkpt>
      <trkpt lat="45.86896" lon="3.29217">
        <ele>319.25</ele>
        <time>2009-11-30T12:12:23.000Z</time>
      </trkpt>
      <trkpt lat="45.86843" lon="3.29383">
        <ele>317.11</ele>
        <time>2009-11-30T12:12:39.000Z</time>
      </trkpt>
      <trkpt lat="45.86809" lon="3.2946">
        <ele>315.97</ele>
        <time>2009-11-30T12:12:47.000Z</time>
      </trkpt>
      <trkpt lat="45.86755" lon="3.29571">
        <ele>315.68</ele>
        <time>2009-11-30T12:12:59.000Z</time>
      </trkpt>
      <trkpt lat="45.86709" lon="3.29664">
        <ele>314.67</ele>
        <time>2009-11-30T12:13:09.000Z</time>
      </trkpt>
      <trkpt lat="45.86674" lon="3.29749">
        <ele>315.58</ele>
        <time>2009-11-30T12:13:18.000Z</time>
      </trkpt>
      <trkpt lat="45.86636" lon="3.29867">
        <ele>315.43</ele>
        <time>2009-11-30T12:13:30.000Z</time>
      </trkpt>
      <trkpt lat="45.86601" lon="3.29984">
        <ele>314.96</ele>
        <time>2009-11-30T12:13:42.000Z</time>
      </trkpt>
      <trkpt lat="45.86586" lon="3.30065">
        <ele>313.94</ele>
        <time>2009-11-30T12:13:50.000Z</time>
      </trkpt>
      <trkpt lat="45.86567" lon="3.30188">
        <ele>314.21</ele>
        <time>2009-11-30T12:14:02.000Z</time>
      </trkpt>
      <trkpt lat="45.86555" lon="3.30244">
        <ele>313.88</ele>
        <time>2009-11-30T12:14:08.000Z</time>
      </trkpt>
      <trkpt lat="45.86547" lon="3.30269">
        <ele>313.18</ele>
        <time>2009-11-30T12:14:12.000Z</time>
      </trkpt>
      <trkpt lat="45.86544" lon="3.30271">
        <ele>312.83</ele>
        <time>2009-11-30T12:14:13.000Z</time>
      </trkpt>
      <trkpt lat="45.86513" lon="3.3027">
        <ele>312.95</ele>
        <time>2009-11-30T12:14:19.000Z</time>
      </trkpt>
      <trkpt lat="45.86463" lon="3.30259">
        <ele>313.63</ele>
        <time>2009-11-30T12:14:27.000Z</time>
      </trkpt>
      <trkpt lat="45.86403" lon="3.30239">
        <ele>313.98</ele>
        <time>2009-11-30T12:14:36.000Z</time>
      </trkpt>
      <trkpt lat="45.86356" lon="3.30209">
        <ele>314.26</ele>
        <time>2009-11-30T12:14:43.000Z</time>
      </trkpt>
      <trkpt lat="45.86327" lon="3.30197">
        <ele>312.1</ele>
        <time>2009-11-30T12:14:47.000Z</time>
      </trkpt>
      <trkpt lat="45.86265" lon="3.30176">
        <ele>312.31</ele>
        <time>2009-11-30T12:14:55.000Z</time>
      </trkpt>
      <trkpt lat="45.86252" lon="3.30186">
        <ele>310.83</ele>
        <time>2009-11-30T12:14:58.000Z</time>
      </trkpt>
      <trkpt lat="45.86242" lon="3.30241">
        <ele>309.53</ele>
        <time>2009-11-30T12:15:04.000Z</time>
      </trkpt>
      <trkpt lat="45.8623" lon="3.30305">
        <ele>305.62</ele>
        <time>2009-11-30T12:15:10.000Z</time>
      </trkpt>
      <trkpt lat="45.86223" lon="3.30347">
        <ele>302.96</ele>
        <time>2009-11-30T12:15:14.000Z</time>
      </trkpt>
      <trkpt lat="45.86219" lon="3.30366">
        <ele>302.16</ele>
        <time>2009-11-30T12:15:17.000Z</time>
      </trkpt>
      <trkpt lat="45.86218" lon="3.30377">
        <ele>300.74</ele>
        <time>2009-11-30T12:15:19.000Z</time>
      </trkpt>
      <trkpt lat="45.86217" lon="3.30412">
        <ele>299.15</ele>
        <time>2009-11-30T12:15:23.000Z</time>
      </trkpt>
      <trkpt lat="45.86211" lon="3.30488">
        <ele>298.41</ele>
        <time>2009-11-30T12:15:30.000Z</time>
      </trkpt>
      <trkpt lat="45.86208" lon="3.3051">
        <ele>299.16</ele>
        <time>2009-11-30T12:15:32.000Z</time>
      </trkpt>
      <trkpt lat="45.86195" lon="3.30592">
        <ele>299.18</ele>
        <time>2009-11-30T12:15:40.000Z</time>
      </trkpt>
      <trkpt lat="45.86169" lon="3.30719">
        <ele>300.61</ele>
        <time>2009-11-30T12:15:53.000Z</time>
      </trkpt>
      <trkpt lat="45.8615" lon="3.30813">
        <ele>298.26</ele>
        <time>2009-11-30T12:16:02.000Z</time>
      </trkpt>
      <trkpt lat="45.86137" lon="3.30879">
        <ele>297.15</ele>
        <time>2009-11-30T12:16:08.000Z</time>
      </trkpt>
      <trkpt lat="45.86127" lon="3.30924">
        <ele>295.72</ele>
        <time>2009-11-30T12:16:12.000Z</time>
      </trkpt>
      <trkpt lat="45.86097" lon="3.31074">
        <ele>294.65</ele>
        <time>2009-11-30T12:16:25.000Z</time>
      </trkpt>
      <trkpt lat="45.86068" lon="3.31216">
        <ele>293.92</ele>
        <time>2009-11-30T12:16:38.000Z</time>
      </trkpt>
      <trkpt lat="45.86045" lon="3.3134">
        <ele>293.71</ele>
        <time>2009-11-30T12:16:49.000Z</time>
      </trkpt>
      <trkpt lat="45.86039" lon="3.31398">
        <ele>292.95</ele>
        <time>2009-11-30T12:16:54.000Z</time>
      </trkpt>
      <trkpt lat="45.86038" lon="3.31516">
        <ele>292.62</ele>
        <time>2009-11-30T12:17:04.000Z</time>
      </trkpt>
      <trkpt lat="45.86038" lon="3.31628">
        <ele>293.42</ele>
        <time>2009-11-30T12:17:14.000Z</time>
      </trkpt>
      <trkpt lat="45.86039" lon="3.31785">
        <ele>293.89</ele>
        <time>2009-11-30T12:17:29.000Z</time>
      </trkpt>
      <trkpt lat="45.8604" lon="3.31912">
        <ele>293.26</ele>
        <time>2009-11-30T12:17:41.000Z</time>
      </trkpt>
      <trkpt lat="45.8604" lon="3.32065">
        <ele>293.59</ele>
        <time>2009-11-30T12:17:55.000Z</time>
      </trkpt>
      <trkpt lat="45.86042" lon="3.32194">
        <ele>293.27</ele>
        <time>2009-11-30T12:18:07.000Z</time>
      </trkpt>
      <trkpt lat="45.86049" lon="3.32251">
        <ele>295.32</ele>
        <time>2009-11-30T12:18:13.000Z</time>
      </trkpt>
      <trkpt lat="45.86061" lon="3.32298">
        <ele>297.13</ele>
        <time>2009-11-30T12:18:19.000Z</time>
      </trkpt>
      <trkpt lat="45.86077" lon="3.32352">
        <ele>300.53</ele>
        <time>2009-11-30T12:18:27.000Z</time>
      </trkpt>
      <trkpt lat="45.86097" lon="3.32419">
        <ele>302.48</ele>
        <time>2009-11-30T12:18:37.000Z</time>
      </trkpt>
      <trkpt lat="45.86111" lon="3.32479">
        <ele>304.13</ele>
        <time>2009-11-30T12:18:45.000Z</time>
      </trkpt>
      <trkpt lat="45.86114" lon="3.32513">
        <ele>303.7</ele>
        <time>2009-11-30T12:18:49.000Z</time>
      </trkpt>
      <trkpt lat="45.86112" lon="3.32575">
        <ele>303.54</ele>
        <time>2009-11-30T12:18:56.000Z</time>
      </trkpt>
      <trkpt lat="45.86098" lon="3.32651">
        <ele>303.79</ele>
        <time>2009-11-30T12:19:04.000Z</time>
      </trkpt>
      <trkpt lat="45.86089" lon="3.32729">
        <ele>303</ele>
        <time>2009-11-30T12:19:12.000Z</time>
      </trkpt>
      <trkpt lat="45.86087" lon="3.32842">
        <ele>303.02</ele>
        <time>2009-11-30T12:19:23.000Z</time>
      </trkpt>
      <trkpt lat="45.86092" lon="3.32965">
        <ele>303.1</ele>
        <time>2009-11-30T12:19:35.000Z</time>
      </trkpt>
      <trkpt lat="45.86101" lon="3.33066">
        <ele>303.65</ele>
        <time>2009-11-30T12:19:45.000Z</time>
      </trkpt>
      <trkpt lat="45.86108" lon="3.33148">
        <ele>302.15</ele>
        <time>2009-11-30T12:19:53.000Z</time>
      </trkpt>
      <trkpt lat="45.86115" lon="3.33222">
        <ele>301.43</ele>
        <time>2009-11-30T12:20:00.000Z</time>
      </trkpt>
      <trkpt lat="45.86121" lon="3.33255">
        <ele>299.84</ele>
        <time>2009-11-30T12:20:03.000Z</time>
      </trkpt>
      <trkpt lat="45.86144" lon="3.33335">
        <ele>296.96</ele>
        <time>2009-11-30T12:20:10.000Z</time>
      </trkpt>
      <trkpt lat="45.86169" lon="3.33424">
        <ele>297.13</ele>
        <time>2009-11-30T12:20:18.000Z</time>
      </trkpt>
      <trkpt lat="45.86191" lon="3.33482">
        <ele>296.14</ele>
        <time>2009-11-30T12:20:24.000Z</time>
      </trkpt>
      <trkpt lat="45.86215" lon="3.3351">
        <ele>295.73</ele>
        <time>2009-11-30T12:20:28.000Z</time>
      </trkpt>
      <trkpt lat="45.8623" lon="3.33519">
        <ele>295.89</ele>
        <time>2009-11-30T12:20:30.000Z</time>
      </trkpt>
      <trkpt lat="45.86282" lon="3.33545">
        <ele>297.04</ele>
        <time>2009-11-30T12:20:38.000Z</time>
      </trkpt>
      <trkpt lat="45.86288" lon="3.33548">
        <ele>297.46</ele>
        <time>2009-11-30T12:20:39.000Z</time>
      </trkpt>
      <trkpt lat="45.86294" lon="3.33565">
        <ele>298</ele>
        <time>2009-11-30T12:20:42.000Z</time>
      </trkpt>
      <trkpt lat="45.86292" lon="3.33571">
        <ele>298</ele>
        <time>2009-11-30T12:20:43.000Z</time>
      </trkpt>
      <trkpt lat="45.86284" lon="3.33598">
        <ele>299.94</ele>
        <time>2009-11-30T12:20:47.000Z</time>
      </trkpt>
      <trkpt lat="45.86274" lon="3.33651">
        <ele>300.75</ele>
        <time>2009-11-30T12:20:54.000Z</time>
      </trkpt>
      <trkpt lat="45.86273" lon="3.33676">
        <ele>301.96</ele>
        <time>2009-11-30T12:20:57.000Z</time>
      </trkpt>
      <trkpt lat="45.8627" lon="3.3369">
        <ele>301.64</ele>
        <time>2009-11-30T12:20:59.000Z</time>
      </trkpt>
      <trkpt lat="45.86262" lon="3.33735">
        <ele>301.17</ele>
        <time>2009-11-30T12:21:05.000Z</time>
      </trkpt>
      <trkpt lat="45.86258" lon="3.33772">
        <ele>301.23</ele>
        <time>2009-11-30T12:21:10.000Z</time>
      </trkpt>
      <trkpt lat="45.86263" lon="3.33809">
        <ele>301.32</ele>
        <time>2009-11-30T12:21:15.000Z</time>
      </trkpt>
      <trkpt lat="45.86276" lon="3.33859">
        <ele>302.79</ele>
        <time>2009-11-30T12:21:22.000Z</time>
      </trkpt>
      <trkpt lat="45.86298" lon="3.33899">
        <ele>303.29</ele>
        <time>2009-11-30T12:21:28.000Z</time>
      </trkpt>
      <trkpt lat="45.86315" lon="3.33926">
        <ele>302.82</ele>
        <time>2009-11-30T12:21:32.000Z</time>
      </trkpt>
      <trkpt lat="45.86357" lon="3.33987">
        <ele>304.24</ele>
        <time>2009-11-30T12:21:42.000Z</time>
      </trkpt>
      <trkpt lat="45.86386" lon="3.34038">
        <ele>305.33</ele>
        <time>2009-11-30T12:21:50.000Z</time>
      </trkpt>
      <trkpt lat="45.86409" lon="3.34094">
        <ele>305.67</ele>
        <time>2009-11-30T12:21:58.000Z</time>
      </trkpt>
      <trkpt lat="45.86435" lon="3.34169">
        <ele>307.1</ele>
        <time>2009-11-30T12:22:08.000Z</time>
      </trkpt>
      <trkpt lat="45.86439" lon="3.3422">
        <ele>307.87</ele>
        <time>2009-11-30T12:22:14.000Z</time>
      </trkpt>
      <trkpt lat="45.86439" lon="3.34236">
        <ele>308.75</ele>
        <time>2009-11-30T12:22:16.000Z</time>
      </trkpt>
      <trkpt lat="45.86438" lon="3.34315">
        <ele>310.29</ele>
        <time>2009-11-30T12:22:26.000Z</time>
      </trkpt>
      <trkpt lat="45.86434" lon="3.34379">
        <ele>312.64</ele>
        <time>2009-11-30T12:22:35.000Z</time>
      </trkpt>
      <trkpt lat="45.8643" lon="3.34416">
        <ele>314.8</ele>
        <time>2009-11-30T12:22:41.000Z</time>
      </trkpt>
      <trkpt lat="45.86423" lon="3.34467">
        <ele>317.73</ele>
        <time>2009-11-30T12:22:50.000Z</time>
      </trkpt>
      <trkpt lat="45.86412" lon="3.34522">
        <ele>321.01</ele>
        <time>2009-11-30T12:23:00.000Z</time>
      </trkpt>
      <trkpt lat="45.86399" lon="3.34579">
        <ele>322.41</ele>
        <time>2009-11-30T12:23:10.000Z</time>
      </trkpt>
      <trkpt lat="45.86398" lon="3.34629">
        <ele>325.21</ele>
        <time>2009-11-30T12:23:18.000Z</time>
      </trkpt>
      <trkpt lat="45.86406" lon="3.34677">
        <ele>326.83</ele>
        <time>2009-11-30T12:23:26.000Z</time>
      </trkpt>
      <trkpt lat="45.86413" lon="3.34739">
        <ele>329.06</ele>
        <time>2009-11-30T12:23:36.000Z</time>
      </trkpt>
      <trkpt lat="45.86416" lon="3.34795">
        <ele>331.49</ele>
        <time>2009-11-30T12:23:45.000Z</time>
      </trkpt>
      <trkpt lat="45.86419" lon="3.34861">
        <ele>333.3</ele>
        <time>2009-11-30T12:23:56.000Z</time>
      </trkpt>
      <trkpt lat="45.86425" lon="3.34944">
        <ele>335.58</ele>
        <time>2009-11-30T12:24:09.000Z</time>
      </trkpt>
      <trkpt lat="45.8643" lon="3.35005">
        <ele>337.25</ele>
        <time>2009-11-30T12:24:18.000Z</time>
      </trkpt>
      <trkpt lat="45.86436" lon="3.35078">
        <ele>337.55</ele>
        <time>2009-11-30T12:24:28.000Z</time>
      </trkpt>
      <trkpt lat="45.86434" lon="3.3513">
        <ele>338.33</ele>
        <time>2009-11-30T12:24:35.000Z</time>
      </trkpt>
      <trkpt lat="45.86422" lon="3.35182">
        <ele>339.26</ele>
        <time>2009-11-30T12:24:42.000Z</time>
      </trkpt>
      <trkpt lat="45.86405" lon="3.35256">
        <ele>340.49</ele>
        <time>2009-11-30T12:24:52.000Z</time>
      </trkpt>
      <trkpt lat="45.86394" lon="3.35335">
        <ele>342.27</ele>
        <time>2009-11-30T12:25:03.000Z</time>
      </trkpt>
      <trkpt lat="45.86385" lon="3.35397">
        <ele>344</ele>
        <time>2009-11-30T12:25:12.000Z</time>
      </trkpt>
      <trkpt lat="45.86376" lon="3.35461">
        <ele>346.51</ele>
        <time>2009-11-30T12:25:22.000Z</time>
      </trkpt>
      <trkpt lat="45.86369" lon="3.35512">
        <ele>347.75</ele>
        <time>2009-11-30T12:25:30.000Z</time>
      </trkpt>
      <trkpt lat="45.86365" lon="3.35566">
        <ele>351.26</ele>
        <time>2009-11-30T12:25:38.000Z</time>
      </trkpt>
      <trkpt lat="45.86367" lon="3.35638">
        <ele>353.66</ele>
        <time>2009-11-30T12:25:49.000Z</time>
      </trkpt>
      <trkpt lat="45.86377" lon="3.35709">
        <ele>356.33</ele>
        <time>2009-11-30T12:26:00.000Z</time>
      </trkpt>
      <trkpt lat="45.86386" lon="3.35773">
        <ele>355.51</ele>
        <time>2009-11-30T12:26:09.000Z</time>
      </trkpt>
      <trkpt lat="45.86392" lon="3.35855">
        <ele>355.53</ele>
        <time>2009-11-30T12:26:19.000Z</time>
      </trkpt>
      <trkpt lat="45.86397" lon="3.35912">
        <ele>355.78</ele>
        <time>2009-11-30T12:26:26.000Z</time>
      </trkpt>
      <trkpt lat="45.86398" lon="3.35928">
        <ele>355.21</ele>
        <time>2009-11-30T12:26:28.000Z</time>
      </trkpt>
      <trkpt lat="45.86403" lon="3.35945">
        <ele>355.21</ele>
        <time>2009-11-30T12:26:32.000Z</time>
      </trkpt>
      <trkpt lat="45.86407" lon="3.35952">
        <ele>355.97</ele>
        <time>2009-11-30T12:26:37.000Z</time>
      </trkpt>
      <trkpt lat="45.86408" lon="3.35947">
        <ele>355.03</ele>
        <time>2009-11-30T12:27:27.000Z</time>
      </trkpt>
      <trkpt lat="45.86403" lon="3.35939">
        <ele>355.72</ele>
        <time>2009-11-30T12:27:35.000Z</time>
      </trkpt>
      <trkpt lat="45.86398" lon="3.35945">
        <ele>355.8</ele>
        <time>2009-11-30T12:27:39.000Z</time>
      </trkpt>
      <trkpt lat="45.86397" lon="3.35954">
        <ele>356.07</ele>
        <time>2009-11-30T12:27:41.000Z</time>
      </trkpt>
      <trkpt lat="45.86388" lon="3.35994">
        <ele>356.1</ele>
        <time>2009-11-30T12:27:48.000Z</time>
      </trkpt>
      <trkpt lat="45.86374" lon="3.36044">
        <ele>355.94</ele>
        <time>2009-11-30T12:27:55.000Z</time>
      </trkpt>
      <trkpt lat="45.86357" lon="3.36107">
        <ele>355.95</ele>
        <time>2009-11-30T12:28:03.000Z</time>
      </trkpt>
      <trkpt lat="45.86336" lon="3.36184">
        <ele>356.16</ele>
        <time>2009-11-30T12:28:12.000Z</time>
      </trkpt>
      <trkpt lat="45.863" lon="3.36323">
        <ele>355.37</ele>
        <time>2009-11-30T12:28:27.000Z</time>
      </trkpt>
      <trkpt lat="45.86275" lon="3.36413">
        <ele>354.47</ele>
        <time>2009-11-30T12:28:36.000Z</time>
      </trkpt>
      <trkpt lat="45.86247" lon="3.36518">
        <ele>354.64</ele>
        <time>2009-11-30T12:28:46.000Z</time>
      </trkpt>
      <trkpt lat="45.86217" lon="3.36627">
        <ele>354.74</ele>
        <time>2009-11-30T12:28:57.000Z</time>
      </trkpt>
      <trkpt lat="45.86191" lon="3.36725">
        <ele>356.35</ele>
        <time>2009-11-30T12:29:08.000Z</time>
      </trkpt>
      <trkpt lat="45.86156" lon="3.36857">
        <ele>357.43</ele>
        <time>2009-11-30T12:29:23.000Z</time>
      </trkpt>
      <trkpt lat="45.86125" lon="3.3697">
        <ele>357.7</ele>
        <time>2009-11-30T12:29:35.000Z</time>
      </trkpt>
      <trkpt lat="45.86094" lon="3.37087">
        <ele>358.93</ele>
        <time>2009-11-30T12:29:48.000Z</time>
      </trkpt>
      <trkpt lat="45.86069" lon="3.37182">
        <ele>357.9</ele>
        <time>2009-11-30T12:29:58.000Z</time>
      </trkpt>
      <trkpt lat="45.86035" lon="3.37307">
        <ele>357.44</ele>
        <time>2009-11-30T12:30:11.000Z</time>
      </trkpt>
      <trkpt lat="45.86002" lon="3.37431">
        <ele>357.63</ele>
        <time>2009-11-30T12:30:24.000Z</time>
      </trkpt>
      <trkpt lat="45.8597" lon="3.3755">
        <ele>358.85</ele>
        <time>2009-11-30T12:30:37.000Z</time>
      </trkpt>
      <trkpt lat="45.85935" lon="3.37684">
        <ele>358.63</ele>
        <time>2009-11-30T12:30:52.000Z</time>
      </trkpt>
      <trkpt lat="45.85914" lon="3.37761">
        <ele>360.99</ele>
        <time>2009-11-30T12:31:01.000Z</time>
      </trkpt>
      <trkpt lat="45.85889" lon="3.37852">
        <ele>361.58</ele>
        <time>2009-11-30T12:31:12.000Z</time>
      </trkpt>
      <trkpt lat="45.8587" lon="3.37924">
        <ele>363.94</ele>
        <time>2009-11-30T12:31:21.000Z</time>
      </trkpt>
      <trkpt lat="45.85851" lon="3.37995">
        <ele>365.4</ele>
        <time>2009-11-30T12:31:30.000Z</time>
      </trkpt>
      <trkpt lat="45.85832" lon="3.38066">
        <ele>366.12</ele>
        <time>2009-11-30T12:31:39.000Z</time>
      </trkpt>
      <trkpt lat="45.85817" lon="3.38123">
        <ele>367.24</ele>
        <time>2009-11-30T12:31:46.000Z</time>
      </trkpt>
      <trkpt lat="45.85797" lon="3.38175">
        <ele>369.1</ele>
        <time>2009-11-30T12:31:53.000Z</time>
      </trkpt>
      <trkpt lat="45.8576" lon="3.38244">
        <ele>371.14</ele>
        <time>2009-11-30T12:32:04.000Z</time>
      </trkpt>
      <trkpt lat="45.85723" lon="3.38314">
        <ele>374.51</ele>
        <time>2009-11-30T12:32:15.000Z</time>
      </trkpt>
      <trkpt lat="45.85686" lon="3.38383">
        <ele>376.53</ele>
        <time>2009-11-30T12:32:26.000Z</time>
      </trkpt>
      <trkpt lat="45.8564" lon="3.38469">
        <ele>380.41</ele>
        <time>2009-11-30T12:32:40.000Z</time>
      </trkpt>
      <trkpt lat="45.85637" lon="3.38475">
        <ele>380.49</ele>
        <time>2009-11-30T12:32:41.000Z</time>
      </trkpt>
      <trkpt lat="45.85607" lon="3.38535">
        <ele>383.56</ele>
        <time>2009-11-30T12:32:51.000Z</time>
      </trkpt>
      <trkpt lat="45.85597" lon="3.38554">
        <ele>384.83</ele>
        <time>2009-11-30T12:32:54.000Z</time>
      </trkpt>
      <trkpt lat="45.85583" lon="3.38579">
        <ele>383.5</ele>
        <time>2009-11-30T12:32:58.000Z</time>
      </trkpt>
      <trkpt lat="45.8555" lon="3.38639">
        <ele>383.23</ele>
        <time>2009-11-30T12:33:07.000Z</time>
      </trkpt>
      <trkpt lat="45.85517" lon="3.38702">
        <ele>382.76</ele>
        <time>2009-11-30T12:33:16.000Z</time>
      </trkpt>
      <trkpt lat="45.85483" lon="3.38762">
        <ele>384.48</ele>
        <time>2009-11-30T12:33:25.000Z</time>
      </trkpt>
      <trkpt lat="45.85447" lon="3.38828">
        <ele>386.86</ele>
        <time>2009-11-30T12:33:36.000Z</time>
      </trkpt>
      <trkpt lat="45.85414" lon="3.38887">
        <ele>388.4</ele>
        <time>2009-11-30T12:33:46.000Z</time>
      </trkpt>
      <trkpt lat="45.85373" lon="3.38963">
        <ele>389.96</ele>
        <time>2009-11-30T12:33:58.000Z</time>
      </trkpt>
      <trkpt lat="45.85341" lon="3.3902">
        <ele>390.56</ele>
        <time>2009-11-30T12:34:07.000Z</time>
      </trkpt>
      <trkpt lat="45.8531" lon="3.39074">
        <ele>391.57</ele>
        <time>2009-11-30T12:34:16.000Z</time>
      </trkpt>
      <trkpt lat="45.85286" lon="3.3912">
        <ele>391.86</ele>
        <time>2009-11-30T12:34:23.000Z</time>
      </trkpt>
      <trkpt lat="45.85278" lon="3.39146">
        <ele>390.57</ele>
        <time>2009-11-30T12:34:26.000Z</time>
      </trkpt>
      <trkpt lat="45.85274" lon="3.39188">
        <ele>389.42</ele>
        <time>2009-11-30T12:34:30.000Z</time>
      </trkpt>
      <trkpt lat="45.85276" lon="3.39242">
        <ele>390.24</ele>
        <time>2009-11-30T12:34:36.000Z</time>
      </trkpt>
      <trkpt lat="45.85278" lon="3.39259">
        <ele>390.75</ele>
        <time>2009-11-30T12:34:40.000Z</time>
      </trkpt>
      <trkpt lat="45.85287" lon="3.39283">
        <ele>390</ele>
        <time>2009-11-30T12:34:44.000Z</time>
      </trkpt>
      <trkpt lat="45.85294" lon="3.39338">
        <ele>388.24</ele>
        <time>2009-11-30T12:34:50.000Z</time>
      </trkpt>
      <trkpt lat="45.85294" lon="3.39358">
        <ele>388.15</ele>
        <time>2009-11-30T12:34:52.000Z</time>
      </trkpt>
      <trkpt lat="45.85283" lon="3.39419">
        <ele>386.26</ele>
        <time>2009-11-30T12:34:58.000Z</time>
      </trkpt>
      <trkpt lat="45.85263" lon="3.39508">
        <ele>386.46</ele>
        <time>2009-11-30T12:35:07.000Z</time>
      </trkpt>
      <trkpt lat="45.85252" lon="3.39608">
        <ele>386.76</ele>
        <time>2009-11-30T12:35:17.000Z</time>
      </trkpt>
      <trkpt lat="45.85246" lon="3.39705">
        <ele>387.27</ele>
        <time>2009-11-30T12:35:27.000Z</time>
      </trkpt>
      <trkpt lat="45.85241" lon="3.39807">
        <ele>388.94</ele>
        <time>2009-11-30T12:35:38.000Z</time>
      </trkpt>
      <trkpt lat="45.85242" lon="3.3987">
        <ele>389.97</ele>
        <time>2009-11-30T12:35:45.000Z</time>
      </trkpt>
      <trkpt lat="45.85254" lon="3.3993">
        <ele>389.69</ele>
        <time>2009-11-30T12:35:52.000Z</time>
      </trkpt>
      <trkpt lat="45.85274" lon="3.39979">
        <ele>389.89</ele>
        <time>2009-11-30T12:35:58.000Z</time>
      </trkpt>
      <trkpt lat="45.85303" lon="3.40021">
        <ele>390.14</ele>
        <time>2009-11-30T12:36:04.000Z</time>
      </trkpt>
      <trkpt lat="45.85351" lon="3.40065">
        <ele>388.95</ele>
        <time>2009-11-30T12:36:12.000Z</time>
      </trkpt>
      <trkpt lat="45.85381" lon="3.40091">
        <ele>389.8</ele>
        <time>2009-11-30T12:36:17.000Z</time>
      </trkpt>
      <trkpt lat="45.85409" lon="3.401">
        <ele>388.6</ele>
        <time>2009-11-30T12:36:21.000Z</time>
      </trkpt>
      <trkpt lat="45.85425" lon="3.40099">
        <ele>387.45</ele>
        <time>2009-11-30T12:36:23.000Z</time>
      </trkpt>
      <trkpt lat="45.85472" lon="3.40108">
        <ele>388.21</ele>
        <time>2009-11-30T12:36:29.000Z</time>
      </trkpt>
      <trkpt lat="45.85517" lon="3.40109">
        <ele>387.17</ele>
        <time>2009-11-30T12:36:35.000Z</time>
      </trkpt>
      <trkpt lat="45.85569" lon="3.40106">
        <ele>387.68</ele>
        <time>2009-11-30T12:36:42.000Z</time>
      </trkpt>
      <trkpt lat="45.85624" lon="3.40105">
        <ele>388.37</ele>
        <time>2009-11-30T12:36:50.000Z</time>
      </trkpt>
      <trkpt lat="45.85659" lon="3.4011">
        <ele>388.31</ele>
        <time>2009-11-30T12:36:56.000Z</time>
      </trkpt>
      <trkpt lat="45.85689" lon="3.40117">
        <ele>389.37</ele>
        <time>2009-11-30T12:37:01.000Z</time>
      </trkpt>
      <trkpt lat="45.85723" lon="3.40126">
        <ele>388.1</ele>
        <time>2009-11-30T12:37:06.000Z</time>
      </trkpt>
      <trkpt lat="45.85773" lon="3.40137">
        <ele>387.11</ele>
        <time>2009-11-30T12:37:13.000Z</time>
      </trkpt>
      <trkpt lat="45.85873" lon="3.40155">
        <ele>386.04</ele>
        <time>2009-11-30T12:37:26.000Z</time>
      </trkpt>
      <trkpt lat="45.8594" lon="3.40171">
        <ele>385.43</ele>
        <time>2009-11-30T12:37:35.000Z</time>
      </trkpt>
      <trkpt lat="45.85973" lon="3.40185">
        <ele>384.79</ele>
        <time>2009-11-30T12:37:40.000Z</time>
      </trkpt>
      <trkpt lat="45.86013" lon="3.40203">
        <ele>385.25</ele>
        <time>2009-11-30T12:37:46.000Z</time>
      </trkpt>
      <trkpt lat="45.8606" lon="3.40224">
        <ele>385.44</ele>
        <time>2009-11-30T12:37:53.000Z</time>
      </trkpt>
      <trkpt lat="45.86113" lon="3.40248">
        <ele>386.01</ele>
        <time>2009-11-30T12:38:01.000Z</time>
      </trkpt>
      <trkpt lat="45.86154" lon="3.40272">
        <ele>384.12</ele>
        <time>2009-11-30T12:38:07.000Z</time>
      </trkpt>
      <trkpt lat="45.86202" lon="3.40314">
        <ele>382.59</ele>
        <time>2009-11-30T12:38:14.000Z</time>
      </trkpt>
      <trkpt lat="45.86255" lon="3.4037">
        <ele>381.92</ele>
        <time>2009-11-30T12:38:22.000Z</time>
      </trkpt>
      <trkpt lat="45.86317" lon="3.40424">
        <ele>380.58</ele>
        <time>2009-11-30T12:38:31.000Z</time>
      </trkpt>
      <trkpt lat="45.86351" lon="3.40451">
        <ele>379.32</ele>
        <time>2009-11-30T12:38:36.000Z</time>
      </trkpt>
      <trkpt lat="45.86377" lon="3.40491">
        <ele>378.96</ele>
        <time>2009-11-30T12:38:41.000Z</time>
      </trkpt>
      <trkpt lat="45.8641" lon="3.40544">
        <ele>379.54</ele>
        <time>2009-11-30T12:38:48.000Z</time>
      </trkpt>
      <trkpt lat="45.86453" lon="3.4058">
        <ele>380.65</ele>
        <time>2009-11-30T12:38:55.000Z</time>
      </trkpt>
      <trkpt lat="45.86506" lon="3.40611">
        <ele>379.3</ele>
        <time>2009-11-30T12:39:03.000Z</time>
      </trkpt>
      <trkpt lat="45.86566" lon="3.40647">
        <ele>377.91</ele>
        <time>2009-11-30T12:39:12.000Z</time>
      </trkpt>
      <trkpt lat="45.8661" lon="3.40683">
        <ele>377.65</ele>
        <time>2009-11-30T12:39:19.000Z</time>
      </trkpt>
      <trkpt lat="45.86666" lon="3.40712">
        <ele>376.8</ele>
        <time>2009-11-30T12:39:27.000Z</time>
      </trkpt>
      <trkpt lat="45.86743" lon="3.40758">
        <ele>374.98</ele>
        <time>2009-11-30T12:39:38.000Z</time>
      </trkpt>
      <trkpt lat="45.86799" lon="3.40794">
        <ele>373.69</ele>
        <time>2009-11-30T12:39:46.000Z</time>
      </trkpt>
      <trkpt lat="45.86876" lon="3.40843">
        <ele>373.55</ele>
        <time>2009-11-30T12:39:57.000Z</time>
      </trkpt>
      <trkpt lat="45.86925" lon="3.40867">
        <ele>372.97</ele>
        <time>2009-11-30T12:40:04.000Z</time>
      </trkpt>
      <trkpt lat="45.86979" lon="3.40882">
        <ele>371.73</ele>
        <time>2009-11-30T12:40:11.000Z</time>
      </trkpt>
      <trkpt lat="45.87029" lon="3.409">
        <ele>370.98</ele>
        <time>2009-11-30T12:40:18.000Z</time>
      </trkpt>
      <trkpt lat="45.87079" lon="3.40919">
        <ele>371.09</ele>
        <time>2009-11-30T12:40:25.000Z</time>
      </trkpt>
      <trkpt lat="45.87121" lon="3.40937">
        <ele>371.55</ele>
        <time>2009-11-30T12:40:31.000Z</time>
      </trkpt>
      <trkpt lat="45.87194" lon="3.40965">
        <ele>369.46</ele>
        <time>2009-11-30T12:40:41.000Z</time>
      </trkpt>
      <trkpt lat="45.87277" lon="3.40994">
        <ele>367.36</ele>
        <time>2009-11-30T12:40:52.000Z</time>
      </trkpt>
      <trkpt lat="45.87379" lon="3.41032">
        <ele>367.61</ele>
        <time>2009-11-30T12:41:06.000Z</time>
      </trkpt>
      <trkpt lat="45.8746" lon="3.41062">
        <ele>366.85</ele>
        <time>2009-11-30T12:41:17.000Z</time>
      </trkpt>
      <trkpt lat="45.87548" lon="3.41095">
        <ele>365.37</ele>
        <time>2009-11-30T12:41:29.000Z</time>
      </trkpt>
      <trkpt lat="45.8761" lon="3.41123">
        <ele>366.56</ele>
        <time>2009-11-30T12:41:38.000Z</time>
      </trkpt>
      <trkpt lat="45.87645" lon="3.41159">
        <ele>365.8</ele>
        <time>2009-11-30T12:41:44.000Z</time>
      </trkpt>
      <trkpt lat="45.87683" lon="3.41205">
        <ele>365.68</ele>
        <time>2009-11-30T12:41:51.000Z</time>
      </trkpt>
      <trkpt lat="45.87689" lon="3.41211">
        <ele>365.84</ele>
        <time>2009-11-30T12:41:52.000Z</time>
      </trkpt>
      <trkpt lat="45.87716" lon="3.41224">
        <ele>365.87</ele>
        <time>2009-11-30T12:41:56.000Z</time>
      </trkpt>
      <trkpt lat="45.87774" lon="3.41233">
        <ele>364.66</ele>
        <time>2009-11-30T12:42:04.000Z</time>
      </trkpt>
      <trkpt lat="45.87833" lon="3.41248">
        <ele>363.86</ele>
        <time>2009-11-30T12:42:12.000Z</time>
      </trkpt>
      <trkpt lat="45.87888" lon="3.41251">
        <ele>362.63</ele>
        <time>2009-11-30T12:42:19.000Z</time>
      </trkpt>
      <trkpt lat="45.87956" lon="3.41251">
        <ele>363.11</ele>
        <time>2009-11-30T12:42:28.000Z</time>
      </trkpt>
      <trkpt lat="45.88003" lon="3.41266">
        <ele>363.19</ele>
        <time>2009-11-30T12:42:35.000Z</time>
      </trkpt>
      <trkpt lat="45.88071" lon="3.4129">
        <ele>363.13</ele>
        <time>2009-11-30T12:42:45.000Z</time>
      </trkpt>
      <trkpt lat="45.88102" lon="3.41317">
        <ele>363.05</ele>
        <time>2009-11-30T12:42:50.000Z</time>
      </trkpt>
      <trkpt lat="45.88136" lon="3.41358">
        <ele>361.88</ele>
        <time>2009-11-30T12:42:56.000Z</time>
      </trkpt>
      <trkpt lat="45.88173" lon="3.41392">
        <ele>361.78</ele>
        <time>2009-11-30T12:43:02.000Z</time>
      </trkpt>
      <trkpt lat="45.88215" lon="3.41413">
        <ele>361.05</ele>
        <time>2009-11-30T12:43:08.000Z</time>
      </trkpt>
      <trkpt lat="45.88265" lon="3.4142">
        <ele>361.21</ele>
        <time>2009-11-30T12:43:15.000Z</time>
      </trkpt>
      <trkpt lat="45.88314" lon="3.41411">
        <ele>361.31</ele>
        <time>2009-11-30T12:43:22.000Z</time>
      </trkpt>
      <trkpt lat="45.88384" lon="3.41392">
        <ele>360.45</ele>
        <time>2009-11-30T12:43:32.000Z</time>
      </trkpt>
      <trkpt lat="45.88453" lon="3.41372">
        <ele>360.74</ele>
        <time>2009-11-30T12:43:42.000Z</time>
      </trkpt>
      <trkpt lat="45.88514" lon="3.41349">
        <ele>360.29</ele>
        <time>2009-11-30T12:43:51.000Z</time>
      </trkpt>
      <trkpt lat="45.88571" lon="3.41314">
        <ele>360.63</ele>
        <time>2009-11-30T12:44:00.000Z</time>
      </trkpt>
      <trkpt lat="45.88616" lon="3.41292">
        <ele>361.2</ele>
        <time>2009-11-30T12:44:07.000Z</time>
      </trkpt>
      <trkpt lat="45.88684" lon="3.41275">
        <ele>360.3</ele>
        <time>2009-11-30T12:44:17.000Z</time>
      </trkpt>
      <trkpt lat="45.88734" lon="3.41268">
        <ele>359.95</ele>
        <time>2009-11-30T12:44:24.000Z</time>
      </trkpt>
      <trkpt lat="45.888" lon="3.41277">
        <ele>359.64</ele>
        <time>2009-11-30T12:44:33.000Z</time>
      </trkpt>
      <trkpt lat="45.88882" lon="3.41291">
        <ele>358.77</ele>
        <time>2009-11-30T12:44:44.000Z</time>
      </trkpt>
      <trkpt lat="45.88958" lon="3.41302">
        <ele>357.68</ele>
        <time>2009-11-30T12:44:54.000Z</time>
      </trkpt>
      <trkpt lat="45.89047" lon="3.41316">
        <ele>356.32</ele>
        <time>2009-11-30T12:45:06.000Z</time>
      </trkpt>
      <trkpt lat="45.89114" lon="3.41334">
        <ele>356.27</ele>
        <time>2009-11-30T12:45:15.000Z</time>
      </trkpt>
      <trkpt lat="45.89164" lon="3.41361">
        <ele>354.76</ele>
        <time>2009-11-30T12:45:22.000Z</time>
      </trkpt>
      <trkpt lat="45.89193" lon="3.41371">
        <ele>354.2</ele>
        <time>2009-11-30T12:45:26.000Z</time>
      </trkpt>
      <trkpt lat="45.89268" lon="3.41393">
        <ele>353.22</ele>
        <time>2009-11-30T12:45:36.000Z</time>
      </trkpt>
      <trkpt lat="45.89344" lon="3.41413">
        <ele>352.98</ele>
        <time>2009-11-30T12:45:46.000Z</time>
      </trkpt>
      <trkpt lat="45.89413" lon="3.41429">
        <ele>351.96</ele>
        <time>2009-11-30T12:45:55.000Z</time>
      </trkpt>
      <trkpt lat="45.89458" lon="3.41421">
        <ele>351.34</ele>
        <time>2009-11-30T12:46:01.000Z</time>
      </trkpt>
      <trkpt lat="45.89487" lon="3.41413">
        <ele>350.82</ele>
        <time>2009-11-30T12:46:05.000Z</time>
      </trkpt>
      <trkpt lat="45.89526" lon="3.41384">
        <ele>351.26</ele>
        <time>2009-11-30T12:46:11.000Z</time>
      </trkpt>
      <trkpt lat="45.89583" lon="3.41337">
        <ele>350.68</ele>
        <time>2009-11-30T12:46:20.000Z</time>
      </trkpt>
      <trkpt lat="45.89644" lon="3.41301">
        <ele>350.59</ele>
        <time>2009-11-30T12:46:29.000Z</time>
      </trkpt>
      <trkpt lat="45.89708" lon="3.41268">
        <ele>348.9</ele>
        <time>2009-11-30T12:46:38.000Z</time>
      </trkpt>
      <trkpt lat="45.89776" lon="3.41239">
        <ele>347.73</ele>
        <time>2009-11-30T12:46:47.000Z</time>
      </trkpt>
      <trkpt lat="45.89853" lon="3.41207">
        <ele>345.91</ele>
        <time>2009-11-30T12:46:57.000Z</time>
      </trkpt>
      <trkpt lat="45.89882" lon="3.41194">
        <ele>344.67</ele>
        <time>2009-11-30T12:47:01.000Z</time>
      </trkpt>
      <trkpt lat="45.8993" lon="3.41174">
        <ele>345.25</ele>
        <time>2009-11-30T12:47:08.000Z</time>
      </trkpt>
      <trkpt lat="45.89944" lon="3.41173">
        <ele>344.72</ele>
        <time>2009-11-30T12:47:12.000Z</time>
      </trkpt>
      <trkpt lat="45.89947" lon="3.41174">
        <ele>345.1</ele>
        <time>2009-11-30T12:47:13.000Z</time>
      </trkpt>
      <trkpt lat="45.89978" lon="3.41176">
        <ele>344.93</ele>
        <time>2009-11-30T12:47:19.000Z</time>
      </trkpt>
      <trkpt lat="45.90015" lon="3.41169">
        <ele>345.02</ele>
        <time>2009-11-30T12:47:25.000Z</time>
      </trkpt>
      <trkpt lat="45.90081" lon="3.41151">
        <ele>345.22</ele>
        <time>2009-11-30T12:47:35.000Z</time>
      </trkpt>
      <trkpt lat="45.90131" lon="3.4114">
        <ele>346.67</ele>
        <time>2009-11-30T12:47:43.000Z</time>
      </trkpt>
      <trkpt lat="45.90137" lon="3.41138">
        <ele>347.24</ele>
        <time>2009-11-30T12:47:44.000Z</time>
      </trkpt>
      <trkpt lat="45.90158" lon="3.41121">
        <ele>345.94</ele>
        <time>2009-11-30T12:47:48.000Z</time>
      </trkpt>
      <trkpt lat="45.90185" lon="3.41108">
        <ele>347.03</ele>
        <time>2009-11-30T12:47:53.000Z</time>
      </trkpt>
      <trkpt lat="45.9021" lon="3.41119">
        <ele>346.87</ele>
        <time>2009-11-30T12:47:57.000Z</time>
      </trkpt>
      <trkpt lat="45.90249" lon="3.41115">
        <ele>347.84</ele>
        <time>2009-11-30T12:48:03.000Z</time>
      </trkpt>
      <trkpt lat="45.90309" lon="3.41093">
        <ele>347.69</ele>
        <time>2009-11-30T12:48:12.000Z</time>
      </trkpt>
      <trkpt lat="45.90382" lon="3.41069">
        <ele>348.87</ele>
        <time>2009-11-30T12:48:23.000Z</time>
      </trkpt>
      <trkpt lat="45.90481" lon="3.41042">
        <ele>348.17</ele>
        <time>2009-11-30T12:48:38.000Z</time>
      </trkpt>
      <trkpt lat="45.90566" lon="3.41023">
        <ele>348.25</ele>
        <time>2009-11-30T12:48:50.000Z</time>
      </trkpt>
      <trkpt lat="45.90654" lon="3.41004">
        <ele>347.52</ele>
        <time>2009-11-30T12:49:02.000Z</time>
      </trkpt>
      <trkpt lat="45.90721" lon="3.40989">
        <ele>346.42</ele>
        <time>2009-11-30T12:49:11.000Z</time>
      </trkpt>
      <trkpt lat="45.90773" lon="3.40989">
        <ele>346.04</ele>
        <time>2009-11-30T12:49:18.000Z</time>
      </trkpt>
      <trkpt lat="45.90839" lon="3.40985">
        <ele>346.26</ele>
        <time>2009-11-30T12:49:27.000Z</time>
      </trkpt>
      <trkpt lat="45.90941" lon="3.4099">
        <ele>346.55</ele>
        <time>2009-11-30T12:49:41.000Z</time>
      </trkpt>
      <trkpt lat="45.91007" lon="3.40986">
        <ele>346.34</ele>
        <time>2009-11-30T12:49:50.000Z</time>
      </trkpt>
      <trkpt lat="45.91065" lon="3.4098">
        <ele>345.93</ele>
        <time>2009-11-30T12:49:58.000Z</time>
      </trkpt>
      <trkpt lat="45.91114" lon="3.4099">
        <ele>346.16</ele>
        <time>2009-11-30T12:50:05.000Z</time>
      </trkpt>
      <trkpt lat="45.91209" lon="3.41021">
        <ele>346.54</ele>
        <time>2009-11-30T12:50:19.000Z</time>
      </trkpt>
      <trkpt lat="45.91269" lon="3.41049">
        <ele>346.96</ele>
        <time>2009-11-30T12:50:28.000Z</time>
      </trkpt>
      <trkpt lat="45.91356" lon="3.41103">
        <ele>345.63</ele>
        <time>2009-11-30T12:50:41.000Z</time>
      </trkpt>
      <trkpt lat="45.91422" lon="3.41149">
        <ele>345.56</ele>
        <time>2009-11-30T12:50:51.000Z</time>
      </trkpt>
      <trkpt lat="45.91487" lon="3.41204">
        <ele>344.46</ele>
        <time>2009-11-30T12:51:01.000Z</time>
      </trkpt>
      <trkpt lat="45.91549" lon="3.4125">
        <ele>343.37</ele>
        <time>2009-11-30T12:51:10.000Z</time>
      </trkpt>
      <trkpt lat="45.91606" lon="3.41279">
        <ele>341.89</ele>
        <time>2009-11-30T12:51:18.000Z</time>
      </trkpt>
      <trkpt lat="45.91659" lon="3.4129">
        <ele>341.78</ele>
        <time>2009-11-30T12:51:25.000Z</time>
      </trkpt>
      <trkpt lat="45.91713" lon="3.41293">
        <ele>340.06</ele>
        <time>2009-11-30T12:51:32.000Z</time>
      </trkpt>
      <trkpt lat="45.91807" lon="3.41276">
        <ele>338.9</ele>
        <time>2009-11-30T12:51:44.000Z</time>
      </trkpt>
      <trkpt lat="45.91905" lon="3.41259">
        <ele>337.2</ele>
        <time>2009-11-30T12:51:57.000Z</time>
      </trkpt>
      <trkpt lat="45.91974" lon="3.4125">
        <ele>336.45</ele>
        <time>2009-11-30T12:52:06.000Z</time>
      </trkpt>
      <trkpt lat="45.9201" lon="3.41247">
        <ele>336.75</ele>
        <time>2009-11-30T12:52:11.000Z</time>
      </trkpt>
      <trkpt lat="45.92019" lon="3.41245">
        <ele>336.77</ele>
        <time>2009-11-30T12:52:12.000Z</time>
      </trkpt>
      <trkpt lat="45.9206" lon="3.41221">
        <ele>335.96</ele>
        <time>2009-11-30T12:52:18.000Z</time>
      </trkpt>
      <trkpt lat="45.92103" lon="3.41197">
        <ele>334.84</ele>
        <time>2009-11-30T12:52:24.000Z</time>
      </trkpt>
      <trkpt lat="45.92133" lon="3.41201">
        <ele>335.46</ele>
        <time>2009-11-30T12:52:28.000Z</time>
      </trkpt>
      <trkpt lat="45.92139" lon="3.41204">
        <ele>336.06</ele>
        <time>2009-11-30T12:52:29.000Z</time>
      </trkpt>
      <trkpt lat="45.9217" lon="3.41227">
        <ele>336.58</ele>
        <time>2009-11-30T12:52:34.000Z</time>
      </trkpt>
      <trkpt lat="45.9219" lon="3.41254">
        <ele>336.2</ele>
        <time>2009-11-30T12:52:38.000Z</time>
      </trkpt>
      <trkpt lat="45.92226" lon="3.4133">
        <ele>336.78</ele>
        <time>2009-11-30T12:52:47.000Z</time>
      </trkpt>
      <trkpt lat="45.92242" lon="3.41365">
        <ele>335.46</ele>
        <time>2009-11-30T12:52:51.000Z</time>
      </trkpt>
      <trkpt lat="45.92296" lon="3.41475">
        <ele>335.88</ele>
        <time>2009-11-30T12:53:04.000Z</time>
      </trkpt>
      <trkpt lat="45.9234" lon="3.41557">
        <ele>334.61</ele>
        <time>2009-11-30T12:53:14.000Z</time>
      </trkpt>
      <trkpt lat="45.92359" lon="3.41606">
        <ele>334.39</ele>
        <time>2009-11-30T12:53:19.000Z</time>
      </trkpt>
      <trkpt lat="45.92367" lon="3.4166">
        <ele>334.63</ele>
        <time>2009-11-30T12:53:24.000Z</time>
      </trkpt>
      <trkpt lat="45.92369" lon="3.41681">
        <ele>333.92</ele>
        <time>2009-11-30T12:53:26.000Z</time>
      </trkpt>
      <trkpt lat="45.92359" lon="3.41744">
        <ele>332.86</ele>
        <time>2009-11-30T12:53:32.000Z</time>
      </trkpt>
      <trkpt lat="45.92355" lon="3.41766">
        <ele>331.75</ele>
        <time>2009-11-30T12:53:34.000Z</time>
      </trkpt>
      <trkpt lat="45.92353" lon="3.41789">
        <ele>330.59</ele>
        <time>2009-11-30T12:53:36.000Z</time>
      </trkpt>
      <trkpt lat="45.92353" lon="3.41814">
        <ele>329.91</ele>
        <time>2009-11-30T12:53:38.000Z</time>
      </trkpt>
      <trkpt lat="45.92359" lon="3.41838">
        <ele>327.92</ele>
        <time>2009-11-30T12:53:40.000Z</time>
      </trkpt>
      <trkpt lat="45.9237" lon="3.4186">
        <ele>327.11</ele>
        <time>2009-11-30T12:53:42.000Z</time>
      </trkpt>
      <trkpt lat="45.92405" lon="3.41931">
        <ele>322.81</ele>
        <time>2009-11-30T12:53:48.000Z</time>
      </trkpt>
      <trkpt lat="45.92413" lon="3.41972">
        <ele>319.99</ele>
        <time>2009-11-30T12:53:51.000Z</time>
      </trkpt>
      <trkpt lat="45.92401" lon="3.41996">
        <ele>317.99</ele>
        <time>2009-11-30T12:53:53.000Z</time>
      </trkpt>
      <trkpt lat="45.92377" lon="3.41998">
        <ele>316.61</ele>
        <time>2009-11-30T12:53:55.000Z</time>
      </trkpt>
      <trkpt lat="45.92339" lon="3.42004">
        <ele>314.24</ele>
        <time>2009-11-30T12:53:59.000Z</time>
      </trkpt>
      <trkpt lat="45.92334" lon="3.42015">
        <ele>313.99</ele>
        <time>2009-11-30T12:54:00.000Z</time>
      </trkpt>
      <trkpt lat="45.92331" lon="3.42027">
        <ele>313.25</ele>
        <time>2009-11-30T12:54:01.000Z</time>
      </trkpt>
      <trkpt lat="45.92315" lon="3.42128">
        <ele>308.5</ele>
        <time>2009-11-30T12:54:08.000Z</time>
      </trkpt>
      <trkpt lat="45.92313" lon="3.42142">
        <ele>308.24</ele>
        <time>2009-11-30T12:54:09.000Z</time>
      </trkpt>
      <trkpt lat="45.92304" lon="3.4223">
        <ele>305.02</ele>
        <time>2009-11-30T12:54:15.000Z</time>
      </trkpt>
      <trkpt lat="45.92301" lon="3.42274">
        <ele>303.78</ele>
        <time>2009-11-30T12:54:18.000Z</time>
      </trkpt>
      <trkpt lat="45.92293" lon="3.42332">
        <ele>302.19</ele>
        <time>2009-11-30T12:54:22.000Z</time>
      </trkpt>
      <trkpt lat="45.92274" lon="3.42393">
        <ele>300.38</ele>
        <time>2009-11-30T12:54:27.000Z</time>
      </trkpt>
      <trkpt lat="45.9226" lon="3.42438">
        <ele>299.78</ele>
        <time>2009-11-30T12:54:31.000Z</time>
      </trkpt>
      <trkpt lat="45.92228" lon="3.42494">
        <ele>298.02</ele>
        <time>2009-11-30T12:54:37.000Z</time>
      </trkpt>
      <trkpt lat="45.92211" lon="3.42519">
        <ele>298.24</ele>
        <time>2009-11-30T12:54:41.000Z</time>
      </trkpt>
      <trkpt lat="45.92208" lon="3.42521">
        <ele>297.35</ele>
        <time>2009-11-30T12:54:45.000Z</time>
      </trkpt>
      <trkpt lat="45.92211" lon="3.4252">
        <ele>298.72</ele>
        <time>2009-11-30T12:55:29.000Z</time>
      </trkpt>
      <trkpt lat="45.92208" lon="3.42534">
        <ele>297.36</ele>
        <time>2009-11-30T12:55:34.000Z</time>
      </trkpt>
      <trkpt lat="45.92201" lon="3.42566">
        <ele>296.6</ele>
        <time>2009-11-30T12:55:39.000Z</time>
      </trkpt>
      <trkpt lat="45.9219" lon="3.42621">
        <ele>296.25</ele>
        <time>2009-11-30T12:55:46.000Z</time>
      </trkpt>
      <trkpt lat="45.92187" lon="3.42638">
        <ele>295.74</ele>
        <time>2009-11-30T12:55:48.000Z</time>
      </trkpt>
      <trkpt lat="45.9217" lon="3.42667">
        <ele>296.36</ele>
        <time>2009-11-30T12:55:52.000Z</time>
      </trkpt>
      <trkpt lat="45.92164" lon="3.42671">
        <ele>295.92</ele>
        <time>2009-11-30T12:55:53.000Z</time>
      </trkpt>
      <trkpt lat="45.92139" lon="3.42685">
        <ele>295.39</ele>
        <time>2009-11-30T12:55:57.000Z</time>
      </trkpt>
      <trkpt lat="45.9212" lon="3.42712">
        <ele>294.81</ele>
        <time>2009-11-30T12:56:01.000Z</time>
      </trkpt>
      <trkpt lat="45.92114" lon="3.42755">
        <ele>294.21</ele>
        <time>2009-11-30T12:56:05.000Z</time>
      </trkpt>
      <trkpt lat="45.92111" lon="3.42857">
        <ele>291.82</ele>
        <time>2009-11-30T12:56:14.000Z</time>
      </trkpt>
      <trkpt lat="45.92119" lon="3.42922">
        <ele>290.78</ele>
        <time>2009-11-30T12:56:20.000Z</time>
      </trkpt>
      <trkpt lat="45.92128" lon="3.42995">
        <ele>290.57</ele>
        <time>2009-11-30T12:56:27.000Z</time>
      </trkpt>
      <trkpt lat="45.9213" lon="3.43028">
        <ele>289.32</ele>
        <time>2009-11-30T12:56:30.000Z</time>
      </trkpt>
      <trkpt lat="45.92126" lon="3.43093">
        <ele>289.71</ele>
        <time>2009-11-30T12:56:36.000Z</time>
      </trkpt>
      <trkpt lat="45.92117" lon="3.43159">
        <ele>288.64</ele>
        <time>2009-11-30T12:56:42.000Z</time>
      </trkpt>
      <trkpt lat="45.9212" lon="3.43203">
        <ele>288.22</ele>
        <time>2009-11-30T12:56:46.000Z</time>
      </trkpt>
      <trkpt lat="45.92141" lon="3.43263">
        <ele>287.47</ele>
        <time>2009-11-30T12:56:52.000Z</time>
      </trkpt>
      <trkpt lat="45.9218" lon="3.43334">
        <ele>286.19</ele>
        <time>2009-11-30T12:57:00.000Z</time>
      </trkpt>
      <trkpt lat="45.92207" lon="3.43374">
        <ele>286.37</ele>
        <time>2009-11-30T12:57:05.000Z</time>
      </trkpt>
      <trkpt lat="45.92227" lon="3.43385">
        <ele>286.05</ele>
        <time>2009-11-30T12:57:08.000Z</time>
      </trkpt>
      <trkpt lat="45.92234" lon="3.43382">
        <ele>286.79</ele>
        <time>2009-11-30T12:57:09.000Z</time>
      </trkpt>
      <trkpt lat="45.92248" lon="3.43373">
        <ele>286.07</ele>
        <time>2009-11-30T12:57:11.000Z</time>
      </trkpt>
      <trkpt lat="45.92271" lon="3.43373">
        <ele>285.99</ele>
        <time>2009-11-30T12:57:14.000Z</time>
      </trkpt>
      <trkpt lat="45.92287" lon="3.43397">
        <ele>285.09</ele>
        <time>2009-11-30T12:57:17.000Z</time>
      </trkpt>
      <trkpt lat="45.9229" lon="3.43407">
        <ele>285.61</ele>
        <time>2009-11-30T12:57:18.000Z</time>
      </trkpt>
      <trkpt lat="45.92322" lon="3.43521">
        <ele>285.48</ele>
        <time>2009-11-30T12:57:29.000Z</time>
      </trkpt>
      <trkpt lat="45.92349" lon="3.43612">
        <ele>284.48</ele>
        <time>2009-11-30T12:57:38.000Z</time>
      </trkpt>
      <trkpt lat="45.9236" lon="3.43641">
        <ele>283.84</ele>
        <time>2009-11-30T12:57:41.000Z</time>
      </trkpt>
      <trkpt lat="45.92364" lon="3.43683">
        <ele>283.77</ele>
        <time>2009-11-30T12:57:45.000Z</time>
      </trkpt>
      <trkpt lat="45.92362" lon="3.43693">
        <ele>283.52</ele>
        <time>2009-11-30T12:57:46.000Z</time>
      </trkpt>
      <trkpt lat="45.92357" lon="3.43767">
        <ele>280.77</ele>
        <time>2009-11-30T12:57:53.000Z</time>
      </trkpt>
      <trkpt lat="45.92371" lon="3.43825">
        <ele>278.84</ele>
        <time>2009-11-30T12:57:58.000Z</time>
      </trkpt>
      <trkpt lat="45.92396" lon="3.43894">
        <ele>275.92</ele>
        <time>2009-11-30T12:58:04.000Z</time>
      </trkpt>
      <trkpt lat="45.92409" lon="3.43926">
        <ele>276.12</ele>
        <time>2009-11-30T12:58:07.000Z</time>
      </trkpt>
      <trkpt lat="45.92435" lon="3.43958">
        <ele>275.03</ele>
        <time>2009-11-30T12:58:11.000Z</time>
      </trkpt>
      <trkpt lat="45.92458" lon="3.43964">
        <ele>275.27</ele>
        <time>2009-11-30T12:58:14.000Z</time>
      </trkpt>
      <trkpt lat="45.92466" lon="3.43964">
        <ele>275.9</ele>
        <time>2009-11-30T12:58:15.000Z</time>
      </trkpt>
      <trkpt lat="45.92536" lon="3.43961">
        <ele>275.01</ele>
        <time>2009-11-30T12:58:24.000Z</time>
      </trkpt>
      <trkpt lat="45.92572" lon="3.43964">
        <ele>275.73</ele>
        <time>2009-11-30T12:58:29.000Z</time>
      </trkpt>
      <trkpt lat="45.92607" lon="3.43946">
        <ele>273.98</ele>
        <time>2009-11-30T12:58:34.000Z</time>
      </trkpt>
      <trkpt lat="45.92638" lon="3.43927">
        <ele>276.12</ele>
        <time>2009-11-30T12:58:39.000Z</time>
      </trkpt>
      <trkpt lat="45.92706" lon="3.43906">
        <ele>277.53</ele>
        <time>2009-11-30T12:58:49.000Z</time>
      </trkpt>
      <trkpt lat="45.92758" lon="3.43896">
        <ele>278.36</ele>
        <time>2009-11-30T12:58:57.000Z</time>
      </trkpt>
      <trkpt lat="45.92793" lon="3.43877">
        <ele>279.63</ele>
        <time>2009-11-30T12:59:03.000Z</time>
      </trkpt>
      <trkpt lat="45.92814" lon="3.43855">
        <ele>278.54</ele>
        <time>2009-11-30T12:59:07.000Z</time>
      </trkpt>
      <trkpt lat="45.92858" lon="3.43813">
        <ele>277.34</ele>
        <time>2009-11-30T12:59:14.000Z</time>
      </trkpt>
      <trkpt lat="45.92895" lon="3.43805">
        <ele>276.35</ele>
        <time>2009-11-30T12:59:19.000Z</time>
      </trkpt>
      <trkpt lat="45.92902" lon="3.43805">
        <ele>277.44</ele>
        <time>2009-11-30T12:59:20.000Z</time>
      </trkpt>
      <trkpt lat="45.92956" lon="3.43822">
        <ele>277.51</ele>
        <time>2009-11-30T12:59:28.000Z</time>
      </trkpt>
      <trkpt lat="45.92998" lon="3.43852">
        <ele>279.24</ele>
        <time>2009-11-30T12:59:35.000Z</time>
      </trkpt>
      <trkpt lat="45.93009" lon="3.43862">
        <ele>279.87</ele>
        <time>2009-11-30T12:59:37.000Z</time>
      </trkpt>
      <trkpt lat="45.93037" lon="3.43897">
        <ele>278.59</ele>
        <time>2009-11-30T12:59:43.000Z</time>
      </trkpt>
      <trkpt lat="45.93061" lon="3.43935">
        <ele>276.73</ele>
        <time>2009-11-30T12:59:48.000Z</time>
      </trkpt>
      <trkpt lat="45.93107" lon="3.43972">
        <ele>274.53</ele>
        <time>2009-11-30T12:59:55.000Z</time>
      </trkpt>
      <trkpt lat="45.93146" lon="3.43989">
        <ele>272.42</ele>
        <time>2009-11-30T13:00:00.000Z</time>
      </trkpt>
      <trkpt lat="45.93215" lon="3.4402">
        <ele>271.03</ele>
        <time>2009-11-30T13:00:09.000Z</time>
      </trkpt>
      <trkpt lat="45.93272" lon="3.44046">
        <ele>272.19</ele>
        <time>2009-11-30T13:00:17.000Z</time>
      </trkpt>
      <trkpt lat="45.93321" lon="3.44055">
        <ele>272.57</ele>
        <time>2009-11-30T13:00:24.000Z</time>
      </trkpt>
      <trkpt lat="45.9338" lon="3.44054">
        <ele>271.85</ele>
        <time>2009-11-30T13:00:32.000Z</time>
      </trkpt>
      <trkpt lat="45.93444" lon="3.44046">
        <ele>272.1</ele>
        <time>2009-11-30T13:00:41.000Z</time>
      </trkpt>
      <trkpt lat="45.93485" lon="3.44034">
        <ele>271.52</ele>
        <time>2009-11-30T13:00:47.000Z</time>
      </trkpt>
      <trkpt lat="45.93516" lon="3.44008">
        <ele>271.61</ele>
        <time>2009-11-30T13:00:52.000Z</time>
      </trkpt>
      <trkpt lat="45.93548" lon="3.43989">
        <ele>272.56</ele>
        <time>2009-11-30T13:00:57.000Z</time>
      </trkpt>
      <trkpt lat="45.93597" lon="3.43975">
        <ele>274.27</ele>
        <time>2009-11-30T13:01:05.000Z</time>
      </trkpt>
      <trkpt lat="45.93625" lon="3.43951">
        <ele>274.61</ele>
        <time>2009-11-30T13:01:10.000Z</time>
      </trkpt>
      <trkpt lat="45.93661" lon="3.43905">
        <ele>273.04</ele>
        <time>2009-11-30T13:01:17.000Z</time>
      </trkpt>
      <trkpt lat="45.93695" lon="3.4387">
        <ele>273.24</ele>
        <time>2009-11-30T13:01:23.000Z</time>
      </trkpt>
      <trkpt lat="45.93712" lon="3.43865">
        <ele>273.04</ele>
        <time>2009-11-30T13:01:26.000Z</time>
      </trkpt>
      <trkpt lat="45.93721" lon="3.43888">
        <ele>272.38</ele>
        <time>2009-11-30T13:01:29.000Z</time>
      </trkpt>
      <trkpt lat="45.93724" lon="3.43907">
        <ele>271.67</ele>
        <time>2009-11-30T13:01:31.000Z</time>
      </trkpt>
      <trkpt lat="45.93737" lon="3.43965">
        <ele>271.1</ele>
        <time>2009-11-30T13:01:37.000Z</time>
      </trkpt>
      <trkpt lat="45.93747" lon="3.43992">
        <ele>271.42</ele>
        <time>2009-11-30T13:01:40.000Z</time>
      </trkpt>
      <trkpt lat="45.93775" lon="3.44026">
        <ele>270.97</ele>
        <time>2009-11-30T13:01:45.000Z</time>
      </trkpt>
      <trkpt lat="45.93789" lon="3.44032">
        <ele>271.06</ele>
        <time>2009-11-30T13:01:47.000Z</time>
      </trkpt>
      <trkpt lat="45.93841" lon="3.44038">
        <ele>270.44</ele>
        <time>2009-11-30T13:01:54.000Z</time>
      </trkpt>
      <trkpt lat="45.93886" lon="3.44028">
        <ele>269.12</ele>
        <time>2009-11-30T13:02:00.000Z</time>
      </trkpt>
      <trkpt lat="45.93909" lon="3.44029">
        <ele>270.24</ele>
        <time>2009-11-30T13:02:03.000Z</time>
      </trkpt>
      <trkpt lat="45.93941" lon="3.44047">
        <ele>270.55</ele>
        <time>2009-11-30T13:02:08.000Z</time>
      </trkpt>
      <trkpt lat="45.93982" lon="3.44087">
        <ele>269.15</ele>
        <time>2009-11-30T13:02:15.000Z</time>
      </trkpt>
      <trkpt lat="45.94027" lon="3.44122">
        <ele>268.79</ele>
        <time>2009-11-30T13:02:22.000Z</time>
      </trkpt>
      <trkpt lat="45.94061" lon="3.44138">
        <ele>268.05</ele>
        <time>2009-11-30T13:02:27.000Z</time>
      </trkpt>
      <trkpt lat="45.94074" lon="3.44142">
        <ele>269.4</ele>
        <time>2009-11-30T13:02:29.000Z</time>
      </trkpt>
      <trkpt lat="45.94099" lon="3.44164">
        <ele>268.67</ele>
        <time>2009-11-30T13:02:33.000Z</time>
      </trkpt>
      <trkpt lat="45.94126" lon="3.44212">
        <ele>268.86</ele>
        <time>2009-11-30T13:02:39.000Z</time>
      </trkpt>
      <trkpt lat="45.94156" lon="3.4427">
        <ele>268.63</ele>
        <time>2009-11-30T13:02:46.000Z</time>
      </trkpt>
      <trkpt lat="45.94186" lon="3.44318">
        <ele>268.92</ele>
        <time>2009-11-30T13:02:52.000Z</time>
      </trkpt>
      <trkpt lat="45.94222" lon="3.44357">
        <ele>268.02</ele>
        <time>2009-11-30T13:02:58.000Z</time>
      </trkpt>
      <trkpt lat="45.94275" lon="3.44409">
        <ele>268.21</ele>
        <time>2009-11-30T13:03:07.000Z</time>
      </trkpt>
      <trkpt lat="45.94323" lon="3.44468">
        <ele>268.43</ele>
        <time>2009-11-30T13:03:16.000Z</time>
      </trkpt>
      <trkpt lat="45.94347" lon="3.44492">
        <ele>268.63</ele>
        <time>2009-11-30T13:03:20.000Z</time>
      </trkpt>
      <trkpt lat="45.94381" lon="3.44508">
        <ele>269.35</ele>
        <time>2009-11-30T13:03:25.000Z</time>
      </trkpt>
      <trkpt lat="45.94408" lon="3.44519">
        <ele>268.57</ele>
        <time>2009-11-30T13:03:29.000Z</time>
      </trkpt>
      <trkpt lat="45.94459" lon="3.44557">
        <ele>267.88</ele>
        <time>2009-11-30T13:03:37.000Z</time>
      </trkpt>
      <trkpt lat="45.94496" lon="3.44587">
        <ele>268.6</ele>
        <time>2009-11-30T13:03:43.000Z</time>
      </trkpt>
      <trkpt lat="45.94546" lon="3.44625">
        <ele>268.36</ele>
        <time>2009-11-30T13:03:51.000Z</time>
      </trkpt>
      <trkpt lat="45.94611" lon="3.44675">
        <ele>269.19</ele>
        <time>2009-11-30T13:04:01.000Z</time>
      </trkpt>
      <trkpt lat="45.9468" lon="3.44738">
        <ele>268.59</ele>
        <time>2009-11-30T13:04:12.000Z</time>
      </trkpt>
      <trkpt lat="45.94747" lon="3.448">
        <ele>268.44</ele>
        <time>2009-11-30T13:04:23.000Z</time>
      </trkpt>
      <trkpt lat="45.94778" lon="3.44828">
        <ele>267.73</ele>
        <time>2009-11-30T13:04:28.000Z</time>
      </trkpt>
      <trkpt lat="45.94831" lon="3.44884">
        <ele>267.92</ele>
        <time>2009-11-30T13:04:37.000Z</time>
      </trkpt>
      <trkpt lat="45.94858" lon="3.44894">
        <ele>267.67</ele>
        <time>2009-11-30T13:04:41.000Z</time>
      </trkpt>
      <trkpt lat="45.94873" lon="3.4489">
        <ele>267.63</ele>
        <time>2009-11-30T13:04:43.000Z</time>
      </trkpt>
      <trkpt lat="45.94925" lon="3.44871">
        <ele>268.22</ele>
        <time>2009-11-30T13:04:51.000Z</time>
      </trkpt>
      <trkpt lat="45.9494" lon="3.44867">
        <ele>269.45</ele>
        <time>2009-11-30T13:04:54.000Z</time>
      </trkpt>
      <trkpt lat="45.94953" lon="3.44879">
        <ele>269.82</ele>
        <time>2009-11-30T13:04:58.000Z</time>
      </trkpt>
      <trkpt lat="45.9498" lon="3.44922">
        <ele>269.27</ele>
        <time>2009-11-30T13:05:05.000Z</time>
      </trkpt>
      <trkpt lat="45.95013" lon="3.44951">
        <ele>268.04</ele>
        <time>2009-11-30T13:05:11.000Z</time>
      </trkpt>
      <trkpt lat="45.95058" lon="3.44975">
        <ele>268.03</ele>
        <time>2009-11-30T13:05:18.000Z</time>
      </trkpt>
      <trkpt lat="45.95089" lon="3.45002">
        <ele>268.43</ele>
        <time>2009-11-30T13:05:23.000Z</time>
      </trkpt>
      <trkpt lat="45.95122" lon="3.45049">
        <ele>267.84</ele>
        <time>2009-11-30T13:05:29.000Z</time>
      </trkpt>
      <trkpt lat="45.95151" lon="3.45112">
        <ele>267.96</ele>
        <time>2009-11-30T13:05:36.000Z</time>
      </trkpt>
      <trkpt lat="45.95189" lon="3.45189">
        <ele>268.68</ele>
        <time>2009-11-30T13:05:45.000Z</time>
      </trkpt>
      <trkpt lat="45.95222" lon="3.45229">
        <ele>268.78</ele>
        <time>2009-11-30T13:05:51.000Z</time>
      </trkpt>
      <trkpt lat="45.95262" lon="3.45255">
        <ele>268.21</ele>
        <time>2009-11-30T13:05:57.000Z</time>
      </trkpt>
      <trkpt lat="45.95332" lon="3.45288">
        <ele>268.14</ele>
        <time>2009-11-30T13:06:07.000Z</time>
      </trkpt>
      <trkpt lat="45.95389" lon="3.45314">
        <ele>268.54</ele>
        <time>2009-11-30T13:06:15.000Z</time>
      </trkpt>
      <trkpt lat="45.95445" lon="3.45339">
        <ele>267.25</ele>
        <time>2009-11-30T13:06:23.000Z</time>
      </trkpt>
      <trkpt lat="45.95486" lon="3.45366">
        <ele>266.96</ele>
        <time>2009-11-30T13:06:29.000Z</time>
      </trkpt>
      <trkpt lat="45.9552" lon="3.45399">
        <ele>267.82</ele>
        <time>2009-11-30T13:06:34.000Z</time>
      </trkpt>
      <trkpt lat="45.95558" lon="3.45455">
        <ele>268.1</ele>
        <time>2009-11-30T13:06:41.000Z</time>
      </trkpt>
      <trkpt lat="45.95581" lon="3.4551">
        <ele>268.03</ele>
        <time>2009-11-30T13:06:47.000Z</time>
      </trkpt>
      <trkpt lat="45.95605" lon="3.45601">
        <ele>267.69</ele>
        <time>2009-11-30T13:06:56.000Z</time>
      </trkpt>
      <trkpt lat="45.95632" lon="3.45704">
        <ele>266.99</ele>
        <time>2009-11-30T13:07:06.000Z</time>
      </trkpt>
      <trkpt lat="45.95657" lon="3.45781">
        <ele>267.65</ele>
        <time>2009-11-30T13:07:14.000Z</time>
      </trkpt>
      <trkpt lat="45.95687" lon="3.4584">
        <ele>267.48</ele>
        <time>2009-11-30T13:07:21.000Z</time>
      </trkpt>
      <trkpt lat="45.95721" lon="3.45879">
        <ele>267.45</ele>
        <time>2009-11-30T13:07:27.000Z</time>
      </trkpt>
      <trkpt lat="45.95777" lon="3.45931">
        <ele>267.5</ele>
        <time>2009-11-30T13:07:36.000Z</time>
      </trkpt>
      <trkpt lat="45.95854" lon="3.45999">
        <ele>268.15</ele>
        <time>2009-11-30T13:07:48.000Z</time>
      </trkpt>
      <trkpt lat="45.95923" lon="3.46061">
        <ele>267.13</ele>
        <time>2009-11-30T13:07:59.000Z</time>
      </trkpt>
      <trkpt lat="45.9599" lon="3.46107">
        <ele>267.14</ele>
        <time>2009-11-30T13:08:09.000Z</time>
      </trkpt>
      <trkpt lat="45.96044" lon="3.46141">
        <ele>266.3</ele>
        <time>2009-11-30T13:08:17.000Z</time>
      </trkpt>
      <trkpt lat="45.96098" lon="3.46175">
        <ele>266.69</ele>
        <time>2009-11-30T13:08:25.000Z</time>
      </trkpt>
      <trkpt lat="45.96169" lon="3.46227">
        <ele>266.2</ele>
        <time>2009-11-30T13:08:36.000Z</time>
      </trkpt>
      <trkpt lat="45.96246" lon="3.46285">
        <ele>266.57</ele>
        <time>2009-11-30T13:08:48.000Z</time>
      </trkpt>
      <trkpt lat="45.96283" lon="3.46315">
        <ele>268.95</ele>
        <time>2009-11-30T13:08:55.000Z</time>
      </trkpt>
      <trkpt lat="45.96295" lon="3.46324">
        <ele>269.83</ele>
        <time>2009-11-30T13:08:59.000Z</time>
      </trkpt>
      <trkpt lat="45.963" lon="3.46329">
        <ele>270.45</ele>
        <time>2009-11-30T13:09:04.000Z</time>
      </trkpt>
      <trkpt lat="45.96302" lon="3.46329">
        <ele>270.31</ele>
        <time>2009-11-30T13:09:05.000Z</time>
      </trkpt>
      <trkpt lat="45.96312" lon="3.46318">
        <ele>269.23</ele>
        <time>2009-11-30T13:09:09.000Z</time>
      </trkpt>
      <trkpt lat="45.96328" lon="3.46277">
        <ele>269.75</ele>
        <time>2009-11-30T13:09:15.000Z</time>
      </trkpt>
      <trkpt lat="45.96343" lon="3.46224">
        <ele>268.13</ele>
        <time>2009-11-30T13:09:21.000Z</time>
      </trkpt>
      <trkpt lat="45.96353" lon="3.46164">
        <ele>267.27</ele>
        <time>2009-11-30T13:09:27.000Z</time>
      </trkpt>
      <trkpt lat="45.96357" lon="3.46083">
        <ele>266.35</ele>
        <time>2009-11-30T13:09:35.000Z</time>
      </trkpt>
      <trkpt lat="45.96354" lon="3.45957">
        <ele>265.89</ele>
        <time>2009-11-30T13:09:47.000Z</time>
      </trkpt>
      <trkpt lat="45.96352" lon="3.45839">
        <ele>267.13</ele>
        <time>2009-11-30T13:09:58.000Z</time>
      </trkpt>
      <trkpt lat="45.96358" lon="3.45774">
        <ele>267.06</ele>
        <time>2009-11-30T13:10:04.000Z</time>
      </trkpt>
      <trkpt lat="45.96373" lon="3.45711">
        <ele>266.07</ele>
        <time>2009-11-30T13:10:10.000Z</time>
      </trkpt>
      <trkpt lat="45.964" lon="3.45644">
        <ele>267.24</ele>
        <time>2009-11-30T13:10:17.000Z</time>
      </trkpt>
      <trkpt lat="45.96424" lon="3.45602">
        <ele>265.57</ele>
        <time>2009-11-30T13:10:22.000Z</time>
      </trkpt>
      <trkpt lat="45.96487" lon="3.45505">
        <ele>266.81</ele>
        <time>2009-11-30T13:10:34.000Z</time>
      </trkpt>
      <trkpt lat="45.9658" lon="3.45363">
        <ele>266.05</ele>
        <time>2009-11-30T13:10:52.000Z</time>
      </trkpt>
      <trkpt lat="45.96646" lon="3.45262">
        <ele>266.07</ele>
        <time>2009-11-30T13:11:05.000Z</time>
      </trkpt>
      <trkpt lat="45.96701" lon="3.45177">
        <ele>265.54</ele>
        <time>2009-11-30T13:11:16.000Z</time>
      </trkpt>
      <trkpt lat="45.96733" lon="3.45128">
        <ele>266.74</ele>
        <time>2009-11-30T13:11:23.000Z</time>
      </trkpt>
      <trkpt lat="45.96735" lon="3.45126">
        <ele>266.17</ele>
        <time>2009-11-30T13:11:26.000Z</time>
      </trkpt>
      <trkpt lat="45.96744" lon="3.45111">
        <ele>266.04</ele>
        <time>2009-11-30T13:11:35.000Z</time>
      </trkpt>
      <trkpt lat="45.96762" lon="3.45084">
        <ele>266.7</ele>
        <time>2009-11-30T13:11:40.000Z</time>
      </trkpt>
      <trkpt lat="45.96796" lon="3.4503">
        <ele>266.97</ele>
        <time>2009-11-30T13:11:48.000Z</time>
      </trkpt>
      <trkpt lat="45.96837" lon="3.44961">
        <ele>269.56</ele>
        <time>2009-11-30T13:11:58.000Z</time>
      </trkpt>
      <trkpt lat="45.96845" lon="3.44947">
        <ele>270.77</ele>
        <time>2009-11-30T13:12:00.000Z</time>
      </trkpt>
      <trkpt lat="45.96867" lon="3.44907">
        <ele>272.26</ele>
        <time>2009-11-30T13:12:06.000Z</time>
      </trkpt>
      <trkpt lat="45.96909" lon="3.44836">
        <ele>272.4</ele>
        <time>2009-11-30T13:12:16.000Z</time>
      </trkpt>
      <trkpt lat="45.9695" lon="3.44764">
        <ele>271.84</ele>
        <time>2009-11-30T13:12:25.000Z</time>
      </trkpt>
      <trkpt lat="45.97" lon="3.4468">
        <ele>274.03</ele>
        <time>2009-11-30T13:12:36.000Z</time>
      </trkpt>
      <trkpt lat="45.97036" lon="3.44614">
        <ele>276.78</ele>
        <time>2009-11-30T13:12:45.000Z</time>
      </trkpt>
      <trkpt lat="45.97044" lon="3.44601">
        <ele>276.7</ele>
        <time>2009-11-30T13:12:47.000Z</time>
      </trkpt>
      <trkpt lat="45.97071" lon="3.44546">
        <ele>277.92</ele>
        <time>2009-11-30T13:12:55.000Z</time>
      </trkpt>
      <trkpt lat="45.97094" lon="3.44491">
        <ele>279.64</ele>
        <time>2009-11-30T13:13:02.000Z</time>
      </trkpt>
      <trkpt lat="45.97124" lon="3.44419">
        <ele>279.37</ele>
        <time>2009-11-30T13:13:11.000Z</time>
      </trkpt>
      <trkpt lat="45.97152" lon="3.44394">
        <ele>279.66</ele>
        <time>2009-11-30T13:13:16.000Z</time>
      </trkpt>
      <trkpt lat="45.97164" lon="3.44402">
        <ele>280.76</ele>
        <time>2009-11-30T13:13:18.000Z</time>
      </trkpt>
      <trkpt lat="45.97209" lon="3.44449">
        <ele>282.23</ele>
        <time>2009-11-30T13:13:26.000Z</time>
      </trkpt>
      <trkpt lat="45.97244" lon="3.44496">
        <ele>283.5</ele>
        <time>2009-11-30T13:13:33.000Z</time>
      </trkpt>
      <trkpt lat="45.97274" lon="3.44531">
        <ele>286.08</ele>
        <time>2009-11-30T13:13:39.000Z</time>
      </trkpt>
      <trkpt lat="45.97285" lon="3.4454">
        <ele>286.47</ele>
        <time>2009-11-30T13:13:41.000Z</time>
      </trkpt>
      <trkpt lat="45.97304" lon="3.44536">
        <ele>287.99</ele>
        <time>2009-11-30T13:13:45.000Z</time>
      </trkpt>
      <trkpt lat="45.97307" lon="3.44529">
        <ele>288.1</ele>
        <time>2009-11-30T13:13:46.000Z</time>
      </trkpt>
      <trkpt lat="45.97311" lon="3.44514">
        <ele>287.95</ele>
        <time>2009-11-30T13:13:48.000Z</time>
      </trkpt>
      <trkpt lat="45.97335" lon="3.44465">
        <ele>289.87</ele>
        <time>2009-11-30T13:13:55.000Z</time>
      </trkpt>
      <trkpt lat="45.97367" lon="3.4441">
        <ele>291.06</ele>
        <time>2009-11-30T13:14:03.000Z</time>
      </trkpt>
      <trkpt lat="45.97372" lon="3.44404">
        <ele>290.98</ele>
        <time>2009-11-30T13:14:04.000Z</time>
      </trkpt>
      <trkpt lat="45.97407" lon="3.44338">
        <ele>292.57</ele>
        <time>2009-11-30T13:14:13.000Z</time>
      </trkpt>
      <trkpt lat="45.9743" lon="3.44285">
        <ele>292.71</ele>
        <time>2009-11-30T13:14:20.000Z</time>
      </trkpt>
      <trkpt lat="45.97458" lon="3.4422">
        <ele>294.93</ele>
        <time>2009-11-30T13:14:29.000Z</time>
      </trkpt>
      <trkpt lat="45.97488" lon="3.44164">
        <ele>295.73</ele>
        <time>2009-11-30T13:14:37.000Z</time>
      </trkpt>
      <trkpt lat="45.97501" lon="3.44143">
        <ele>295.23</ele>
        <time>2009-11-30T13:14:40.000Z</time>
      </trkpt>
      <trkpt lat="45.97529" lon="3.44122">
        <ele>296.69</ele>
        <time>2009-11-30T13:14:45.000Z</time>
      </trkpt>
      <trkpt lat="45.97542" lon="3.44119">
        <ele>296.18</ele>
        <time>2009-11-30T13:14:47.000Z</time>
      </trkpt>
      <trkpt lat="45.97582" lon="3.44121">
        <ele>295.44</ele>
        <time>2009-11-30T13:14:53.000Z</time>
      </trkpt>
      <trkpt lat="45.97589" lon="3.44121">
        <ele>295.63</ele>
        <time>2009-11-30T13:14:54.000Z</time>
      </trkpt>
      <trkpt lat="45.97622" lon="3.44109">
        <ele>295.07</ele>
        <time>2009-11-30T13:14:59.000Z</time>
      </trkpt>
      <trkpt lat="45.97628" lon="3.44104">
        <ele>295.55</ele>
        <time>2009-11-30T13:15:00.000Z</time>
      </trkpt>
      <trkpt lat="45.97676" lon="3.4406">
        <ele>293.58</ele>
        <time>2009-11-30T13:15:08.000Z</time>
      </trkpt>
      <trkpt lat="45.97736" lon="3.44012">
        <ele>292.28</ele>
        <time>2009-11-30T13:15:17.000Z</time>
      </trkpt>
      <trkpt lat="45.97797" lon="3.43961">
        <ele>291.94</ele>
        <time>2009-11-30T13:15:26.000Z</time>
      </trkpt>
      <trkpt lat="45.9784" lon="3.43939">
        <ele>291.01</ele>
        <time>2009-11-30T13:15:32.000Z</time>
      </trkpt>
      <trkpt lat="45.97891" lon="3.43911">
        <ele>291.06</ele>
        <time>2009-11-30T13:15:39.000Z</time>
      </trkpt>
      <trkpt lat="45.9792" lon="3.43876">
        <ele>290.9</ele>
        <time>2009-11-30T13:15:44.000Z</time>
      </trkpt>
      <trkpt lat="45.97963" lon="3.43799">
        <ele>289.88</ele>
        <time>2009-11-30T13:15:53.000Z</time>
      </trkpt>
      <trkpt lat="45.98013" lon="3.43718">
        <ele>289.32</ele>
        <time>2009-11-30T13:16:03.000Z</time>
      </trkpt>
      <trkpt lat="45.9808" lon="3.43619">
        <ele>289.85</ele>
        <time>2009-11-30T13:16:16.000Z</time>
      </trkpt>
      <trkpt lat="45.98141" lon="3.43527">
        <ele>289.05</ele>
        <time>2009-11-30T13:16:28.000Z</time>
      </trkpt>
      <trkpt lat="45.98188" lon="3.43461">
        <ele>288.45</ele>
        <time>2009-11-30T13:16:37.000Z</time>
      </trkpt>
      <trkpt lat="45.98224" lon="3.43426">
        <ele>289.11</ele>
        <time>2009-11-30T13:16:43.000Z</time>
      </trkpt>
      <trkpt lat="45.983" lon="3.43365">
        <ele>289.87</ele>
        <time>2009-11-30T13:16:55.000Z</time>
      </trkpt>
      <trkpt lat="45.98388" lon="3.43293">
        <ele>289.51</ele>
        <time>2009-11-30T13:17:09.000Z</time>
      </trkpt>
      <trkpt lat="45.98442" lon="3.4325">
        <ele>288.38</ele>
        <time>2009-11-30T13:17:17.000Z</time>
      </trkpt>
      <trkpt lat="45.98509" lon="3.43194">
        <ele>287.98</ele>
        <time>2009-11-30T13:17:27.000Z</time>
      </trkpt>
      <trkpt lat="45.9855" lon="3.43161">
        <ele>287.92</ele>
        <time>2009-11-30T13:17:33.000Z</time>
      </trkpt>
      <trkpt lat="45.98616" lon="3.43108">
        <ele>288.45</ele>
        <time>2009-11-30T13:17:43.000Z</time>
      </trkpt>
      <trkpt lat="45.98686" lon="3.43054">
        <ele>288.95</ele>
        <time>2009-11-30T13:17:54.000Z</time>
      </trkpt>
      <trkpt lat="45.9874" lon="3.4301">
        <ele>289.27</ele>
        <time>2009-11-30T13:18:03.000Z</time>
      </trkpt>
      <trkpt lat="45.98781" lon="3.42977">
        <ele>290.74</ele>
        <time>2009-11-30T13:18:10.000Z</time>
      </trkpt>
      <trkpt lat="45.98825" lon="3.42941">
        <ele>291.45</ele>
        <time>2009-11-30T13:18:18.000Z</time>
      </trkpt>
      <trkpt lat="45.98856" lon="3.42915">
        <ele>292.49</ele>
        <time>2009-11-30T13:18:24.000Z</time>
      </trkpt>
      <trkpt lat="45.98894" lon="3.42885">
        <ele>294.19</ele>
        <time>2009-11-30T13:18:31.000Z</time>
      </trkpt>
      <trkpt lat="45.98911" lon="3.4285">
        <ele>294.81</ele>
        <time>2009-11-30T13:18:36.000Z</time>
      </trkpt>
      <trkpt lat="45.98913" lon="3.42815">
        <ele>295.34</ele>
        <time>2009-11-30T13:18:40.000Z</time>
      </trkpt>
      <trkpt lat="45.98912" lon="3.42806">
        <ele>294.68</ele>
        <time>2009-11-30T13:18:41.000Z</time>
      </trkpt>
      <trkpt lat="45.98893" lon="3.42718">
        <ele>296.08</ele>
        <time>2009-11-30T13:18:51.000Z</time>
      </trkpt>
      <trkpt lat="45.98871" lon="3.42608">
        <ele>296.77</ele>
        <time>2009-11-30T13:19:03.000Z</time>
      </trkpt>
      <trkpt lat="45.98849" lon="3.42495">
        <ele>296.7</ele>
        <time>2009-11-30T13:19:15.000Z</time>
      </trkpt>
      <trkpt lat="45.98846" lon="3.42475">
        <ele>297.03</ele>
        <time>2009-11-30T13:19:17.000Z</time>
      </trkpt>
      <trkpt lat="45.98849" lon="3.42435">
        <ele>296.16</ele>
        <time>2009-11-30T13:19:21.000Z</time>
      </trkpt>
      <trkpt lat="45.98864" lon="3.42413">
        <ele>296.72</ele>
        <time>2009-11-30T13:19:24.000Z</time>
      </trkpt>
      <trkpt lat="45.98883" lon="3.42401">
        <ele>297.04</ele>
        <time>2009-11-30T13:19:27.000Z</time>
      </trkpt>
      <trkpt lat="45.98932" lon="3.4239">
        <ele>298.91</ele>
        <time>2009-11-30T13:19:35.000Z</time>
      </trkpt>
      <trkpt lat="45.98963" lon="3.42372">
        <ele>300.42</ele>
        <time>2009-11-30T13:19:41.000Z</time>
      </trkpt>
      <trkpt lat="45.98999" lon="3.42339">
        <ele>303.6</ele>
        <time>2009-11-30T13:19:49.000Z</time>
      </trkpt>
      <trkpt lat="45.99029" lon="3.423">
        <ele>305.17</ele>
        <time>2009-11-30T13:19:57.000Z</time>
      </trkpt>
      <trkpt lat="45.99046" lon="3.42254">
        <ele>305.7</ele>
        <time>2009-11-30T13:20:04.000Z</time>
      </trkpt>
      <trkpt lat="45.99061" lon="3.42189">
        <ele>306.64</ele>
        <time>2009-11-30T13:20:13.000Z</time>
      </trkpt>
      <trkpt lat="45.99071" lon="3.42103">
        <ele>306.14</ele>
        <time>2009-11-30T13:20:23.000Z</time>
      </trkpt>
      <trkpt lat="45.9909" lon="3.42052">
        <ele>304.86</ele>
        <time>2009-11-30T13:20:29.000Z</time>
      </trkpt>
      <trkpt lat="45.9912" lon="3.42011">
        <ele>305.52</ele>
        <time>2009-11-30T13:20:35.000Z</time>
      </trkpt>
      <trkpt lat="45.99131" lon="3.42">
        <ele>305.48</ele>
        <time>2009-11-30T13:20:37.000Z</time>
      </trkpt>
      <trkpt lat="45.9917" lon="3.41982">
        <ele>304.78</ele>
        <time>2009-11-30T13:20:43.000Z</time>
      </trkpt>
      <trkpt lat="45.99185" lon="3.41979">
        <ele>305.13</ele>
        <time>2009-11-30T13:20:45.000Z</time>
      </trkpt>
      <trkpt lat="45.99224" lon="3.41991">
        <ele>303.76</ele>
        <time>2009-11-30T13:20:50.000Z</time>
      </trkpt>
      <trkpt lat="45.99279" lon="3.42034">
        <ele>302.04</ele>
        <time>2009-11-30T13:20:58.000Z</time>
      </trkpt>
      <trkpt lat="45.99319" lon="3.42045">
        <ele>301.26</ele>
        <time>2009-11-30T13:21:03.000Z</time>
      </trkpt>
      <trkpt lat="45.99327" lon="3.42044">
        <ele>301.15</ele>
        <time>2009-11-30T13:21:04.000Z</time>
      </trkpt>
      <trkpt lat="45.99373" lon="3.42027">
        <ele>299.74</ele>
        <time>2009-11-30T13:21:10.000Z</time>
      </trkpt>
      <trkpt lat="45.99411" lon="3.41996">
        <ele>297.48</ele>
        <time>2009-11-30T13:21:15.000Z</time>
      </trkpt>
      <trkpt lat="45.99436" lon="3.41963">
        <ele>296.36</ele>
        <time>2009-11-30T13:21:19.000Z</time>
      </trkpt>
      <trkpt lat="45.99459" lon="3.41922">
        <ele>295.11</ele>
        <time>2009-11-30T13:21:23.000Z</time>
      </trkpt>
      <trkpt lat="45.9947" lon="3.41877">
        <ele>295.53</ele>
        <time>2009-11-30T13:21:27.000Z</time>
      </trkpt>
      <trkpt lat="45.99482" lon="3.41772">
        <ele>296.08</ele>
        <time>2009-11-30T13:21:37.000Z</time>
      </trkpt>
      <trkpt lat="45.99483" lon="3.41762">
        <ele>295.93</ele>
        <time>2009-11-30T13:21:38.000Z</time>
      </trkpt>
      <trkpt lat="45.99502" lon="3.41715">
        <ele>294.54</ele>
        <time>2009-11-30T13:21:43.000Z</time>
      </trkpt>
      <trkpt lat="45.99507" lon="3.41707">
        <ele>294.5</ele>
        <time>2009-11-30T13:21:44.000Z</time>
      </trkpt>
      <trkpt lat="45.99544" lon="3.41657">
        <ele>291.48</ele>
        <time>2009-11-30T13:21:50.000Z</time>
      </trkpt>
      <trkpt lat="45.99556" lon="3.41639">
        <ele>290.28</ele>
        <time>2009-11-30T13:21:52.000Z</time>
      </trkpt>
      <trkpt lat="45.99572" lon="3.41594">
        <ele>289.33</ele>
        <time>2009-11-30T13:21:56.000Z</time>
      </trkpt>
      <trkpt lat="45.99574" lon="3.41568">
        <ele>287.96</ele>
        <time>2009-11-30T13:21:58.000Z</time>
      </trkpt>
      <trkpt lat="45.99573" lon="3.41518">
        <ele>286.46</ele>
        <time>2009-11-30T13:22:02.000Z</time>
      </trkpt>
      <trkpt lat="45.9956" lon="3.41447">
        <ele>284.49</ele>
        <time>2009-11-30T13:22:08.000Z</time>
      </trkpt>
      <trkpt lat="45.9954" lon="3.41343">
        <ele>283.52</ele>
        <time>2009-11-30T13:22:17.000Z</time>
      </trkpt>
      <trkpt lat="45.99525" lon="3.41256">
        <ele>282.71</ele>
        <time>2009-11-30T13:22:25.000Z</time>
      </trkpt>
      <trkpt lat="45.99526" lon="3.41212">
        <ele>282.18</ele>
        <time>2009-11-30T13:22:29.000Z</time>
      </trkpt>
      <trkpt lat="45.9954" lon="3.41188">
        <ele>283.3</ele>
        <time>2009-11-30T13:22:32.000Z</time>
      </trkpt>
      <trkpt lat="45.99547" lon="3.41183">
        <ele>283.82</ele>
        <time>2009-11-30T13:22:33.000Z</time>
      </trkpt>
      <trkpt lat="45.99606" lon="3.41146">
        <ele>283.15</ele>
        <time>2009-11-30T13:22:42.000Z</time>
      </trkpt>
      <trkpt lat="45.99647" lon="3.41133">
        <ele>283.69</ele>
        <time>2009-11-30T13:22:48.000Z</time>
      </trkpt>
      <trkpt lat="45.99654" lon="3.41131">
        <ele>284.39</ele>
        <time>2009-11-30T13:22:49.000Z</time>
      </trkpt>
      <trkpt lat="45.99675" lon="3.41107">
        <ele>285.01</ele>
        <time>2009-11-30T13:22:53.000Z</time>
      </trkpt>
      <trkpt lat="45.99677" lon="3.41078">
        <ele>284.49</ele>
        <time>2009-11-30T13:22:56.000Z</time>
      </trkpt>
      <trkpt lat="45.99675" lon="3.41069">
        <ele>285.26</ele>
        <time>2009-11-30T13:22:57.000Z</time>
      </trkpt>
      <trkpt lat="45.99672" lon="3.4105">
        <ele>285.88</ele>
        <time>2009-11-30T13:22:59.000Z</time>
      </trkpt>
      <trkpt lat="45.99653" lon="3.40962">
        <ele>287.29</ele>
        <time>2009-11-30T13:23:09.000Z</time>
      </trkpt>
      <trkpt lat="45.99633" lon="3.40867">
        <ele>288.05</ele>
        <time>2009-11-30T13:23:20.000Z</time>
      </trkpt>
      <trkpt lat="45.99609" lon="3.40758">
        <ele>288.92</ele>
        <time>2009-11-30T13:23:33.000Z</time>
      </trkpt>
      <trkpt lat="45.99595" lon="3.40676">
        <ele>290.21</ele>
        <time>2009-11-30T13:23:43.000Z</time>
      </trkpt>
      <trkpt lat="45.99593" lon="3.4059">
        <ele>290.31</ele>
        <time>2009-11-30T13:23:53.000Z</time>
      </trkpt>
      <trkpt lat="45.99591" lon="3.40482">
        <ele>291.47</ele>
        <time>2009-11-30T13:24:05.000Z</time>
      </trkpt>
      <trkpt lat="45.99589" lon="3.40371">
        <ele>290.96</ele>
        <time>2009-11-30T13:24:17.000Z</time>
      </trkpt>
      <trkpt lat="45.99591" lon="3.40277">
        <ele>290.42</ele>
        <time>2009-11-30T13:24:27.000Z</time>
      </trkpt>
      <trkpt lat="45.99605" lon="3.40193">
        <ele>289.98</ele>
        <time>2009-11-30T13:24:36.000Z</time>
      </trkpt>
      <trkpt lat="45.99621" lon="3.40101">
        <ele>289.53</ele>
        <time>2009-11-30T13:24:46.000Z</time>
      </trkpt>
      <trkpt lat="45.99639" lon="3.39996">
        <ele>290.65</ele>
        <time>2009-11-30T13:24:58.000Z</time>
      </trkpt>
      <trkpt lat="45.9964" lon="3.39952">
        <ele>291.18</ele>
        <time>2009-11-30T13:25:03.000Z</time>
      </trkpt>
      <trkpt lat="45.99631" lon="3.39908">
        <ele>290.63</ele>
        <time>2009-11-30T13:25:08.000Z</time>
      </trkpt>
      <trkpt lat="45.99595" lon="3.39806">
        <ele>289.92</ele>
        <time>2009-11-30T13:25:20.000Z</time>
      </trkpt>
      <trkpt lat="45.99561" lon="3.39711">
        <ele>288.84</ele>
        <time>2009-11-30T13:25:31.000Z</time>
      </trkpt>
      <trkpt lat="45.9952" lon="3.39597">
        <ele>287.08</ele>
        <time>2009-11-30T13:25:44.000Z</time>
      </trkpt>
      <trkpt lat="45.99489" lon="3.39502">
        <ele>286.73</ele>
        <time>2009-11-30T13:25:55.000Z</time>
      </trkpt>
      <trkpt lat="45.99482" lon="3.39446">
        <ele>287.57</ele>
        <time>2009-11-30T13:26:01.000Z</time>
      </trkpt>
      <trkpt lat="45.99473" lon="3.39356">
        <ele>288.12</ele>
        <time>2009-11-30T13:26:11.000Z</time>
      </trkpt>
      <trkpt lat="45.99459" lon="3.39288">
        <ele>289.12</ele>
        <time>2009-11-30T13:26:19.000Z</time>
      </trkpt>
      <trkpt lat="45.99435" lon="3.39215">
        <ele>288.09</ele>
        <time>2009-11-30T13:26:28.000Z</time>
      </trkpt>
      <trkpt lat="45.99404" lon="3.39125">
        <ele>288.11</ele>
        <time>2009-11-30T13:26:39.000Z</time>
      </trkpt>
      <trkpt lat="45.99367" lon="3.39017">
        <ele>288.72</ele>
        <time>2009-11-30T13:26:52.000Z</time>
      </trkpt>
      <trkpt lat="45.99344" lon="3.38929">
        <ele>289.3</ele>
        <time>2009-11-30T13:27:02.000Z</time>
      </trkpt>
      <trkpt lat="45.99322" lon="3.38841">
        <ele>289.97</ele>
        <time>2009-11-30T13:27:12.000Z</time>
      </trkpt>
      <trkpt lat="45.99302" lon="3.38795">
        <ele>290.07</ele>
        <time>2009-11-30T13:27:18.000Z</time>
      </trkpt>
      <trkpt lat="45.99262" lon="3.38721">
        <ele>290.15</ele>
        <time>2009-11-30T13:27:28.000Z</time>
      </trkpt>
      <trkpt lat="45.99232" lon="3.38637">
        <ele>290.38</ele>
        <time>2009-11-30T13:27:39.000Z</time>
      </trkpt>
      <trkpt lat="45.99212" lon="3.38564">
        <ele>291.14</ele>
        <time>2009-11-30T13:27:48.000Z</time>
      </trkpt>
      <trkpt lat="45.99202" lon="3.38485">
        <ele>292.76</ele>
        <time>2009-11-30T13:27:57.000Z</time>
      </trkpt>
      <trkpt lat="45.99189" lon="3.38367">
        <ele>293.78</ele>
        <time>2009-11-30T13:28:11.000Z</time>
      </trkpt>
      <trkpt lat="45.99181" lon="3.38274">
        <ele>294.16</ele>
        <time>2009-11-30T13:28:22.000Z</time>
      </trkpt>
      <trkpt lat="45.99181" lon="3.382">
        <ele>294.41</ele>
        <time>2009-11-30T13:28:30.000Z</time>
      </trkpt>
      <trkpt lat="45.99174" lon="3.38154">
        <ele>294.11</ele>
        <time>2009-11-30T13:28:35.000Z</time>
      </trkpt>
      <trkpt lat="45.99156" lon="3.38102">
        <ele>293.87</ele>
        <time>2009-11-30T13:28:41.000Z</time>
      </trkpt>
      <trkpt lat="45.99132" lon="3.38033">
        <ele>292.51</ele>
        <time>2009-11-30T13:28:49.000Z</time>
      </trkpt>
      <trkpt lat="45.99129" lon="3.37986">
        <ele>292.32</ele>
        <time>2009-11-30T13:28:54.000Z</time>
      </trkpt>
      <trkpt lat="45.99131" lon="3.37891">
        <ele>292.86</ele>
        <time>2009-11-30T13:29:04.000Z</time>
      </trkpt>
      <trkpt lat="45.99134" lon="3.37787">
        <ele>292.74</ele>
        <time>2009-11-30T13:29:15.000Z</time>
      </trkpt>
      <trkpt lat="45.99136" lon="3.37695">
        <ele>292.09</ele>
        <time>2009-11-30T13:29:25.000Z</time>
      </trkpt>
      <trkpt lat="45.99132" lon="3.37605">
        <ele>293.68</ele>
        <time>2009-11-30T13:29:35.000Z</time>
      </trkpt>
      <trkpt lat="45.99123" lon="3.37484">
        <ele>293.15</ele>
        <time>2009-11-30T13:29:49.000Z</time>
      </trkpt>
      <trkpt lat="45.99127" lon="3.37399">
        <ele>294.18</ele>
        <time>2009-11-30T13:29:59.000Z</time>
      </trkpt>
      <trkpt lat="45.99132" lon="3.37306">
        <ele>294.33</ele>
        <time>2009-11-30T13:30:10.000Z</time>
      </trkpt>
      <trkpt lat="45.99144" lon="3.37248">
        <ele>294.78</ele>
        <time>2009-11-30T13:30:17.000Z</time>
      </trkpt>
      <trkpt lat="45.99168" lon="3.37154">
        <ele>296.27</ele>
        <time>2009-11-30T13:30:29.000Z</time>
      </trkpt>
      <trkpt lat="45.9919" lon="3.37107">
        <ele>297.4</ele>
        <time>2009-11-30T13:30:36.000Z</time>
      </trkpt>
      <trkpt lat="45.99233" lon="3.37051">
        <ele>298.16</ele>
        <time>2009-11-30T13:30:46.000Z</time>
      </trkpt>
      <trkpt lat="45.99296" lon="3.36974">
        <ele>299.07</ele>
        <time>2009-11-30T13:31:00.000Z</time>
      </trkpt>
      <trkpt lat="45.99329" lon="3.3695">
        <ele>298.99</ele>
        <time>2009-11-30T13:31:06.000Z</time>
      </trkpt>
      <trkpt lat="45.99351" lon="3.36938">
        <ele>300.09</ele>
        <time>2009-11-30T13:31:10.000Z</time>
      </trkpt>
      <trkpt lat="45.99402" lon="3.36912">
        <ele>299.67</ele>
        <time>2009-11-30T13:31:19.000Z</time>
      </trkpt>
      <trkpt lat="45.99446" lon="3.36885">
        <ele>300.95</ele>
        <time>2009-11-30T13:31:27.000Z</time>
      </trkpt>
      <trkpt lat="45.99465" lon="3.36853">
        <ele>302.02</ele>
        <time>2009-11-30T13:31:32.000Z</time>
      </trkpt>
      <trkpt lat="45.99469" lon="3.36838">
        <ele>301.75</ele>
        <time>2009-11-30T13:31:34.000Z</time>
      </trkpt>
      <trkpt lat="45.99479" lon="3.36773">
        <ele>304.51</ele>
        <time>2009-11-30T13:31:43.000Z</time>
      </trkpt>
      <trkpt lat="45.99487" lon="3.36727">
        <ele>306.24</ele>
        <time>2009-11-30T13:31:50.000Z</time>
      </trkpt>
      <trkpt lat="45.99497" lon="3.36667">
        <ele>308.03</ele>
        <time>2009-11-30T13:31:59.000Z</time>
      </trkpt>
      <trkpt lat="45.9951" lon="3.36593">
        <ele>310.83</ele>
        <time>2009-11-30T13:32:10.000Z</time>
      </trkpt>
      <trkpt lat="45.99522" lon="3.36516">
        <ele>312.6</ele>
        <time>2009-11-30T13:32:22.000Z</time>
      </trkpt>
      <trkpt lat="45.9953" lon="3.3645">
        <ele>313.37</ele>
        <time>2009-11-30T13:32:31.000Z</time>
      </trkpt>
      <trkpt lat="45.99539" lon="3.36339">
        <ele>313.69</ele>
        <time>2009-11-30T13:32:45.000Z</time>
      </trkpt>
      <trkpt lat="45.99545" lon="3.36276">
        <ele>315.86</ele>
        <time>2009-11-30T13:32:54.000Z</time>
      </trkpt>
      <trkpt lat="45.99551" lon="3.36218">
        <ele>317.62</ele>
        <time>2009-11-30T13:33:03.000Z</time>
      </trkpt>
      <trkpt lat="45.99554" lon="3.36193">
        <ele>318.9</ele>
        <time>2009-11-30T13:33:07.000Z</time>
      </trkpt>
      <trkpt lat="45.99562" lon="3.36125">
        <ele>319.48</ele>
        <time>2009-11-30T13:33:17.000Z</time>
      </trkpt>
      <trkpt lat="45.99565" lon="3.3605">
        <ele>320.75</ele>
        <time>2009-11-30T13:33:27.000Z</time>
      </trkpt>
      <trkpt lat="45.99556" lon="3.35995">
        <ele>320.75</ele>
        <time>2009-11-30T13:33:34.000Z</time>
      </trkpt>
      <trkpt lat="45.99551" lon="3.35938">
        <ele>320.31</ele>
        <time>2009-11-30T13:33:41.000Z</time>
      </trkpt>
      <trkpt lat="45.99551" lon="3.3593">
        <ele>320.22</ele>
        <time>2009-11-30T13:33:42.000Z</time>
      </trkpt>
      <trkpt lat="45.99564" lon="3.35888">
        <ele>321.34</ele>
        <time>2009-11-30T13:33:48.000Z</time>
      </trkpt>
      <trkpt lat="45.99595" lon="3.35823">
        <ele>323.31</ele>
        <time>2009-11-30T13:33:59.000Z</time>
      </trkpt>
      <trkpt lat="45.99626" lon="3.35758">
        <ele>324.59</ele>
        <time>2009-11-30T13:34:10.000Z</time>
      </trkpt>
      <trkpt lat="45.99657" lon="3.35694">
        <ele>327.24</ele>
        <time>2009-11-30T13:34:21.000Z</time>
      </trkpt>
      <trkpt lat="45.99682" lon="3.35642">
        <ele>328.95</ele>
        <time>2009-11-30T13:34:31.000Z</time>
      </trkpt>
      <trkpt lat="45.99692" lon="3.35628">
        <ele>330.71</ele>
        <time>2009-11-30T13:34:35.000Z</time>
      </trkpt>
      <trkpt lat="45.997" lon="3.35619">
        <ele>329.61</ele>
        <time>2009-11-30T13:34:39.000Z</time>
      </trkpt>
      <trkpt lat="45.99703" lon="3.35616">
        <ele>329.46</ele>
        <time>2009-11-30T13:34:40.000Z</time>
      </trkpt>
      <trkpt lat="45.99723" lon="3.35584">
        <ele>329.37</ele>
        <time>2009-11-30T13:34:46.000Z</time>
      </trkpt>
      <trkpt lat="45.99755" lon="3.35519">
        <ele>328.06</ele>
        <time>2009-11-30T13:34:55.000Z</time>
      </trkpt>
      <trkpt lat="45.99799" lon="3.3543">
        <ele>325.87</ele>
        <time>2009-11-30T13:35:06.000Z</time>
      </trkpt>
      <trkpt lat="45.9984" lon="3.3534">
        <ele>325.24</ele>
        <time>2009-11-30T13:35:17.000Z</time>
      </trkpt>
      <trkpt lat="45.99882" lon="3.35248">
        <ele>323.27</ele>
        <time>2009-11-30T13:35:28.000Z</time>
      </trkpt>
      <trkpt lat="45.99928" lon="3.3517">
        <ele>322.79</ele>
        <time>2009-11-30T13:35:38.000Z</time>
      </trkpt>
      <trkpt lat="45.99969" lon="3.35104">
        <ele>321.23</ele>
        <time>2009-11-30T13:35:46.000Z</time>
      </trkpt>
      <trkpt lat="45.99991" lon="3.35061">
        <ele>320.24</ele>
        <time>2009-11-30T13:35:51.000Z</time>
      </trkpt>
      <trkpt lat="46.00001" lon="3.35013">
        <ele>319.06</ele>
        <time>2009-11-30T13:35:56.000Z</time>
      </trkpt>
      <trkpt lat="46.00003" lon="3.34934">
        <ele>319.56</ele>
        <time>2009-11-30T13:36:04.000Z</time>
      </trkpt>
      <trkpt lat="46.00002" lon="3.34804">
        <ele>317.54</ele>
        <time>2009-11-30T13:36:17.000Z</time>
      </trkpt>
      <trkpt lat="46.00002" lon="3.34784">
        <ele>317.89</ele>
        <time>2009-11-30T13:36:19.000Z</time>
      </trkpt>
      <trkpt lat="46.00016" lon="3.34737">
        <ele>316.84</ele>
        <time>2009-11-30T13:36:24.000Z</time>
      </trkpt>
      <trkpt lat="46.0002" lon="3.3473">
        <ele>316.87</ele>
        <time>2009-11-30T13:36:25.000Z</time>
      </trkpt>
      <trkpt lat="46.00081" lon="3.34656">
        <ele>316.71</ele>
        <time>2009-11-30T13:36:37.000Z</time>
      </trkpt>
      <trkpt lat="46.00116" lon="3.34613">
        <ele>318.73</ele>
        <time>2009-11-30T13:36:45.000Z</time>
      </trkpt>
      <trkpt lat="46.00148" lon="3.3458">
        <ele>319.89</ele>
        <time>2009-11-30T13:36:52.000Z</time>
      </trkpt>
      <trkpt lat="46.00201" lon="3.34536">
        <ele>321.13</ele>
        <time>2009-11-30T13:37:03.000Z</time>
      </trkpt>
      <trkpt lat="46.00252" lon="3.34505">
        <ele>322.06</ele>
        <time>2009-11-30T13:37:13.000Z</time>
      </trkpt>
      <trkpt lat="46.00297" lon="3.34479">
        <ele>323.57</ele>
        <time>2009-11-30T13:37:22.000Z</time>
      </trkpt>
      <trkpt lat="46.00345" lon="3.34451">
        <ele>325.15</ele>
        <time>2009-11-30T13:37:32.000Z</time>
      </trkpt>
      <trkpt lat="46.00376" lon="3.34439">
        <ele>326.75</ele>
        <time>2009-11-30T13:37:39.000Z</time>
      </trkpt>
      <trkpt lat="46.00413" lon="3.34435">
        <ele>329.22</ele>
        <time>2009-11-30T13:37:47.000Z</time>
      </trkpt>
      <trkpt lat="46.00417" lon="3.34435">
        <ele>328.34</ele>
        <time>2009-11-30T13:37:48.000Z</time>
      </trkpt>
      <trkpt lat="46.00438" lon="3.3442">
        <ele>329.12</ele>
        <time>2009-11-30T13:37:53.000Z</time>
      </trkpt>
      <trkpt lat="46.00444" lon="3.34406">
        <ele>329.15</ele>
        <time>2009-11-30T13:37:55.000Z</time>
      </trkpt>
      <trkpt lat="46.0046" lon="3.34355">
        <ele>329.26</ele>
        <time>2009-11-30T13:38:02.000Z</time>
      </trkpt>
      <trkpt lat="46.00487" lon="3.34318">
        <ele>330.02</ele>
        <time>2009-11-30T13:38:09.000Z</time>
      </trkpt>
      <trkpt lat="46.0052" lon="3.34281">
        <ele>332.08</ele>
        <time>2009-11-30T13:38:18.000Z</time>
      </trkpt>
      <trkpt lat="46.00566" lon="3.3424">
        <ele>334.14</ele>
        <time>2009-11-30T13:38:30.000Z</time>
      </trkpt>
      <trkpt lat="46.00602" lon="3.34212">
        <ele>335.93</ele>
        <time>2009-11-30T13:38:39.000Z</time>
      </trkpt>
      <trkpt lat="46.00652" lon="3.34188">
        <ele>338.75</ele>
        <time>2009-11-30T13:38:50.000Z</time>
      </trkpt>
      <trkpt lat="46.00698" lon="3.34169">
        <ele>340.99</ele>
        <time>2009-11-30T13:39:00.000Z</time>
      </trkpt>
      <trkpt lat="46.00733" lon="3.34163">
        <ele>342.43</ele>
        <time>2009-11-30T13:39:07.000Z</time>
      </trkpt>
      <trkpt lat="46.00797" lon="3.34159">
        <ele>343.65</ele>
        <time>2009-11-30T13:39:20.000Z</time>
      </trkpt>
      <trkpt lat="46.00823" lon="3.34156">
        <ele>343.7</ele>
        <time>2009-11-30T13:39:26.000Z</time>
      </trkpt>
      <trkpt lat="46.00828" lon="3.34159">
        <ele>344.83</ele>
        <time>2009-11-30T13:39:30.000Z</time>
      </trkpt>
      <trkpt lat="46.00829" lon="3.34161">
        <ele>344.01</ele>
        <time>2009-11-30T13:39:34.000Z</time>
      </trkpt>
      <trkpt lat="46.00829" lon="3.34157">
        <ele>344.05</ele>
        <time>2009-11-30T13:40:20.000Z</time>
      </trkpt>
      <trkpt lat="46.00835" lon="3.34148">
        <ele>343.55</ele>
        <time>2009-11-30T13:40:25.000Z</time>
      </trkpt>
      <trkpt lat="46.00843" lon="3.34144">
        <ele>343.65</ele>
        <time>2009-11-30T13:40:27.000Z</time>
      </trkpt>
      <trkpt lat="46.00851" lon="3.34138">
        <ele>342.92</ele>
        <time>2009-11-30T13:40:29.000Z</time>
      </trkpt>
      <trkpt lat="46.0088" lon="3.34108">
        <ele>341.14</ele>
        <time>2009-11-30T13:40:35.000Z</time>
      </trkpt>
      <trkpt lat="46.00915" lon="3.34062">
        <ele>340.11</ele>
        <time>2009-11-30T13:40:42.000Z</time>
      </trkpt>
      <trkpt lat="46.00956" lon="3.34002">
        <ele>338.97</ele>
        <time>2009-11-30T13:40:51.000Z</time>
      </trkpt>
      <trkpt lat="46.00975" lon="3.33948">
        <ele>336.51</ele>
        <time>2009-11-30T13:40:57.000Z</time>
      </trkpt>
      <trkpt lat="46.00977" lon="3.33937">
        <ele>336.22</ele>
        <time>2009-11-30T13:40:58.000Z</time>
      </trkpt>
      <trkpt lat="46.00994" lon="3.33862">
        <ele>333.71</ele>
        <time>2009-11-30T13:41:05.000Z</time>
      </trkpt>
      <trkpt lat="46.01023" lon="3.33737">
        <ele>329.27</ele>
        <time>2009-11-30T13:41:16.000Z</time>
      </trkpt>
      <trkpt lat="46.01051" lon="3.33612">
        <ele>325.14</ele>
        <time>2009-11-30T13:41:27.000Z</time>
      </trkpt>
      <trkpt lat="46.01074" lon="3.33515">
        <ele>324.29</ele>
        <time>2009-11-30T13:41:36.000Z</time>
      </trkpt>
      <trkpt lat="46.0108" lon="3.33486">
        <ele>324.02</ele>
        <time>2009-11-30T13:41:39.000Z</time>
      </trkpt>
      <trkpt lat="46.01088" lon="3.33468">
        <ele>323.92</ele>
        <time>2009-11-30T13:41:43.000Z</time>
      </trkpt>
      <trkpt lat="46.01089" lon="3.33467">
        <ele>323.33</ele>
        <time>2009-11-30T13:41:44.000Z</time>
      </trkpt>
      <trkpt lat="46.01087" lon="3.3345">
        <ele>323.05</ele>
        <time>2009-11-30T13:41:48.000Z</time>
      </trkpt>
      <trkpt lat="46.01074" lon="3.33422">
        <ele>322.1</ele>
        <time>2009-11-30T13:41:52.000Z</time>
      </trkpt>
      <trkpt lat="46.0107" lon="3.33386">
        <ele>322.15</ele>
        <time>2009-11-30T13:41:56.000Z</time>
      </trkpt>
      <trkpt lat="46.01074" lon="3.33298">
        <ele>320.88</ele>
        <time>2009-11-30T13:42:05.000Z</time>
      </trkpt>
      <trkpt lat="46.01079" lon="3.33207">
        <ele>320.88</ele>
        <time>2009-11-30T13:42:14.000Z</time>
      </trkpt>
      <trkpt lat="46.01091" lon="3.33147">
        <ele>322.76</ele>
        <time>2009-11-30T13:42:21.000Z</time>
      </trkpt>
      <trkpt lat="46.01103" lon="3.33088">
        <ele>324.75</ele>
        <time>2009-11-30T13:42:29.000Z</time>
      </trkpt>
      <trkpt lat="46.01117" lon="3.33028">
        <ele>326.05</ele>
        <time>2009-11-30T13:42:38.000Z</time>
      </trkpt>
      <trkpt lat="46.01127" lon="3.32979">
        <ele>327.94</ele>
        <time>2009-11-30T13:42:45.000Z</time>
      </trkpt>
      <trkpt lat="46.01142" lon="3.32917">
        <ele>329.96</ele>
        <time>2009-11-30T13:42:54.000Z</time>
      </trkpt>
      <trkpt lat="46.01163" lon="3.32863">
        <ele>330.88</ele>
        <time>2009-11-30T13:43:02.000Z</time>
      </trkpt>
      <trkpt lat="46.0119" lon="3.32813">
        <ele>329.26</ele>
        <time>2009-11-30T13:43:09.000Z</time>
      </trkpt>
      <trkpt lat="46.0124" lon="3.32727">
        <ele>326.28</ele>
        <time>2009-11-30T13:43:20.000Z</time>
      </trkpt>
      <trkpt lat="46.01295" lon="3.32627">
        <ele>324.49</ele>
        <time>2009-11-30T13:43:32.000Z</time>
      </trkpt>
      <trkpt lat="46.01329" lon="3.3255">
        <ele>324.33</ele>
        <time>2009-11-30T13:43:41.000Z</time>
      </trkpt>
      <trkpt lat="46.01367" lon="3.32459">
        <ele>323.94</ele>
        <time>2009-11-30T13:43:52.000Z</time>
      </trkpt>
      <trkpt lat="46.01397" lon="3.32375">
        <ele>324.07</ele>
        <time>2009-11-30T13:44:02.000Z</time>
      </trkpt>
      <trkpt lat="46.01411" lon="3.32305">
        <ele>323.52</ele>
        <time>2009-11-30T13:44:10.000Z</time>
      </trkpt>
      <trkpt lat="46.01428" lon="3.32199">
        <ele>325.51</ele>
        <time>2009-11-30T13:44:22.000Z</time>
      </trkpt>
      <trkpt lat="46.01444" lon="3.32151">
        <ele>325.36</ele>
        <time>2009-11-30T13:44:28.000Z</time>
      </trkpt>
      <trkpt lat="46.01458" lon="3.32123">
        <ele>326.36</ele>
        <time>2009-11-30T13:44:32.000Z</time>
      </trkpt>
      <trkpt lat="46.01499" lon="3.32054">
        <ele>327.98</ele>
        <time>2009-11-30T13:44:43.000Z</time>
      </trkpt>
      <trkpt lat="46.01532" lon="3.31994">
        <ele>330.24</ele>
        <time>2009-11-30T13:44:53.000Z</time>
      </trkpt>
      <trkpt lat="46.0156" lon="3.31923">
        <ele>331.47</ele>
        <time>2009-11-30T13:45:04.000Z</time>
      </trkpt>
      <trkpt lat="46.01582" lon="3.31855">
        <ele>333.42</ele>
        <time>2009-11-30T13:45:14.000Z</time>
      </trkpt>
      <trkpt lat="46.01595" lon="3.31785">
        <ele>333.24</ele>
        <time>2009-11-30T13:45:23.000Z</time>
      </trkpt>
      <trkpt lat="46.01605" lon="3.31693">
        <ele>330.11</ele>
        <time>2009-11-30T13:45:33.000Z</time>
      </trkpt>
      <trkpt lat="46.0162" lon="3.31595">
        <ele>328.67</ele>
        <time>2009-11-30T13:45:43.000Z</time>
      </trkpt>
      <trkpt lat="46.01641" lon="3.31521">
        <ele>328.53</ele>
        <time>2009-11-30T13:45:51.000Z</time>
      </trkpt>
      <trkpt lat="46.0167" lon="3.3143">
        <ele>329.87</ele>
        <time>2009-11-30T13:46:02.000Z</time>
      </trkpt>
      <trkpt lat="46.01699" lon="3.3136">
        <ele>329.8</ele>
        <time>2009-11-30T13:46:11.000Z</time>
      </trkpt>
      <trkpt lat="46.01738" lon="3.31282">
        <ele>329.76</ele>
        <time>2009-11-30T13:46:21.000Z</time>
      </trkpt>
      <trkpt lat="46.01774" lon="3.312">
        <ele>329.03</ele>
        <time>2009-11-30T13:46:31.000Z</time>
      </trkpt>
      <trkpt lat="46.01793" lon="3.31122">
        <ele>328.74</ele>
        <time>2009-11-30T13:46:40.000Z</time>
      </trkpt>
      <trkpt lat="46.01817" lon="3.31031">
        <ele>328.84</ele>
        <time>2009-11-30T13:46:51.000Z</time>
      </trkpt>
      <trkpt lat="46.01846" lon="3.30965">
        <ele>330</ele>
        <time>2009-11-30T13:47:00.000Z</time>
      </trkpt>
      <trkpt lat="46.01882" lon="3.30885">
        <ele>330.3</ele>
        <time>2009-11-30T13:47:11.000Z</time>
      </trkpt>
      <trkpt lat="46.01901" lon="3.30829">
        <ele>330.02</ele>
        <time>2009-11-30T13:47:18.000Z</time>
      </trkpt>
      <trkpt lat="46.01927" lon="3.30748">
        <ele>329.45</ele>
        <time>2009-11-30T13:47:28.000Z</time>
      </trkpt>
      <trkpt lat="46.01964" lon="3.3064">
        <ele>328.91</ele>
        <time>2009-11-30T13:47:41.000Z</time>
      </trkpt>
      <trkpt lat="46.01994" lon="3.30578">
        <ele>328.97</ele>
        <time>2009-11-30T13:47:49.000Z</time>
      </trkpt>
      <trkpt lat="46.02044" lon="3.30503">
        <ele>327.32</ele>
        <time>2009-11-30T13:48:00.000Z</time>
      </trkpt>
      <trkpt lat="46.02099" lon="3.30431">
        <ele>326.56</ele>
        <time>2009-11-30T13:48:11.000Z</time>
      </trkpt>
      <trkpt lat="46.02153" lon="3.3037">
        <ele>325.72</ele>
        <time>2009-11-30T13:48:21.000Z</time>
      </trkpt>
      <trkpt lat="46.02203" lon="3.30316">
        <ele>324.11</ele>
        <time>2009-11-30T13:48:30.000Z</time>
      </trkpt>
      <trkpt lat="46.02252" lon="3.30279">
        <ele>323.85</ele>
        <time>2009-11-30T13:48:38.000Z</time>
      </trkpt>
      <trkpt lat="46.02324" lon="3.30235">
        <ele>322.61</ele>
        <time>2009-11-30T13:48:49.000Z</time>
      </trkpt>
      <trkpt lat="46.02366" lon="3.302">
        <ele>322.57</ele>
        <time>2009-11-30T13:48:56.000Z</time>
      </trkpt>
      <trkpt lat="46.02385" lon="3.30171">
        <ele>321.83</ele>
        <time>2009-11-30T13:49:00.000Z</time>
      </trkpt>
      <trkpt lat="46.02408" lon="3.30111">
        <ele>321.54</ele>
        <time>2009-11-30T13:49:07.000Z</time>
      </trkpt>
      <trkpt lat="46.02423" lon="3.30091">
        <ele>321.79</ele>
        <time>2009-11-30T13:49:11.000Z</time>
      </trkpt>
      <trkpt lat="46.02426" lon="3.30075">
        <ele>321.53</ele>
        <time>2009-11-30T13:49:14.000Z</time>
      </trkpt>
      <trkpt lat="46.02419" lon="3.30052">
        <ele>321.27</ele>
        <time>2009-11-30T13:49:17.000Z</time>
      </trkpt>
      <trkpt lat="46.02416" lon="3.30034">
        <ele>320.26</ele>
        <time>2009-11-30T13:49:19.000Z</time>
      </trkpt>
      <trkpt lat="46.02407" lon="3.29945">
        <ele>321.62</ele>
        <time>2009-11-30T13:49:29.000Z</time>
      </trkpt>
      <trkpt lat="46.02405" lon="3.29873">
        <ele>323.14</ele>
        <time>2009-11-30T13:49:38.000Z</time>
      </trkpt>
      <trkpt lat="46.024" lon="3.29806">
        <ele>324.64</ele>
        <time>2009-11-30T13:49:46.000Z</time>
      </trkpt>
      <trkpt lat="46.0239" lon="3.29739">
        <ele>324.03</ele>
        <time>2009-11-30T13:49:54.000Z</time>
      </trkpt>
      <trkpt lat="46.0239" lon="3.29721">
        <ele>324.37</ele>
        <time>2009-11-30T13:49:56.000Z</time>
      </trkpt>
      <trkpt lat="46.02398" lon="3.2966">
        <ele>326.15</ele>
        <time>2009-11-30T13:50:03.000Z</time>
      </trkpt>
      <trkpt lat="46.02416" lon="3.29597">
        <ele>326.23</ele>
        <time>2009-11-30T13:50:11.000Z</time>
      </trkpt>
      <trkpt lat="46.02419" lon="3.29589">
        <ele>327.4</ele>
        <time>2009-11-30T13:50:12.000Z</time>
      </trkpt>
      <trkpt lat="46.02447" lon="3.29545">
        <ele>327.78</ele>
        <time>2009-11-30T13:50:19.000Z</time>
      </trkpt>
      <trkpt lat="46.02479" lon="3.29512">
        <ele>330.73</ele>
        <time>2009-11-30T13:50:26.000Z</time>
      </trkpt>
      <trkpt lat="46.02523" lon="3.2947">
        <ele>330.89</ele>
        <time>2009-11-30T13:50:35.000Z</time>
      </trkpt>
      <trkpt lat="46.02557" lon="3.29426">
        <ele>332.38</ele>
        <time>2009-11-30T13:50:43.000Z</time>
      </trkpt>
      <trkpt lat="46.02591" lon="3.29371">
        <ele>333.5</ele>
        <time>2009-11-30T13:50:52.000Z</time>
      </trkpt>
      <trkpt lat="46.02635" lon="3.29297">
        <ele>335.96</ele>
        <time>2009-11-30T13:51:04.000Z</time>
      </trkpt>
      <trkpt lat="46.02667" lon="3.29237">
        <ele>335.51</ele>
        <time>2009-11-30T13:51:13.000Z</time>
      </trkpt>
      <trkpt lat="46.02696" lon="3.29161">
        <ele>336.81</ele>
        <time>2009-11-30T13:51:23.000Z</time>
      </trkpt>
      <trkpt lat="46.02719" lon="3.2908">
        <ele>337.55</ele>
        <time>2009-11-30T13:51:33.000Z</time>
      </trkpt>
      <trkpt lat="46.02735" lon="3.29002">
        <ele>335.2</ele>
        <time>2009-11-30T13:51:41.000Z</time>
      </trkpt>
      <trkpt lat="46.02751" lon="3.2891">
        <ele>332.77</ele>
        <time>2009-11-30T13:51:50.000Z</time>
      </trkpt>
      <trkpt lat="46.02769" lon="3.28816">
        <ele>330.93</ele>
        <time>2009-11-30T13:51:59.000Z</time>
      </trkpt>
      <trkpt lat="46.02792" lon="3.28723">
        <ele>331.64</ele>
        <time>2009-11-30T13:52:09.000Z</time>
      </trkpt>
      <trkpt lat="46.02808" lon="3.28644">
        <ele>331.9</ele>
        <time>2009-11-30T13:52:18.000Z</time>
      </trkpt>
      <trkpt lat="46.02821" lon="3.28578">
        <ele>330.51</ele>
        <time>2009-11-30T13:52:25.000Z</time>
      </trkpt>
      <trkpt lat="46.02846" lon="3.28491">
        <ele>327.77</ele>
        <time>2009-11-30T13:52:34.000Z</time>
      </trkpt>
      <trkpt lat="46.0287" lon="3.2841">
        <ele>324.04</ele>
        <time>2009-11-30T13:52:42.000Z</time>
      </trkpt>
      <trkpt lat="46.02879" lon="3.28355">
        <ele>323.19</ele>
        <time>2009-11-30T13:52:47.000Z</time>
      </trkpt>
      <trkpt lat="46.02881" lon="3.28273">
        <ele>320.5</ele>
        <time>2009-11-30T13:52:54.000Z</time>
      </trkpt>
      <trkpt lat="46.02874" lon="3.28209">
        <ele>320.63</ele>
        <time>2009-11-30T13:53:00.000Z</time>
      </trkpt>
      <trkpt lat="46.02863" lon="3.28133">
        <ele>319.9</ele>
        <time>2009-11-30T13:53:08.000Z</time>
      </trkpt>
      <trkpt lat="46.02844" lon="3.28007">
        <ele>319.87</ele>
        <time>2009-11-30T13:53:22.000Z</time>
      </trkpt>
      <trkpt lat="46.02827" lon="3.27894">
        <ele>320.1</ele>
        <time>2009-11-30T13:53:34.000Z</time>
      </trkpt>
      <trkpt lat="46.02812" lon="3.27802">
        <ele>319.49</ele>
        <time>2009-11-30T13:53:44.000Z</time>
      </trkpt>
      <trkpt lat="46.02792" lon="3.27685">
        <ele>320.35</ele>
        <time>2009-11-30T13:53:57.000Z</time>
      </trkpt>
      <trkpt lat="46.02775" lon="3.27575">
        <ele>321.51</ele>
        <time>2009-11-30T13:54:10.000Z</time>
      </trkpt>
      <trkpt lat="46.02763" lon="3.27475">
        <ele>320.06</ele>
        <time>2009-11-30T13:54:21.000Z</time>
      </trkpt>
      <trkpt lat="46.0275" lon="3.27375">
        <ele>319.24</ele>
        <time>2009-11-30T13:54:32.000Z</time>
      </trkpt>
      <trkpt lat="46.02735" lon="3.27267">
        <ele>319.35</ele>
        <time>2009-11-30T13:54:44.000Z</time>
      </trkpt>
      <trkpt lat="46.02722" lon="3.27173">
        <ele>319.42</ele>
        <time>2009-11-30T13:54:55.000Z</time>
      </trkpt>
      <trkpt lat="46.02704" lon="3.27051">
        <ele>319.51</ele>
        <time>2009-11-30T13:55:09.000Z</time>
      </trkpt>
      <trkpt lat="46.02683" lon="3.26918">
        <ele>319.13</ele>
        <time>2009-11-30T13:55:24.000Z</time>
      </trkpt>
      <trkpt lat="46.02667" lon="3.26811">
        <ele>319.11</ele>
        <time>2009-11-30T13:55:36.000Z</time>
      </trkpt>
      <trkpt lat="46.0265" lon="3.26706">
        <ele>319.09</ele>
        <time>2009-11-30T13:55:48.000Z</time>
      </trkpt>
      <trkpt lat="46.02631" lon="3.26593">
        <ele>319.28</ele>
        <time>2009-11-30T13:56:01.000Z</time>
      </trkpt>
      <trkpt lat="46.02615" lon="3.26482">
        <ele>318.7</ele>
        <time>2009-11-30T13:56:13.000Z</time>
      </trkpt>
      <trkpt lat="46.02606" lon="3.26403">
        <ele>320.08</ele>
        <time>2009-11-30T13:56:22.000Z</time>
      </trkpt>
      <trkpt lat="46.02593" lon="3.26318">
        <ele>320.63</ele>
        <time>2009-11-30T13:56:32.000Z</time>
      </trkpt>
      <trkpt lat="46.02579" lon="3.2623">
        <ele>319.66</ele>
        <time>2009-11-30T13:56:42.000Z</time>
      </trkpt>
      <trkpt lat="46.02566" lon="3.26143">
        <ele>320.65</ele>
        <time>2009-11-30T13:56:52.000Z</time>
      </trkpt>
      <trkpt lat="46.02555" lon="3.26069">
        <ele>321.47</ele>
        <time>2009-11-30T13:57:01.000Z</time>
      </trkpt>
      <trkpt lat="46.02544" lon="3.26006">
        <ele>321.97</ele>
        <time>2009-11-30T13:57:09.000Z</time>
      </trkpt>
      <trkpt lat="46.02528" lon="3.25953">
        <ele>322.4</ele>
        <time>2009-11-30T13:57:16.000Z</time>
      </trkpt>
      <trkpt lat="46.02525" lon="3.25936">
        <ele>322.18</ele>
        <time>2009-11-30T13:57:18.000Z</time>
      </trkpt>
      <trkpt lat="46.02527" lon="3.25887">
        <ele>322.63</ele>
        <time>2009-11-30T13:57:24.000Z</time>
      </trkpt>
      <trkpt lat="46.02542" lon="3.25829">
        <ele>323.57</ele>
        <time>2009-11-30T13:57:32.000Z</time>
      </trkpt>
      <trkpt lat="46.02562" lon="3.25763">
        <ele>325.05</ele>
        <time>2009-11-30T13:57:41.000Z</time>
      </trkpt>
      <trkpt lat="46.02572" lon="3.25732">
        <ele>325.55</ele>
        <time>2009-11-30T13:57:45.000Z</time>
      </trkpt>
      <trkpt lat="46.02598" lon="3.25656">
        <ele>325.07</ele>
        <time>2009-11-30T13:57:55.000Z</time>
      </trkpt>
      <trkpt lat="46.02621" lon="3.25596">
        <ele>326.41</ele>
        <time>2009-11-30T13:58:03.000Z</time>
      </trkpt>
      <trkpt lat="46.02648" lon="3.25527">
        <ele>327.45</ele>
        <time>2009-11-30T13:58:13.000Z</time>
      </trkpt>
      <trkpt lat="46.02664" lon="3.25477">
        <ele>329.02</ele>
        <time>2009-11-30T13:58:21.000Z</time>
      </trkpt>
      <trkpt lat="46.02688" lon="3.254">
        <ele>331</ele>
        <time>2009-11-30T13:58:33.000Z</time>
      </trkpt>
      <trkpt lat="46.0271" lon="3.25324">
        <ele>333.44</ele>
        <time>2009-11-30T13:58:44.000Z</time>
      </trkpt>
      <trkpt lat="46.02732" lon="3.25248">
        <ele>334.37</ele>
        <time>2009-11-30T13:58:55.000Z</time>
      </trkpt>
      <trkpt lat="46.02753" lon="3.25174">
        <ele>336.6</ele>
        <time>2009-11-30T13:59:06.000Z</time>
      </trkpt>
      <trkpt lat="46.02761" lon="3.25136">
        <ele>337.25</ele>
        <time>2009-11-30T13:59:12.000Z</time>
      </trkpt>
      <trkpt lat="46.02757" lon="3.25111">
        <ele>337.45</ele>
        <time>2009-11-30T13:59:16.000Z</time>
      </trkpt>
      <trkpt lat="46.02745" lon="3.251">
        <ele>338.73</ele>
        <time>2009-11-30T13:59:19.000Z</time>
      </trkpt>
      <trkpt lat="46.02735" lon="3.25094">
        <ele>339.03</ele>
        <time>2009-11-30T13:59:21.000Z</time>
      </trkpt>
      <trkpt lat="46.02717" lon="3.25068">
        <ele>339.38</ele>
        <time>2009-11-30T13:59:26.000Z</time>
      </trkpt>
      <trkpt lat="46.02684" lon="3.25004">
        <ele>340.37</ele>
        <time>2009-11-30T13:59:36.000Z</time>
      </trkpt>
      <trkpt lat="46.02653" lon="3.24942">
        <ele>340.64</ele>
        <time>2009-11-30T13:59:46.000Z</time>
      </trkpt>
      <trkpt lat="46.02626" lon="3.24884">
        <ele>341.48</ele>
        <time>2009-11-30T13:59:55.000Z</time>
      </trkpt>
      <trkpt lat="46.02613" lon="3.24852">
        <ele>341.88</ele>
        <time>2009-11-30T14:00:01.000Z</time>
      </trkpt>
      <trkpt lat="46.02612" lon="3.24847">
        <ele>341.68</ele>
        <time>2009-11-30T14:00:04.000Z</time>
      </trkpt>
      <trkpt lat="46.02607" lon="3.24843">
        <ele>341.89</ele>
        <time>2009-11-30T14:01:19.000Z</time>
      </trkpt>
      <trkpt lat="46.02591" lon="3.24813">
        <ele>341.66</ele>
        <time>2009-11-30T14:01:26.000Z</time>
      </trkpt>
      <trkpt lat="46.02566" lon="3.24776">
        <ele>341.54</ele>
        <time>2009-11-30T14:01:33.000Z</time>
      </trkpt>
      <trkpt lat="46.02524" lon="3.24733">
        <ele>341.22</ele>
        <time>2009-11-30T14:01:42.000Z</time>
      </trkpt>
      <trkpt lat="46.02472" lon="3.24684">
        <ele>341.01</ele>
        <time>2009-11-30T14:01:52.000Z</time>
      </trkpt>
      <trkpt lat="46.02395" lon="3.24613">
        <ele>340.2</ele>
        <time>2009-11-30T14:02:06.000Z</time>
      </trkpt>
      <trkpt lat="46.02329" lon="3.24553">
        <ele>340.31</ele>
        <time>2009-11-30T14:02:18.000Z</time>
      </trkpt>
      <trkpt lat="46.0227" lon="3.24498">
        <ele>342.02</ele>
        <time>2009-11-30T14:02:29.000Z</time>
      </trkpt>
      <trkpt lat="46.02197" lon="3.24428">
        <ele>341.67</ele>
        <time>2009-11-30T14:02:43.000Z</time>
      </trkpt>
      <trkpt lat="46.02127" lon="3.2436">
        <ele>342.01</ele>
        <time>2009-11-30T14:02:56.000Z</time>
      </trkpt>
      <trkpt lat="46.02072" lon="3.24312">
        <ele>342.21</ele>
        <time>2009-11-30T14:03:06.000Z</time>
      </trkpt>
      <trkpt lat="46.02028" lon="3.24293">
        <ele>341.5</ele>
        <time>2009-11-30T14:03:13.000Z</time>
      </trkpt>
      <trkpt lat="46.01955" lon="3.2427">
        <ele>340.78</ele>
        <time>2009-11-30T14:03:24.000Z</time>
      </trkpt>
      <trkpt lat="46.01899" lon="3.24258">
        <ele>339.6</ele>
        <time>2009-11-30T14:03:32.000Z</time>
      </trkpt>
      <trkpt lat="46.01869" lon="3.24261">
        <ele>338.75</ele>
        <time>2009-11-30T14:03:36.000Z</time>
      </trkpt>
      <trkpt lat="46.01838" lon="3.24255">
        <ele>338</ele>
        <time>2009-11-30T14:03:40.000Z</time>
      </trkpt>
      <trkpt lat="46.01782" lon="3.24222">
        <ele>337.28</ele>
        <time>2009-11-30T14:03:48.000Z</time>
      </trkpt>
      <trkpt lat="46.01715" lon="3.24181">
        <ele>338.55</ele>
        <time>2009-11-30T14:03:58.000Z</time>
      </trkpt>
      <trkpt lat="46.01666" lon="3.24147">
        <ele>337.79</ele>
        <time>2009-11-30T14:04:06.000Z</time>
      </trkpt>
      <trkpt lat="46.01622" lon="3.24107">
        <ele>338.2</ele>
        <time>2009-11-30T14:04:14.000Z</time>
      </trkpt>
      <trkpt lat="46.01605" lon="3.24077">
        <ele>339.53</ele>
        <time>2009-11-30T14:04:18.000Z</time>
      </trkpt>
      <trkpt lat="46.01588" lon="3.24026">
        <ele>339.83</ele>
        <time>2009-11-30T14:04:24.000Z</time>
      </trkpt>
      <trkpt lat="46.01573" lon="3.23951">
        <ele>341.29</ele>
        <time>2009-11-30T14:04:33.000Z</time>
      </trkpt>
      <trkpt lat="46.0155" lon="3.2384">
        <ele>342.01</ele>
        <time>2009-11-30T14:04:47.000Z</time>
      </trkpt>
      <trkpt lat="46.0154" lon="3.23762">
        <ele>341.2</ele>
        <time>2009-11-30T14:04:56.000Z</time>
      </trkpt>
      <trkpt lat="46.01534" lon="3.23675">
        <ele>342.43</ele>
        <time>2009-11-30T14:05:06.000Z</time>
      </trkpt>
      <trkpt lat="46.01522" lon="3.23616">
        <ele>342.08</ele>
        <time>2009-11-30T14:05:13.000Z</time>
      </trkpt>
      <trkpt lat="46.015" lon="3.23562">
        <ele>342.21</ele>
        <time>2009-11-30T14:05:20.000Z</time>
      </trkpt>
      <trkpt lat="46.01469" lon="3.23517">
        <ele>342.58</ele>
        <time>2009-11-30T14:05:27.000Z</time>
      </trkpt>
      <trkpt lat="46.01431" lon="3.23486">
        <ele>343.03</ele>
        <time>2009-11-30T14:05:34.000Z</time>
      </trkpt>
      <trkpt lat="46.01388" lon="3.23466">
        <ele>342.55</ele>
        <time>2009-11-30T14:05:41.000Z</time>
      </trkpt>
      <trkpt lat="46.01307" lon="3.23434">
        <ele>342.56</ele>
        <time>2009-11-30T14:05:54.000Z</time>
      </trkpt>
      <trkpt lat="46.01238" lon="3.23411">
        <ele>343.47</ele>
        <time>2009-11-30T14:06:05.000Z</time>
      </trkpt>
      <trkpt lat="46.01186" lon="3.23401">
        <ele>342.63</ele>
        <time>2009-11-30T14:06:13.000Z</time>
      </trkpt>
      <trkpt lat="46.01111" lon="3.2339">
        <ele>341.84</ele>
        <time>2009-11-30T14:06:24.000Z</time>
      </trkpt>
      <trkpt lat="46.01047" lon="3.23375">
        <ele>340.22</ele>
        <time>2009-11-30T14:06:33.000Z</time>
      </trkpt>
      <trkpt lat="46.00989" lon="3.23348">
        <ele>339.03</ele>
        <time>2009-11-30T14:06:41.000Z</time>
      </trkpt>
      <trkpt lat="46.00912" lon="3.23313">
        <ele>339.31</ele>
        <time>2009-11-30T14:06:52.000Z</time>
      </trkpt>
      <trkpt lat="46.0085" lon="3.23288">
        <ele>338.29</ele>
        <time>2009-11-30T14:07:01.000Z</time>
      </trkpt>
      <trkpt lat="46.00785" lon="3.23271">
        <ele>336.49</ele>
        <time>2009-11-30T14:07:10.000Z</time>
      </trkpt>
      <trkpt lat="46.00704" lon="3.23257">
        <ele>334.89</ele>
        <time>2009-11-30T14:07:21.000Z</time>
      </trkpt>
      <trkpt lat="46.00696" lon="3.23255">
        <ele>334.6</ele>
        <time>2009-11-30T14:07:22.000Z</time>
      </trkpt>
      <trkpt lat="46.00668" lon="3.23245">
        <ele>333.88</ele>
        <time>2009-11-30T14:07:27.000Z</time>
      </trkpt>
      <trkpt lat="46.00645" lon="3.23242">
        <ele>334.49</ele>
        <time>2009-11-30T14:07:32.000Z</time>
      </trkpt>
      <trkpt lat="46.00607" lon="3.23242">
        <ele>332.81</ele>
        <time>2009-11-30T14:07:38.000Z</time>
      </trkpt>
      <trkpt lat="46.00565" lon="3.23236">
        <ele>331.68</ele>
        <time>2009-11-30T14:07:44.000Z</time>
      </trkpt>
      <trkpt lat="46.00558" lon="3.23236">
        <ele>331.72</ele>
        <time>2009-11-30T14:07:45.000Z</time>
      </trkpt>
      <trkpt lat="46.00505" lon="3.23247">
        <ele>330.17</ele>
        <time>2009-11-30T14:07:52.000Z</time>
      </trkpt>
      <trkpt lat="46.00459" lon="3.23244">
        <ele>329.84</ele>
        <time>2009-11-30T14:07:58.000Z</time>
      </trkpt>
      <trkpt lat="46.00434" lon="3.23223">
        <ele>329.93</ele>
        <time>2009-11-30T14:08:02.000Z</time>
      </trkpt>
      <trkpt lat="46.00425" lon="3.23194">
        <ele>330.16</ele>
        <time>2009-11-30T14:08:05.000Z</time>
      </trkpt>
      <trkpt lat="46.00425" lon="3.23184">
        <ele>330.02</ele>
        <time>2009-11-30T14:08:06.000Z</time>
      </trkpt>
      <trkpt lat="46.00426" lon="3.23098">
        <ele>330.5</ele>
        <time>2009-11-30T14:08:16.000Z</time>
      </trkpt>
      <trkpt lat="46.00417" lon="3.23048">
        <ele>331.29</ele>
        <time>2009-11-30T14:08:22.000Z</time>
      </trkpt>
      <trkpt lat="46.00398" lon="3.22988">
        <ele>332.77</ele>
        <time>2009-11-30T14:08:30.000Z</time>
      </trkpt>
      <trkpt lat="46.00385" lon="3.22962">
        <ele>331.98</ele>
        <time>2009-11-30T14:08:34.000Z</time>
      </trkpt>
      <trkpt lat="46.00345" lon="3.22915">
        <ele>333.26</ele>
        <time>2009-11-30T14:08:43.000Z</time>
      </trkpt>
      <trkpt lat="46.00295" lon="3.22864">
        <ele>334.1</ele>
        <time>2009-11-30T14:08:54.000Z</time>
      </trkpt>
      <trkpt lat="46.00246" lon="3.22813">
        <ele>334.52</ele>
        <time>2009-11-30T14:09:05.000Z</time>
      </trkpt>
      <trkpt lat="46.00197" lon="3.22761">
        <ele>336.68</ele>
        <time>2009-11-30T14:09:16.000Z</time>
      </trkpt>
      <trkpt lat="46.00146" lon="3.22699">
        <ele>337.11</ele>
        <time>2009-11-30T14:09:28.000Z</time>
      </trkpt>
      <trkpt lat="46.00104" lon="3.22635">
        <ele>338.27</ele>
        <time>2009-11-30T14:09:39.000Z</time>
      </trkpt>
      <trkpt lat="46.00063" lon="3.2257">
        <ele>339.28</ele>
        <time>2009-11-30T14:09:50.000Z</time>
      </trkpt>
      <trkpt lat="46.00011" lon="3.2249">
        <ele>341.87</ele>
        <time>2009-11-30T14:10:04.000Z</time>
      </trkpt>
      <trkpt lat="45.99982" lon="3.22456">
        <ele>342.77</ele>
        <time>2009-11-30T14:10:11.000Z</time>
      </trkpt>
      <trkpt lat="45.99953" lon="3.22437">
        <ele>343.2</ele>
        <time>2009-11-30T14:10:17.000Z</time>
      </trkpt>
      <trkpt lat="45.99919" lon="3.2243">
        <ele>343.82</ele>
        <time>2009-11-30T14:10:23.000Z</time>
      </trkpt>
      <trkpt lat="45.99855" lon="3.22431">
        <ele>345.33</ele>
        <time>2009-11-30T14:10:34.000Z</time>
      </trkpt>
      <trkpt lat="45.99808" lon="3.22423">
        <ele>345.96</ele>
        <time>2009-11-30T14:10:42.000Z</time>
      </trkpt>
      <trkpt lat="45.99779" lon="3.22409">
        <ele>346.44</ele>
        <time>2009-11-30T14:10:47.000Z</time>
      </trkpt>
      <trkpt lat="45.99754" lon="3.22383">
        <ele>346.94</ele>
        <time>2009-11-30T14:10:52.000Z</time>
      </trkpt>
      <trkpt lat="45.99722" lon="3.22331">
        <ele>348.09</ele>
        <time>2009-11-30T14:11:00.000Z</time>
      </trkpt>
      <trkpt lat="45.99684" lon="3.22257">
        <ele>349.28</ele>
        <time>2009-11-30T14:11:11.000Z</time>
      </trkpt>
      <trkpt lat="45.99648" lon="3.22179">
        <ele>348.54</ele>
        <time>2009-11-30T14:11:22.000Z</time>
      </trkpt>
      <trkpt lat="45.99613" lon="3.22092">
        <ele>350.17</ele>
        <time>2009-11-30T14:11:34.000Z</time>
      </trkpt>
      <trkpt lat="45.99583" lon="3.22018">
        <ele>351.33</ele>
        <time>2009-11-30T14:11:45.000Z</time>
      </trkpt>
      <trkpt lat="45.99553" lon="3.21943">
        <ele>351.28</ele>
        <time>2009-11-30T14:11:56.000Z</time>
      </trkpt>
      <trkpt lat="45.99525" lon="3.21866">
        <ele>351.96</ele>
        <time>2009-11-30T14:12:07.000Z</time>
      </trkpt>
      <trkpt lat="45.99507" lon="3.21794">
        <ele>352.98</ele>
        <time>2009-11-30T14:12:16.000Z</time>
      </trkpt>
      <trkpt lat="45.99487" lon="3.21705">
        <ele>352.86</ele>
        <time>2009-11-30T14:12:27.000Z</time>
      </trkpt>
      <trkpt lat="45.99482" lon="3.2168">
        <ele>352.99</ele>
        <time>2009-11-30T14:12:30.000Z</time>
      </trkpt>
      <trkpt lat="45.9948" lon="3.21633">
        <ele>351.81</ele>
        <time>2009-11-30T14:12:36.000Z</time>
      </trkpt>
      <trkpt lat="45.99478" lon="3.21606">
        <ele>351.66</ele>
        <time>2009-11-30T14:12:40.000Z</time>
      </trkpt>
      <trkpt lat="45.99459" lon="3.21602">
        <ele>351.71</ele>
        <time>2009-11-30T14:12:44.000Z</time>
      </trkpt>
      <trkpt lat="45.99403" lon="3.21614">
        <ele>353.7</ele>
        <time>2009-11-30T14:12:54.000Z</time>
      </trkpt>
      <trkpt lat="45.99341" lon="3.21617">
        <ele>355.06</ele>
        <time>2009-11-30T14:13:05.000Z</time>
      </trkpt>
      <trkpt lat="45.99284" lon="3.21617">
        <ele>357.09</ele>
        <time>2009-11-30T14:13:15.000Z</time>
      </trkpt>
      <trkpt lat="45.99229" lon="3.21606">
        <ele>358.38</ele>
        <time>2009-11-30T14:13:25.000Z</time>
      </trkpt>
      <trkpt lat="45.99177" lon="3.21593">
        <ele>359.73</ele>
        <time>2009-11-30T14:13:34.000Z</time>
      </trkpt>
      <trkpt lat="45.99147" lon="3.21587">
        <ele>358.53</ele>
        <time>2009-11-30T14:13:39.000Z</time>
      </trkpt>
      <trkpt lat="45.99094" lon="3.21576">
        <ele>358.17</ele>
        <time>2009-11-30T14:13:47.000Z</time>
      </trkpt>
      <trkpt lat="45.99029" lon="3.21561">
        <ele>357</ele>
        <time>2009-11-30T14:13:56.000Z</time>
      </trkpt>
      <trkpt lat="45.98979" lon="3.21536">
        <ele>356.65</ele>
        <time>2009-11-30T14:14:03.000Z</time>
      </trkpt>
      <trkpt lat="45.98926" lon="3.21493">
        <ele>355.37</ele>
        <time>2009-11-30T14:14:11.000Z</time>
      </trkpt>
      <trkpt lat="45.98882" lon="3.21448">
        <ele>353.07</ele>
        <time>2009-11-30T14:14:18.000Z</time>
      </trkpt>
      <trkpt lat="45.9885" lon="3.21416">
        <ele>352.49</ele>
        <time>2009-11-30T14:14:23.000Z</time>
      </trkpt>
      <trkpt lat="45.98815" lon="3.21395">
        <ele>352.18</ele>
        <time>2009-11-30T14:14:28.000Z</time>
      </trkpt>
      <trkpt lat="45.9875" lon="3.21372">
        <ele>352.09</ele>
        <time>2009-11-30T14:14:37.000Z</time>
      </trkpt>
      <trkpt lat="45.98674" lon="3.21347">
        <ele>352.46</ele>
        <time>2009-11-30T14:14:48.000Z</time>
      </trkpt>
      <trkpt lat="45.98614" lon="3.21333">
        <ele>353.34</ele>
        <time>2009-11-30T14:14:57.000Z</time>
      </trkpt>
      <trkpt lat="45.9854" lon="3.21315">
        <ele>354.06</ele>
        <time>2009-11-30T14:15:08.000Z</time>
      </trkpt>
      <trkpt lat="45.98458" lon="3.21295">
        <ele>354.02</ele>
        <time>2009-11-30T14:15:20.000Z</time>
      </trkpt>
      <trkpt lat="45.98391" lon="3.21279">
        <ele>351.77</ele>
        <time>2009-11-30T14:15:29.000Z</time>
      </trkpt>
      <trkpt lat="45.98303" lon="3.21258">
        <ele>349.69</ele>
        <time>2009-11-30T14:15:40.000Z</time>
      </trkpt>
      <trkpt lat="45.98226" lon="3.2124">
        <ele>349.48</ele>
        <time>2009-11-30T14:15:50.000Z</time>
      </trkpt>
      <trkpt lat="45.98164" lon="3.21228">
        <ele>349.72</ele>
        <time>2009-11-30T14:15:59.000Z</time>
      </trkpt>
      <trkpt lat="45.98101" lon="3.2123">
        <ele>349.79</ele>
        <time>2009-11-30T14:16:08.000Z</time>
      </trkpt>
      <trkpt lat="45.98031" lon="3.21235">
        <ele>350.44</ele>
        <time>2009-11-30T14:16:18.000Z</time>
      </trkpt>
      <trkpt lat="45.97954" lon="3.21245">
        <ele>350.89</ele>
        <time>2009-11-30T14:16:29.000Z</time>
      </trkpt>
      <trkpt lat="45.97874" lon="3.21262">
        <ele>349.43</ele>
        <time>2009-11-30T14:16:40.000Z</time>
      </trkpt>
      <trkpt lat="45.97798" lon="3.21279">
        <ele>347.83</ele>
        <time>2009-11-30T14:16:50.000Z</time>
      </trkpt>
      <trkpt lat="45.97714" lon="3.21292">
        <ele>346.78</ele>
        <time>2009-11-30T14:17:01.000Z</time>
      </trkpt>
      <trkpt lat="45.97644" lon="3.21287">
        <ele>344.92</ele>
        <time>2009-11-30T14:17:10.000Z</time>
      </trkpt>
      <trkpt lat="45.97612" lon="3.21284">
        <ele>343.8</ele>
        <time>2009-11-30T14:17:14.000Z</time>
      </trkpt>
      <trkpt lat="45.97513" lon="3.21275">
        <ele>340.95</ele>
        <time>2009-11-30T14:17:26.000Z</time>
      </trkpt>
      <trkpt lat="45.97445" lon="3.21269">
        <ele>338.4</ele>
        <time>2009-11-30T14:17:34.000Z</time>
      </trkpt>
      <trkpt lat="45.97366" lon="3.21265">
        <ele>335.96</ele>
        <time>2009-11-30T14:17:43.000Z</time>
      </trkpt>
      <trkpt lat="45.97298" lon="3.21268">
        <ele>335.31</ele>
        <time>2009-11-30T14:17:51.000Z</time>
      </trkpt>
      <trkpt lat="45.97281" lon="3.2127">
        <ele>334.79</ele>
        <time>2009-11-30T14:17:53.000Z</time>
      </trkpt>
      <trkpt lat="45.97244" lon="3.21291">
        <ele>333.87</ele>
        <time>2009-11-30T14:17:58.000Z</time>
      </trkpt>
      <trkpt lat="45.97175" lon="3.2135">
        <ele>333.23</ele>
        <time>2009-11-30T14:18:08.000Z</time>
      </trkpt>
      <trkpt lat="45.97085" lon="3.21428">
        <ele>331.42</ele>
        <time>2009-11-30T14:18:21.000Z</time>
      </trkpt>
      <trkpt lat="45.97047" lon="3.21447">
        <ele>331.55</ele>
        <time>2009-11-30T14:18:26.000Z</time>
      </trkpt>
      <trkpt lat="45.96987" lon="3.21458">
        <ele>331.59</ele>
        <time>2009-11-30T14:18:34.000Z</time>
      </trkpt>
      <trkpt lat="45.9689" lon="3.21473">
        <ele>331.14</ele>
        <time>2009-11-30T14:18:47.000Z</time>
      </trkpt>
      <trkpt lat="45.96815" lon="3.21472">
        <ele>330.57</ele>
        <time>2009-11-30T14:18:57.000Z</time>
      </trkpt>
      <trkpt lat="45.9675" lon="3.21477">
        <ele>330.14</ele>
        <time>2009-11-30T14:19:06.000Z</time>
      </trkpt>
      <trkpt lat="45.96657" lon="3.21492">
        <ele>329.61</ele>
        <time>2009-11-30T14:19:19.000Z</time>
      </trkpt>
      <trkpt lat="45.96588" lon="3.21516">
        <ele>328.93</ele>
        <time>2009-11-30T14:19:29.000Z</time>
      </trkpt>
      <trkpt lat="45.96533" lon="3.2154">
        <ele>329.22</ele>
        <time>2009-11-30T14:19:37.000Z</time>
      </trkpt>
      <trkpt lat="45.96504" lon="3.21571">
        <ele>329.18</ele>
        <time>2009-11-30T14:19:42.000Z</time>
      </trkpt>
      <trkpt lat="45.9647" lon="3.21629">
        <ele>330.22</ele>
        <time>2009-11-30T14:19:49.000Z</time>
      </trkpt>
      <trkpt lat="45.9642" lon="3.2172">
        <ele>329.53</ele>
        <time>2009-11-30T14:20:00.000Z</time>
      </trkpt>
      <trkpt lat="45.96369" lon="3.2181">
        <ele>330.63</ele>
        <time>2009-11-30T14:20:11.000Z</time>
      </trkpt>
      <trkpt lat="45.96319" lon="3.21899">
        <ele>331.82</ele>
        <time>2009-11-30T14:20:22.000Z</time>
      </trkpt>
      <trkpt lat="45.96279" lon="3.21977">
        <ele>333.04</ele>
        <time>2009-11-30T14:20:32.000Z</time>
      </trkpt>
      <trkpt lat="45.96251" lon="3.22031">
        <ele>334.12</ele>
        <time>2009-11-30T14:20:39.000Z</time>
      </trkpt>
      <trkpt lat="45.96213" lon="3.22088">
        <ele>335.89</ele>
        <time>2009-11-30T14:20:48.000Z</time>
      </trkpt>
      <trkpt lat="45.9618" lon="3.22132">
        <ele>336.14</ele>
        <time>2009-11-30T14:20:55.000Z</time>
      </trkpt>
      <trkpt lat="45.96144" lon="3.22185">
        <ele>337.23</ele>
        <time>2009-11-30T14:21:03.000Z</time>
      </trkpt>
      <trkpt lat="45.96125" lon="3.22212">
        <ele>337.79</ele>
        <time>2009-11-30T14:21:08.000Z</time>
      </trkpt>
      <trkpt lat="45.96109" lon="3.22211">
        <ele>338.28</ele>
        <time>2009-11-30T14:21:12.000Z</time>
      </trkpt>
      <trkpt lat="45.96105" lon="3.22206">
        <ele>338.19</ele>
        <time>2009-11-30T14:21:13.000Z</time>
      </trkpt>
      <trkpt lat="45.96051" lon="3.22139">
        <ele>337.34</ele>
        <time>2009-11-30T14:21:25.000Z</time>
      </trkpt>
      <trkpt lat="45.96001" lon="3.22077">
        <ele>336.05</ele>
        <time>2009-11-30T14:21:35.000Z</time>
      </trkpt>
      <trkpt lat="45.95949" lon="3.22011">
        <ele>335.4</ele>
        <time>2009-11-30T14:21:45.000Z</time>
      </trkpt>
      <trkpt lat="45.95901" lon="3.21933">
        <ele>335.28</ele>
        <time>2009-11-30T14:21:55.000Z</time>
      </trkpt>
      <trkpt lat="45.95873" lon="3.21882">
        <ele>333.63</ele>
        <time>2009-11-30T14:22:01.000Z</time>
      </trkpt>
      <trkpt lat="45.95803" lon="3.21756">
        <ele>332.44</ele>
        <time>2009-11-30T14:22:16.000Z</time>
      </trkpt>
      <trkpt lat="45.95754" lon="3.21657">
        <ele>330.08</ele>
        <time>2009-11-30T14:22:27.000Z</time>
      </trkpt>
      <trkpt lat="45.95703" lon="3.21547">
        <ele>327.65</ele>
        <time>2009-11-30T14:22:39.000Z</time>
      </trkpt>
      <trkpt lat="45.95641" lon="3.21412">
        <ele>326.02</ele>
        <time>2009-11-30T14:22:54.000Z</time>
      </trkpt>
      <trkpt lat="45.95591" lon="3.21303">
        <ele>324</ele>
        <time>2009-11-30T14:23:06.000Z</time>
      </trkpt>
      <trkpt lat="45.95543" lon="3.21197">
        <ele>323.46</ele>
        <time>2009-11-30T14:23:18.000Z</time>
      </trkpt>
      <trkpt lat="45.95498" lon="3.21091">
        <ele>321.1</ele>
        <time>2009-11-30T14:23:30.000Z</time>
      </trkpt>
      <trkpt lat="45.95476" lon="3.21006">
        <ele>321.32</ele>
        <time>2009-11-30T14:23:39.000Z</time>
      </trkpt>
      <trkpt lat="45.95441" lon="3.20871">
        <ele>319.27</ele>
        <time>2009-11-30T14:23:53.000Z</time>
      </trkpt>
      <trkpt lat="45.95412" lon="3.20756">
        <ele>319.12</ele>
        <time>2009-11-30T14:24:05.000Z</time>
      </trkpt>
      <trkpt lat="45.95383" lon="3.20641">
        <ele>317.35</ele>
        <time>2009-11-30T14:24:17.000Z</time>
      </trkpt>
      <trkpt lat="45.95351" lon="3.20517">
        <ele>316.03</ele>
        <time>2009-11-30T14:24:30.000Z</time>
      </trkpt>
      <trkpt lat="45.95325" lon="3.20439">
        <ele>316.28</ele>
        <time>2009-11-30T14:24:39.000Z</time>
      </trkpt>
      <trkpt lat="45.95295" lon="3.20387">
        <ele>316.04</ele>
        <time>2009-11-30T14:24:46.000Z</time>
      </trkpt>
      <trkpt lat="45.95238" lon="3.20299">
        <ele>314.66</ele>
        <time>2009-11-30T14:24:58.000Z</time>
      </trkpt>
      <trkpt lat="45.95191" lon="3.20226">
        <ele>314.64</ele>
        <time>2009-11-30T14:25:08.000Z</time>
      </trkpt>
      <trkpt lat="45.9512" lon="3.20115">
        <ele>314.58</ele>
        <time>2009-11-30T14:25:23.000Z</time>
      </trkpt>
      <trkpt lat="45.95054" lon="3.20014">
        <ele>314.79</ele>
        <time>2009-11-30T14:25:37.000Z</time>
      </trkpt>
      <trkpt lat="45.94994" lon="3.19921">
        <ele>314.33</ele>
        <time>2009-11-30T14:25:50.000Z</time>
      </trkpt>
      <trkpt lat="45.94934" lon="3.19826">
        <ele>314.09</ele>
        <time>2009-11-30T14:26:03.000Z</time>
      </trkpt>
      <trkpt lat="45.9488" lon="3.1975">
        <ele>314.58</ele>
        <time>2009-11-30T14:26:14.000Z</time>
      </trkpt>
      <trkpt lat="45.94833" lon="3.19705">
        <ele>314.7</ele>
        <time>2009-11-30T14:26:22.000Z</time>
      </trkpt>
      <trkpt lat="45.94758" lon="3.19642">
        <ele>314.15</ele>
        <time>2009-11-30T14:26:34.000Z</time>
      </trkpt>
      <trkpt lat="45.94713" lon="3.19593">
        <ele>315</ele>
        <time>2009-11-30T14:26:42.000Z</time>
      </trkpt>
      <trkpt lat="45.9465" lon="3.19503">
        <ele>314.94</ele>
        <time>2009-11-30T14:26:55.000Z</time>
      </trkpt>
      <trkpt lat="45.94581" lon="3.19407">
        <ele>315.13</ele>
        <time>2009-11-30T14:27:09.000Z</time>
      </trkpt>
      <trkpt lat="45.94529" lon="3.19334">
        <ele>314.63</ele>
        <time>2009-11-30T14:27:19.000Z</time>
      </trkpt>
      <trkpt lat="45.94469" lon="3.19246">
        <ele>314.65</ele>
        <time>2009-11-30T14:27:31.000Z</time>
      </trkpt>
      <trkpt lat="45.9444" lon="3.19188">
        <ele>314.87</ele>
        <time>2009-11-30T14:27:38.000Z</time>
      </trkpt>
      <trkpt lat="45.94399" lon="3.19083">
        <ele>315.74</ele>
        <time>2009-11-30T14:27:50.000Z</time>
      </trkpt>
      <trkpt lat="45.94371" lon="3.19038">
        <ele>315.83</ele>
        <time>2009-11-30T14:27:56.000Z</time>
      </trkpt>
      <trkpt lat="45.94337" lon="3.19006">
        <ele>316.2</ele>
        <time>2009-11-30T14:28:02.000Z</time>
      </trkpt>
      <trkpt lat="45.94285" lon="3.18971">
        <ele>317.43</ele>
        <time>2009-11-30T14:28:11.000Z</time>
      </trkpt>
      <trkpt lat="45.94243" lon="3.18944">
        <ele>317.89</ele>
        <time>2009-11-30T14:28:18.000Z</time>
      </trkpt>
      <trkpt lat="45.94221" lon="3.18912">
        <ele>318.62</ele>
        <time>2009-11-30T14:28:23.000Z</time>
      </trkpt>
      <trkpt lat="45.94219" lon="3.18904">
        <ele>319.27</ele>
        <time>2009-11-30T14:28:24.000Z</time>
      </trkpt>
      <trkpt lat="45.94207" lon="3.18853">
        <ele>320.67</ele>
        <time>2009-11-30T14:28:31.000Z</time>
      </trkpt>
      <trkpt lat="45.94202" lon="3.18831">
        <ele>322.06</ele>
        <time>2009-11-30T14:28:34.000Z</time>
      </trkpt>
      <trkpt lat="45.94203" lon="3.18795">
        <ele>323.63</ele>
        <time>2009-11-30T14:28:39.000Z</time>
      </trkpt>
      <trkpt lat="45.94212" lon="3.18738">
        <ele>325.22</ele>
        <time>2009-11-30T14:28:46.000Z</time>
      </trkpt>
      <trkpt lat="45.94221" lon="3.187">
        <ele>325.46</ele>
        <time>2009-11-30T14:28:51.000Z</time>
      </trkpt>
      <trkpt lat="45.94215" lon="3.18664">
        <ele>326.33</ele>
        <time>2009-11-30T14:28:56.000Z</time>
      </trkpt>
      <trkpt lat="45.94198" lon="3.18643">
        <ele>325.93</ele>
        <time>2009-11-30T14:29:00.000Z</time>
      </trkpt>
      <trkpt lat="45.94185" lon="3.18631">
        <ele>326.98</ele>
        <time>2009-11-30T14:29:03.000Z</time>
      </trkpt>
      <trkpt lat="45.94172" lon="3.18637">
        <ele>326.83</ele>
        <time>2009-11-30T14:29:06.000Z</time>
      </trkpt>
      <trkpt lat="45.9417" lon="3.18645">
        <ele>327.26</ele>
        <time>2009-11-30T14:29:07.000Z</time>
      </trkpt>
      <trkpt lat="45.94156" lon="3.18713">
        <ele>325.35</ele>
        <time>2009-11-30T14:29:15.000Z</time>
      </trkpt>
      <trkpt lat="45.94139" lon="3.18809">
        <ele>323.07</ele>
        <time>2009-11-30T14:29:25.000Z</time>
      </trkpt>
      <trkpt lat="45.94128" lon="3.18882">
        <ele>321.75</ele>
        <time>2009-11-30T14:29:33.000Z</time>
      </trkpt>
      <trkpt lat="45.94127" lon="3.18891">
        <ele>321.59</ele>
        <time>2009-11-30T14:29:34.000Z</time>
      </trkpt>
      <trkpt lat="45.94113" lon="3.18924">
        <ele>320.7</ele>
        <time>2009-11-30T14:29:38.000Z</time>
      </trkpt>
      <trkpt lat="45.94072" lon="3.18971">
        <ele>318.46</ele>
        <time>2009-11-30T14:29:45.000Z</time>
      </trkpt>
      <trkpt lat="45.94028" lon="3.18998">
        <ele>318.01</ele>
        <time>2009-11-30T14:29:51.000Z</time>
      </trkpt>
      <trkpt lat="45.93956" lon="3.19042">
        <ele>318.11</ele>
        <time>2009-11-30T14:30:01.000Z</time>
      </trkpt>
      <trkpt lat="45.93895" lon="3.19071">
        <ele>319.13</ele>
        <time>2009-11-30T14:30:10.000Z</time>
      </trkpt>
      <trkpt lat="45.93852" lon="3.1908">
        <ele>320.14</ele>
        <time>2009-11-30T14:30:17.000Z</time>
      </trkpt>
      <trkpt lat="45.93807" lon="3.19079">
        <ele>321.89</ele>
        <time>2009-11-30T14:30:25.000Z</time>
      </trkpt>
      <trkpt lat="45.93767" lon="3.19081">
        <ele>323.48</ele>
        <time>2009-11-30T14:30:32.000Z</time>
      </trkpt>
      <trkpt lat="45.93713" lon="3.19089">
        <ele>324.75</ele>
        <time>2009-11-30T14:30:41.000Z</time>
      </trkpt>
      <trkpt lat="45.93637" lon="3.19101">
        <ele>325.92</ele>
        <time>2009-11-30T14:30:54.000Z</time>
      </trkpt>
      <trkpt lat="45.93577" lon="3.19112">
        <ele>326.72</ele>
        <time>2009-11-30T14:31:04.000Z</time>
      </trkpt>
      <trkpt lat="45.93512" lon="3.19125">
        <ele>326.6</ele>
        <time>2009-11-30T14:31:14.000Z</time>
      </trkpt>
      <trkpt lat="45.93433" lon="3.19139">
        <ele>327.23</ele>
        <time>2009-11-30T14:31:26.000Z</time>
      </trkpt>
      <trkpt lat="45.93366" lon="3.19144">
        <ele>328.11</ele>
        <time>2009-11-30T14:31:36.000Z</time>
      </trkpt>
      <trkpt lat="45.93309" lon="3.1915">
        <ele>328.14</ele>
        <time>2009-11-30T14:31:45.000Z</time>
      </trkpt>
      <trkpt lat="45.93253" lon="3.19167">
        <ele>327.99</ele>
        <time>2009-11-30T14:31:54.000Z</time>
      </trkpt>
      <trkpt lat="45.93198" lon="3.19198">
        <ele>328.34</ele>
        <time>2009-11-30T14:32:03.000Z</time>
      </trkpt>
      <trkpt lat="45.93132" lon="3.19249">
        <ele>328.65</ele>
        <time>2009-11-30T14:32:14.000Z</time>
      </trkpt>
      <trkpt lat="45.93076" lon="3.19277">
        <ele>329.78</ele>
        <time>2009-11-30T14:32:23.000Z</time>
      </trkpt>
      <trkpt lat="45.9301" lon="3.19306">
        <ele>330.61</ele>
        <time>2009-11-30T14:32:34.000Z</time>
      </trkpt>
      <trkpt lat="45.92929" lon="3.19342">
        <ele>331.2</ele>
        <time>2009-11-30T14:32:47.000Z</time>
      </trkpt>
      <trkpt lat="45.92861" lon="3.19373">
        <ele>331.21</ele>
        <time>2009-11-30T14:32:58.000Z</time>
      </trkpt>
      <trkpt lat="45.92792" lon="3.19403">
        <ele>331.58</ele>
        <time>2009-11-30T14:33:09.000Z</time>
      </trkpt>
      <trkpt lat="45.92719" lon="3.19433">
        <ele>332.79</ele>
        <time>2009-11-30T14:33:21.000Z</time>
      </trkpt>
      <trkpt lat="45.92681" lon="3.19432">
        <ele>331.6</ele>
        <time>2009-11-30T14:33:27.000Z</time>
      </trkpt>
      <trkpt lat="45.92638" lon="3.19416">
        <ele>332.02</ele>
        <time>2009-11-30T14:33:34.000Z</time>
      </trkpt>
      <trkpt lat="45.92571" lon="3.19382">
        <ele>331.54</ele>
        <time>2009-11-30T14:33:45.000Z</time>
      </trkpt>
      <trkpt lat="45.9251" lon="3.19353">
        <ele>331.66</ele>
        <time>2009-11-30T14:33:55.000Z</time>
      </trkpt>
      <trkpt lat="45.9246" lon="3.19341">
        <ele>332.05</ele>
        <time>2009-11-30T14:34:03.000Z</time>
      </trkpt>
      <trkpt lat="45.92422" lon="3.19346">
        <ele>332.53</ele>
        <time>2009-11-30T14:34:09.000Z</time>
      </trkpt>
      <trkpt lat="45.92343" lon="3.19365">
        <ele>332.12</ele>
        <time>2009-11-30T14:34:21.000Z</time>
      </trkpt>
      <trkpt lat="45.92297" lon="3.19366">
        <ele>332.1</ele>
        <time>2009-11-30T14:34:28.000Z</time>
      </trkpt>
      <trkpt lat="45.92258" lon="3.19353">
        <ele>332.4</ele>
        <time>2009-11-30T14:34:34.000Z</time>
      </trkpt>
      <trkpt lat="45.92214" lon="3.19329">
        <ele>333.85</ele>
        <time>2009-11-30T14:34:42.000Z</time>
      </trkpt>
      <trkpt lat="45.92198" lon="3.19318">
        <ele>332.98</ele>
        <time>2009-11-30T14:34:47.000Z</time>
      </trkpt>
      <trkpt lat="45.92196" lon="3.19315">
        <ele>333.69</ele>
        <time>2009-11-30T14:34:50.000Z</time>
      </trkpt>
      <trkpt lat="45.92192" lon="3.19319">
        <ele>335.09</ele>
        <time>2009-11-30T14:41:22.000Z</time>
      </trkpt>
      <trkpt lat="45.92176" lon="3.19308">
        <ele>335.34</ele>
        <time>2009-11-30T14:41:28.000Z</time>
      </trkpt>
      <trkpt lat="45.92144" lon="3.19286">
        <ele>334.65</ele>
        <time>2009-11-30T14:41:36.000Z</time>
      </trkpt>
      <trkpt lat="45.92103" lon="3.19259">
        <ele>333.89</ele>
        <time>2009-11-30T14:41:44.000Z</time>
      </trkpt>
      <trkpt lat="45.9205" lon="3.19229">
        <ele>331.58</ele>
        <time>2009-11-30T14:41:53.000Z</time>
      </trkpt>
      <trkpt lat="45.92009" lon="3.19208">
        <ele>329.13</ele>
        <time>2009-11-30T14:41:59.000Z</time>
      </trkpt>
      <trkpt lat="45.91952" lon="3.19177">
        <ele>326.58</ele>
        <time>2009-11-30T14:42:07.000Z</time>
      </trkpt>
      <trkpt lat="45.91924" lon="3.19172">
        <ele>326.31</ele>
        <time>2009-11-30T14:42:11.000Z</time>
      </trkpt>
      <trkpt lat="45.91887" lon="3.19176">
        <ele>325.5</ele>
        <time>2009-11-30T14:42:17.000Z</time>
      </trkpt>
      <trkpt lat="45.91881" lon="3.19176">
        <ele>325.64</ele>
        <time>2009-11-30T14:42:20.000Z</time>
      </trkpt>
      <trkpt lat="45.91873" lon="3.19175">
        <ele>325.3</ele>
        <time>2009-11-30T14:42:23.000Z</time>
      </trkpt>
      <trkpt lat="45.91856" lon="3.19164">
        <ele>325.55</ele>
        <time>2009-11-30T14:42:27.000Z</time>
      </trkpt>
      <trkpt lat="45.91804" lon="3.19096">
        <ele>324.76</ele>
        <time>2009-11-30T14:42:39.000Z</time>
      </trkpt>
      <trkpt lat="45.91778" lon="3.19063">
        <ele>323.53</ele>
        <time>2009-11-30T14:42:44.000Z</time>
      </trkpt>
      <trkpt lat="45.91754" lon="3.19034">
        <ele>321.84</ele>
        <time>2009-11-30T14:42:48.000Z</time>
      </trkpt>
      <trkpt lat="45.91741" lon="3.19019">
        <ele>320.61</ele>
        <time>2009-11-30T14:42:50.000Z</time>
      </trkpt>
      <trkpt lat="45.91729" lon="3.19002">
        <ele>319.62</ele>
        <time>2009-11-30T14:42:52.000Z</time>
      </trkpt>
      <trkpt lat="45.91714" lon="3.18958">
        <ele>318.41</ele>
        <time>2009-11-30T14:42:56.000Z</time>
      </trkpt>
      <trkpt lat="45.91703" lon="3.18892">
        <ele>317.53</ele>
        <time>2009-11-30T14:43:02.000Z</time>
      </trkpt>
      <trkpt lat="45.91675" lon="3.18825">
        <ele>315.79</ele>
        <time>2009-11-30T14:43:09.000Z</time>
      </trkpt>
      <trkpt lat="45.91627" lon="3.18727">
        <ele>315.08</ele>
        <time>2009-11-30T14:43:20.000Z</time>
      </trkpt>
      <trkpt lat="45.91578" lon="3.18652">
        <ele>315.02</ele>
        <time>2009-11-30T14:43:30.000Z</time>
      </trkpt>
      <trkpt lat="45.91529" lon="3.18582">
        <ele>314.98</ele>
        <time>2009-11-30T14:43:40.000Z</time>
      </trkpt>
      <trkpt lat="45.91477" lon="3.18507">
        <ele>315.06</ele>
        <time>2009-11-30T14:43:51.000Z</time>
      </trkpt>
      <trkpt lat="45.91413" lon="3.18415">
        <ele>314.09</ele>
        <time>2009-11-30T14:44:05.000Z</time>
      </trkpt>
      <trkpt lat="45.91349" lon="3.18323">
        <ele>314.72</ele>
        <time>2009-11-30T14:44:19.000Z</time>
      </trkpt>
      <trkpt lat="45.91304" lon="3.18254">
        <ele>313.69</ele>
        <time>2009-11-30T14:44:29.000Z</time>
      </trkpt>
      <trkpt lat="45.91284" lon="3.18205">
        <ele>312.78</ele>
        <time>2009-11-30T14:44:35.000Z</time>
      </trkpt>
      <trkpt lat="45.9127" lon="3.18142">
        <ele>313.8</ele>
        <time>2009-11-30T14:44:42.000Z</time>
      </trkpt>
      <trkpt lat="45.91253" lon="3.18033">
        <ele>314.34</ele>
        <time>2009-11-30T14:44:54.000Z</time>
      </trkpt>
      <trkpt lat="45.91238" lon="3.17952">
        <ele>314.5</ele>
        <time>2009-11-30T14:45:03.000Z</time>
      </trkpt>
      <trkpt lat="45.91219" lon="3.17913">
        <ele>314.65</ele>
        <time>2009-11-30T14:45:08.000Z</time>
      </trkpt>
      <trkpt lat="45.91182" lon="3.1787">
        <ele>314.4</ele>
        <time>2009-11-30T14:45:15.000Z</time>
      </trkpt>
      <trkpt lat="45.91121" lon="3.17809">
        <ele>314.95</ele>
        <time>2009-11-30T14:45:26.000Z</time>
      </trkpt>
      <trkpt lat="45.91078" lon="3.1778">
        <ele>314.34</ele>
        <time>2009-11-30T14:45:33.000Z</time>
      </trkpt>
      <trkpt lat="45.90995" lon="3.17743">
        <ele>314.78</ele>
        <time>2009-11-30T14:45:46.000Z</time>
      </trkpt>
      <trkpt lat="45.90911" lon="3.17708">
        <ele>315.05</ele>
        <time>2009-11-30T14:45:59.000Z</time>
      </trkpt>
      <trkpt lat="45.90839" lon="3.17675">
        <ele>315.04</ele>
        <time>2009-11-30T14:46:10.000Z</time>
      </trkpt>
      <trkpt lat="45.90756" lon="3.17641">
        <ele>313.86</ele>
        <time>2009-11-30T14:46:22.000Z</time>
      </trkpt>
      <trkpt lat="45.90693" lon="3.1763">
        <ele>313.67</ele>
        <time>2009-11-30T14:46:31.000Z</time>
      </trkpt>
      <trkpt lat="45.90611" lon="3.1762">
        <ele>315.67</ele>
        <time>2009-11-30T14:46:43.000Z</time>
      </trkpt>
      <trkpt lat="45.90574" lon="3.17612">
        <ele>316.56</ele>
        <time>2009-11-30T14:46:49.000Z</time>
      </trkpt>
      <trkpt lat="45.90526" lon="3.17597">
        <ele>315.82</ele>
        <time>2009-11-30T14:46:57.000Z</time>
      </trkpt>
      <trkpt lat="45.90468" lon="3.17579">
        <ele>314.12</ele>
        <time>2009-11-30T14:47:05.000Z</time>
      </trkpt>
      <trkpt lat="45.90386" lon="3.17554">
        <ele>314.04</ele>
        <time>2009-11-30T14:47:16.000Z</time>
      </trkpt>
      <trkpt lat="45.90301" lon="3.17532">
        <ele>313.33</ele>
        <time>2009-11-30T14:47:28.000Z</time>
      </trkpt>
      <trkpt lat="45.9021" lon="3.17508">
        <ele>314.23</ele>
        <time>2009-11-30T14:47:41.000Z</time>
      </trkpt>
      <trkpt lat="45.90141" lon="3.1749">
        <ele>313.55</ele>
        <time>2009-11-30T14:47:51.000Z</time>
      </trkpt>
      <trkpt lat="45.90058" lon="3.17467">
        <ele>313.44</ele>
        <time>2009-11-30T14:48:03.000Z</time>
      </trkpt>
      <trkpt lat="45.89966" lon="3.17444">
        <ele>314.05</ele>
        <time>2009-11-30T14:48:16.000Z</time>
      </trkpt>
      <trkpt lat="45.89914" lon="3.17443">
        <ele>314.1</ele>
        <time>2009-11-30T14:48:23.000Z</time>
      </trkpt>
      <trkpt lat="45.89827" lon="3.17448">
        <ele>313.79</ele>
        <time>2009-11-30T14:48:35.000Z</time>
      </trkpt>
      <trkpt lat="45.89795" lon="3.17468">
        <ele>313.59</ele>
        <time>2009-11-30T14:48:40.000Z</time>
      </trkpt>
      <trkpt lat="45.89786" lon="3.17496">
        <ele>313.29</ele>
        <time>2009-11-30T14:48:43.000Z</time>
      </trkpt>
      <trkpt lat="45.89783" lon="3.17518">
        <ele>313.62</ele>
        <time>2009-11-30T14:48:45.000Z</time>
      </trkpt>
      <trkpt lat="45.89779" lon="3.17624">
        <ele>313.47</ele>
        <time>2009-11-30T14:48:55.000Z</time>
      </trkpt>
      <trkpt lat="45.89779" lon="3.17711">
        <ele>313.33</ele>
        <time>2009-11-30T14:49:03.000Z</time>
      </trkpt>
      <trkpt lat="45.89782" lon="3.17824">
        <ele>314.3</ele>
        <time>2009-11-30T14:49:14.000Z</time>
      </trkpt>
      <trkpt lat="45.89782" lon="3.17832">
        <ele>313.51</ele>
        <time>2009-11-30T14:49:15.000Z</time>
      </trkpt>
      <trkpt lat="45.8978" lon="3.17859">
        <ele>313.78</ele>
        <time>2009-11-30T14:49:19.000Z</time>
      </trkpt>
      <trkpt lat="45.89768" lon="3.17884">
        <ele>313.45</ele>
        <time>2009-11-30T14:49:25.000Z</time>
      </trkpt>
      <trkpt lat="45.8976" lon="3.17892">
        <ele>314.03</ele>
        <time>2009-11-30T14:49:28.000Z</time>
      </trkpt>
      <trkpt lat="45.89738" lon="3.17907">
        <ele>313.49</ele>
        <time>2009-11-30T14:49:33.000Z</time>
      </trkpt>
      <trkpt lat="45.89732" lon="3.17911">
        <ele>313.74</ele>
        <time>2009-11-30T14:49:34.000Z</time>
      </trkpt>
      <trkpt lat="45.89679" lon="3.17937">
        <ele>313.19</ele>
        <time>2009-11-30T14:49:42.000Z</time>
      </trkpt>
      <trkpt lat="45.8961" lon="3.17968">
        <ele>313.43</ele>
        <time>2009-11-30T14:49:52.000Z</time>
      </trkpt>
      <trkpt lat="45.89573" lon="3.17966">
        <ele>313.56</ele>
        <time>2009-11-30T14:49:57.000Z</time>
      </trkpt>
      <trkpt lat="45.8948" lon="3.1795">
        <ele>313.61</ele>
        <time>2009-11-30T14:50:10.000Z</time>
      </trkpt>
      <trkpt lat="45.89401" lon="3.17937">
        <ele>313.22</ele>
        <time>2009-11-30T14:50:21.000Z</time>
      </trkpt>
      <trkpt lat="45.89336" lon="3.17927">
        <ele>312.95</ele>
        <time>2009-11-30T14:50:30.000Z</time>
      </trkpt>
      <trkpt lat="45.89257" lon="3.17914">
        <ele>313.77</ele>
        <time>2009-11-30T14:50:41.000Z</time>
      </trkpt>
      <trkpt lat="45.89179" lon="3.17901">
        <ele>314.04</ele>
        <time>2009-11-30T14:50:52.000Z</time>
      </trkpt>
      <trkpt lat="45.89092" lon="3.17887">
        <ele>313.22</ele>
        <time>2009-11-30T14:51:04.000Z</time>
      </trkpt>
      <trkpt lat="45.89013" lon="3.17874">
        <ele>314.04</ele>
        <time>2009-11-30T14:51:15.000Z</time>
      </trkpt>
      <trkpt lat="45.88924" lon="3.17859">
        <ele>313.8</ele>
        <time>2009-11-30T14:51:28.000Z</time>
      </trkpt>
      <trkpt lat="45.88901" lon="3.17852">
        <ele>314.01</ele>
        <time>2009-11-30T14:51:32.000Z</time>
      </trkpt>
      <trkpt lat="45.88893" lon="3.17851">
        <ele>314.28</ele>
        <time>2009-11-30T14:51:35.000Z</time>
      </trkpt>
      <trkpt lat="45.88892" lon="3.1785">
        <ele>314.21</ele>
        <time>2009-11-30T14:51:38.000Z</time>
      </trkpt>
      <trkpt lat="45.88886" lon="3.17848">
        <ele>314.36</ele>
        <time>2009-11-30T14:51:51.000Z</time>
      </trkpt>
      <trkpt lat="45.88872" lon="3.1785">
        <ele>313.56</ele>
        <time>2009-11-30T14:51:55.000Z</time>
      </trkpt>
      <trkpt lat="45.88843" lon="3.17853">
        <ele>313.65</ele>
        <time>2009-11-30T14:52:00.000Z</time>
      </trkpt>
      <trkpt lat="45.88792" lon="3.17851">
        <ele>314.37</ele>
        <time>2009-11-30T14:52:08.000Z</time>
      </trkpt>
      <trkpt lat="45.8871" lon="3.17846">
        <ele>313.62</ele>
        <time>2009-11-30T14:52:20.000Z</time>
      </trkpt>
      <trkpt lat="45.88623" lon="3.17842">
        <ele>314.01</ele>
        <time>2009-11-30T14:52:32.000Z</time>
      </trkpt>
      <trkpt lat="45.88596" lon="3.17856">
        <ele>314.41</ele>
        <time>2009-11-30T14:52:36.000Z</time>
      </trkpt>
      <trkpt lat="45.88583" lon="3.17882">
        <ele>314.02</ele>
        <time>2009-11-30T14:52:39.000Z</time>
      </trkpt>
      <trkpt lat="45.88579" lon="3.17914">
        <ele>313.74</ele>
        <time>2009-11-30T14:52:42.000Z</time>
      </trkpt>
      <trkpt lat="45.88583" lon="3.17969">
        <ele>313.49</ele>
        <time>2009-11-30T14:52:47.000Z</time>
      </trkpt>
      <trkpt lat="45.88598" lon="3.18029">
        <ele>313.11</ele>
        <time>2009-11-30T14:52:53.000Z</time>
      </trkpt>
      <trkpt lat="45.88625" lon="3.18117">
        <ele>313.3</ele>
        <time>2009-11-30T14:53:02.000Z</time>
      </trkpt>
      <trkpt lat="45.88653" lon="3.18205">
        <ele>313.21</ele>
        <time>2009-11-30T14:53:11.000Z</time>
      </trkpt>
      <trkpt lat="45.88685" lon="3.18301">
        <ele>313.22</ele>
        <time>2009-11-30T14:53:21.000Z</time>
      </trkpt>
      <trkpt lat="45.88694" lon="3.18331">
        <ele>313.32</ele>
        <time>2009-11-30T14:53:24.000Z</time>
      </trkpt>
      <trkpt lat="45.88692" lon="3.18374">
        <ele>313.07</ele>
        <time>2009-11-30T14:53:28.000Z</time>
      </trkpt>
      <trkpt lat="45.88678" lon="3.18399">
        <ele>313.41</ele>
        <time>2009-11-30T14:53:31.000Z</time>
      </trkpt>
      <trkpt lat="45.88657" lon="3.18412">
        <ele>313.45</ele>
        <time>2009-11-30T14:53:34.000Z</time>
      </trkpt>
      <trkpt lat="45.88649" lon="3.18414">
        <ele>313.21</ele>
        <time>2009-11-30T14:53:35.000Z</time>
      </trkpt>
      <trkpt lat="45.88565" lon="3.18415">
        <ele>313.45</ele>
        <time>2009-11-30T14:53:46.000Z</time>
      </trkpt>
      <trkpt lat="45.8847" lon="3.18412">
        <ele>313.5</ele>
        <time>2009-11-30T14:53:59.000Z</time>
      </trkpt>
      <trkpt lat="45.88389" lon="3.18407">
        <ele>313.66</ele>
        <time>2009-11-30T14:54:10.000Z</time>
      </trkpt>
      <trkpt lat="45.88295" lon="3.18392">
        <ele>313.65</ele>
        <time>2009-11-30T14:54:23.000Z</time>
      </trkpt>
      <trkpt lat="45.88224" lon="3.18388">
        <ele>313.81</ele>
        <time>2009-11-30T14:54:33.000Z</time>
      </trkpt>
      <trkpt lat="45.88115" lon="3.18395">
        <ele>313.99</ele>
        <time>2009-11-30T14:54:48.000Z</time>
      </trkpt>
      <trkpt lat="45.8802" lon="3.18402">
        <ele>313.9</ele>
        <time>2009-11-30T14:55:01.000Z</time>
      </trkpt>
      <trkpt lat="45.87918" lon="3.18409">
        <ele>314.46</ele>
        <time>2009-11-30T14:55:15.000Z</time>
      </trkpt>
      <trkpt lat="45.87831" lon="3.18415">
        <ele>314.67</ele>
        <time>2009-11-30T14:55:27.000Z</time>
      </trkpt>
      <trkpt lat="45.87745" lon="3.18421">
        <ele>315.38</ele>
        <time>2009-11-30T14:55:39.000Z</time>
      </trkpt>
      <trkpt lat="45.87664" lon="3.18428">
        <ele>314.6</ele>
        <time>2009-11-30T14:55:50.000Z</time>
      </trkpt>
      <trkpt lat="45.87638" lon="3.18445">
        <ele>315.09</ele>
        <time>2009-11-30T14:55:54.000Z</time>
      </trkpt>
      <trkpt lat="45.87632" lon="3.18452">
        <ele>314.99</ele>
        <time>2009-11-30T14:55:55.000Z</time>
      </trkpt>
      <trkpt lat="45.87585" lon="3.18536">
        <ele>314.54</ele>
        <time>2009-11-30T14:56:05.000Z</time>
      </trkpt>
      <trkpt lat="45.87526" lon="3.18646">
        <ele>315.06</ele>
        <time>2009-11-30T14:56:18.000Z</time>
      </trkpt>
      <trkpt lat="45.8747" lon="3.18748">
        <ele>314.53</ele>
        <time>2009-11-30T14:56:30.000Z</time>
      </trkpt>
      <trkpt lat="45.87428" lon="3.18811">
        <ele>314.13</ele>
        <time>2009-11-30T14:56:38.000Z</time>
      </trkpt>
      <trkpt lat="45.87389" lon="3.18845">
        <ele>314.41</ele>
        <time>2009-11-30T14:56:44.000Z</time>
      </trkpt>
      <trkpt lat="45.87331" lon="3.1888">
        <ele>315.24</ele>
        <time>2009-11-30T14:56:53.000Z</time>
      </trkpt>
      <trkpt lat="45.87289" lon="3.18895">
        <ele>315.04</ele>
        <time>2009-11-30T14:56:59.000Z</time>
      </trkpt>
      <trkpt lat="45.87236" lon="3.18907">
        <ele>314.14</ele>
        <time>2009-11-30T14:57:06.000Z</time>
      </trkpt>
      <trkpt lat="45.87177" lon="3.18907">
        <ele>314.51</ele>
        <time>2009-11-30T14:57:14.000Z</time>
      </trkpt>
      <trkpt lat="45.87141" lon="3.18908">
        <ele>315.68</ele>
        <time>2009-11-30T14:57:19.000Z</time>
      </trkpt>
      <trkpt lat="45.87083" lon="3.18916">
        <ele>315.56</ele>
        <time>2009-11-30T14:57:27.000Z</time>
      </trkpt>
      <trkpt lat="45.86993" lon="3.18929">
        <ele>315.37</ele>
        <time>2009-11-30T14:57:39.000Z</time>
      </trkpt>
      <trkpt lat="45.86933" lon="3.18948">
        <ele>315.52</ele>
        <time>2009-11-30T14:57:47.000Z</time>
      </trkpt>
      <trkpt lat="45.86867" lon="3.18977">
        <ele>314.59</ele>
        <time>2009-11-30T14:57:56.000Z</time>
      </trkpt>
      <trkpt lat="45.86843" lon="3.18967">
        <ele>315.66</ele>
        <time>2009-11-30T14:58:00.000Z</time>
      </trkpt>
      <trkpt lat="45.86843" lon="3.18949">
        <ele>315.2</ele>
        <time>2009-11-30T14:58:02.000Z</time>
      </trkpt>
      <trkpt lat="45.86845" lon="3.1894">
        <ele>315.42</ele>
        <time>2009-11-30T14:58:03.000Z</time>
      </trkpt>
      <trkpt lat="45.86863" lon="3.18874">
        <ele>315.14</ele>
        <time>2009-11-30T14:58:10.000Z</time>
      </trkpt>
      <trkpt lat="45.86873" lon="3.18789">
        <ele>314.14</ele>
        <time>2009-11-30T14:58:18.000Z</time>
      </trkpt>
      <trkpt lat="45.86878" lon="3.18685">
        <ele>314.57</ele>
        <time>2009-11-30T14:58:28.000Z</time>
      </trkpt>
      <trkpt lat="45.86882" lon="3.18553">
        <ele>315.25</ele>
        <time>2009-11-30T14:58:41.000Z</time>
      </trkpt>
      <trkpt lat="45.86886" lon="3.18422">
        <ele>315.73</ele>
        <time>2009-11-30T14:58:54.000Z</time>
      </trkpt>
      <trkpt lat="45.8689" lon="3.18312">
        <ele>315.08</ele>
        <time>2009-11-30T14:59:05.000Z</time>
      </trkpt>
      <trkpt lat="45.86894" lon="3.18192">
        <ele>315.49</ele>
        <time>2009-11-30T14:59:17.000Z</time>
      </trkpt>
      <trkpt lat="45.86898" lon="3.18081">
        <ele>315.34</ele>
        <time>2009-11-30T14:59:28.000Z</time>
      </trkpt>
      <trkpt lat="45.86903" lon="3.17943">
        <ele>316.42</ele>
        <time>2009-11-30T14:59:42.000Z</time>
      </trkpt>
      <trkpt lat="45.86906" lon="3.17835">
        <ele>314.66</ele>
        <time>2009-11-30T14:59:53.000Z</time>
      </trkpt>
      <trkpt lat="45.86909" lon="3.17754">
        <ele>316.23</ele>
        <time>2009-11-30T15:00:02.000Z</time>
      </trkpt>
      <trkpt lat="45.86911" lon="3.17703">
        <ele>317.44</ele>
        <time>2009-11-30T15:00:08.000Z</time>
      </trkpt>
      <trkpt lat="45.86911" lon="3.17694">
        <ele>316.97</ele>
        <time>2009-11-30T15:00:09.000Z</time>
      </trkpt>
      <trkpt lat="45.86903" lon="3.17671">
        <ele>316.75</ele>
        <time>2009-11-30T15:00:12.000Z</time>
      </trkpt>
      <trkpt lat="45.8689" lon="3.17667">
        <ele>317.2</ele>
        <time>2009-11-30T15:00:14.000Z</time>
      </trkpt>
      <trkpt lat="45.86817" lon="3.17663">
        <ele>316.65</ele>
        <time>2009-11-30T15:00:24.000Z</time>
      </trkpt>
      <trkpt lat="45.86734" lon="3.17659">
        <ele>317.23</ele>
        <time>2009-11-30T15:00:35.000Z</time>
      </trkpt>
      <trkpt lat="45.86675" lon="3.17663">
        <ele>317.09</ele>
        <time>2009-11-30T15:00:43.000Z</time>
      </trkpt>
      <trkpt lat="45.86618" lon="3.17682">
        <ele>315.76</ele>
        <time>2009-11-30T15:00:51.000Z</time>
      </trkpt>
      <trkpt lat="45.86555" lon="3.17707">
        <ele>316.64</ele>
        <time>2009-11-30T15:01:00.000Z</time>
      </trkpt>
      <trkpt lat="45.86499" lon="3.1774">
        <ele>316.75</ele>
        <time>2009-11-30T15:01:08.000Z</time>
      </trkpt>
      <trkpt lat="45.86433" lon="3.1777">
        <ele>316.15</ele>
        <time>2009-11-30T15:01:17.000Z</time>
      </trkpt>
      <trkpt lat="45.86398" lon="3.17794">
        <ele>316.97</ele>
        <time>2009-11-30T15:01:22.000Z</time>
      </trkpt>
      <trkpt lat="45.86359" lon="3.17798">
        <ele>316.84</ele>
        <time>2009-11-30T15:01:27.000Z</time>
      </trkpt>
      <trkpt lat="45.86292" lon="3.1779">
        <ele>316.42</ele>
        <time>2009-11-30T15:01:36.000Z</time>
      </trkpt>
      <trkpt lat="45.86262" lon="3.1779">
        <ele>316.6</ele>
        <time>2009-11-30T15:01:40.000Z</time>
      </trkpt>
      <trkpt lat="45.86234" lon="3.17777">
        <ele>316.15</ele>
        <time>2009-11-30T15:01:44.000Z</time>
      </trkpt>
      <trkpt lat="45.86186" lon="3.17732">
        <ele>316.45</ele>
        <time>2009-11-30T15:01:52.000Z</time>
      </trkpt>
      <trkpt lat="45.8616" lon="3.17684">
        <ele>316.55</ele>
        <time>2009-11-30T15:01:58.000Z</time>
      </trkpt>
      <trkpt lat="45.86131" lon="3.17657">
        <ele>316.58</ele>
        <time>2009-11-30T15:02:03.000Z</time>
      </trkpt>
      <trkpt lat="45.86103" lon="3.17655">
        <ele>317.01</ele>
        <time>2009-11-30T15:02:07.000Z</time>
      </trkpt>
      <trkpt lat="45.86085" lon="3.17673">
        <ele>316.98</ele>
        <time>2009-11-30T15:02:10.000Z</time>
      </trkpt>
      <trkpt lat="45.8608" lon="3.17681">
        <ele>317.38</ele>
        <time>2009-11-30T15:02:11.000Z</time>
      </trkpt>
      <trkpt lat="45.86045" lon="3.17763">
        <ele>317.45</ele>
        <time>2009-11-30T15:02:20.000Z</time>
      </trkpt>
      <trkpt lat="45.86038" lon="3.17782">
        <ele>317.37</ele>
        <time>2009-11-30T15:02:22.000Z</time>
      </trkpt>
      <trkpt lat="45.86013" lon="3.17809">
        <ele>316.85</ele>
        <time>2009-11-30T15:02:26.000Z</time>
      </trkpt>
      <trkpt lat="45.85997" lon="3.17811">
        <ele>316.86</ele>
        <time>2009-11-30T15:02:28.000Z</time>
      </trkpt>
      <trkpt lat="45.85953" lon="3.17827">
        <ele>317.14</ele>
        <time>2009-11-30T15:02:34.000Z</time>
      </trkpt>
      <trkpt lat="45.85864" lon="3.17891">
        <ele>316.94</ele>
        <time>2009-11-30T15:02:47.000Z</time>
      </trkpt>
      <trkpt lat="45.85811" lon="3.17937">
        <ele>315.98</ele>
        <time>2009-11-30T15:02:55.000Z</time>
      </trkpt>
      <trkpt lat="45.85774" lon="3.17947">
        <ele>315.95</ele>
        <time>2009-11-30T15:03:00.000Z</time>
      </trkpt>
      <trkpt lat="45.85759" lon="3.17943">
        <ele>316.47</ele>
        <time>2009-11-30T15:03:02.000Z</time>
      </trkpt>
      <trkpt lat="45.85709" lon="3.17926">
        <ele>317.1</ele>
        <time>2009-11-30T15:03:09.000Z</time>
      </trkpt>
      <trkpt lat="45.85657" lon="3.17926">
        <ele>317.36</ele>
        <time>2009-11-30T15:03:16.000Z</time>
      </trkpt>
      <trkpt lat="45.85599" lon="3.1793">
        <ele>317.35</ele>
        <time>2009-11-30T15:03:24.000Z</time>
      </trkpt>
      <trkpt lat="45.85563" lon="3.17918">
        <ele>316.48</ele>
        <time>2009-11-30T15:03:29.000Z</time>
      </trkpt>
      <trkpt lat="45.85552" lon="3.17904">
        <ele>317.27</ele>
        <time>2009-11-30T15:03:31.000Z</time>
      </trkpt>
      <trkpt lat="45.85491" lon="3.17824">
        <ele>317.22</ele>
        <time>2009-11-30T15:03:42.000Z</time>
      </trkpt>
      <trkpt lat="45.85446" lon="3.17774">
        <ele>316.98</ele>
        <time>2009-11-30T15:03:50.000Z</time>
      </trkpt>
      <trkpt lat="45.85426" lon="3.17733">
        <ele>317.25</ele>
        <time>2009-11-30T15:03:55.000Z</time>
      </trkpt>
      <trkpt lat="45.85412" lon="3.17676">
        <ele>317.67</ele>
        <time>2009-11-30T15:04:01.000Z</time>
      </trkpt>
      <trkpt lat="45.8541" lon="3.17667">
        <ele>317.83</ele>
        <time>2009-11-30T15:04:02.000Z</time>
      </trkpt>
      <trkpt lat="45.85396" lon="3.17635">
        <ele>317.85</ele>
        <time>2009-11-30T15:04:06.000Z</time>
      </trkpt>
      <trkpt lat="45.8538" lon="3.17628">
        <ele>318.63</ele>
        <time>2009-11-30T15:04:09.000Z</time>
      </trkpt>
      <trkpt lat="45.85375" lon="3.17629">
        <ele>318</ele>
        <time>2009-11-30T15:04:10.000Z</time>
      </trkpt>
      <trkpt lat="45.85349" lon="3.17626">
        <ele>318.96</ele>
        <time>2009-11-30T15:04:16.000Z</time>
      </trkpt>
      <trkpt lat="45.85326" lon="3.17632">
        <ele>317.32</ele>
        <time>2009-11-30T15:04:20.000Z</time>
      </trkpt>
      <trkpt lat="45.85319" lon="3.1765">
        <ele>318.18</ele>
        <time>2009-11-30T15:04:22.000Z</time>
      </trkpt>
      <trkpt lat="45.85318" lon="3.17661">
        <ele>317.84</ele>
        <time>2009-11-30T15:04:23.000Z</time>
      </trkpt>
      <trkpt lat="45.85301" lon="3.17713">
        <ele>317.62</ele>
        <time>2009-11-30T15:04:28.000Z</time>
      </trkpt>
      <trkpt lat="45.85294" lon="3.17735">
        <ele>317.96</ele>
        <time>2009-11-30T15:04:30.000Z</time>
      </trkpt>
      <trkpt lat="45.8528" lon="3.17816">
        <ele>317.83</ele>
        <time>2009-11-30T15:04:37.000Z</time>
      </trkpt>
      <trkpt lat="45.85265" lon="3.17891">
        <ele>317.22</ele>
        <time>2009-11-30T15:04:44.000Z</time>
      </trkpt>
      <trkpt lat="45.85256" lon="3.17922">
        <ele>317.55</ele>
        <time>2009-11-30T15:04:47.000Z</time>
      </trkpt>
      <trkpt lat="45.85234" lon="3.17956">
        <ele>317.42</ele>
        <time>2009-11-30T15:04:51.000Z</time>
      </trkpt>
      <trkpt lat="45.85176" lon="3.18012">
        <ele>317.28</ele>
        <time>2009-11-30T15:05:00.000Z</time>
      </trkpt>
      <trkpt lat="45.8516" lon="3.18035">
        <ele>316.91</ele>
        <time>2009-11-30T15:05:03.000Z</time>
      </trkpt>
      <trkpt lat="45.85144" lon="3.18034">
        <ele>316.85</ele>
        <time>2009-11-30T15:05:06.000Z</time>
      </trkpt>
      <trkpt lat="45.85141" lon="3.18027">
        <ele>316.85</ele>
        <time>2009-11-30T15:05:07.000Z</time>
      </trkpt>
      <trkpt lat="45.85119" lon="3.17973">
        <ele>316.06</ele>
        <time>2009-11-30T15:05:13.000Z</time>
      </trkpt>
      <trkpt lat="45.85114" lon="3.17964">
        <ele>317.77</ele>
        <time>2009-11-30T15:05:14.000Z</time>
      </trkpt>
      <trkpt lat="45.85085" lon="3.17931">
        <ele>317.53</ele>
        <time>2009-11-30T15:05:19.000Z</time>
      </trkpt>
      <trkpt lat="45.85071" lon="3.17923">
        <ele>316.83</ele>
        <time>2009-11-30T15:05:21.000Z</time>
      </trkpt>
      <trkpt lat="45.84989" lon="3.17897">
        <ele>317.28</ele>
        <time>2009-11-30T15:05:32.000Z</time>
      </trkpt>
      <trkpt lat="45.84944" lon="3.17884">
        <ele>317.99</ele>
        <time>2009-11-30T15:05:38.000Z</time>
      </trkpt>
      <trkpt lat="45.84925" lon="3.17869">
        <ele>317.48</ele>
        <time>2009-11-30T15:05:41.000Z</time>
      </trkpt>
      <trkpt lat="45.84921" lon="3.17839">
        <ele>317.26</ele>
        <time>2009-11-30T15:05:44.000Z</time>
      </trkpt>
      <trkpt lat="45.84914" lon="3.17751">
        <ele>317.75</ele>
        <time>2009-11-30T15:05:52.000Z</time>
      </trkpt>
      <trkpt lat="45.84906" lon="3.17645">
        <ele>317.63</ele>
        <time>2009-11-30T15:06:02.000Z</time>
      </trkpt>
      <trkpt lat="45.84902" lon="3.17542">
        <ele>317.55</ele>
        <time>2009-11-30T15:06:12.000Z</time>
      </trkpt>
      <trkpt lat="45.849" lon="3.17462">
        <ele>317.34</ele>
        <time>2009-11-30T15:06:20.000Z</time>
      </trkpt>
      <trkpt lat="45.84896" lon="3.17366">
        <ele>317.43</ele>
        <time>2009-11-30T15:06:30.000Z</time>
      </trkpt>
      <trkpt lat="45.84894" lon="3.17291">
        <ele>317.37</ele>
        <time>2009-11-30T15:06:39.000Z</time>
      </trkpt>
      <trkpt lat="45.84893" lon="3.17279">
        <ele>317.93</ele>
        <time>2009-11-30T15:06:41.000Z</time>
      </trkpt>
      <trkpt lat="45.84902" lon="3.1727">
        <ele>317.47</ele>
        <time>2009-11-30T15:06:46.000Z</time>
      </trkpt>
      <trkpt lat="45.84916" lon="3.17271">
        <ele>317.68</ele>
        <time>2009-11-30T15:06:52.000Z</time>
      </trkpt>
      <trkpt lat="45.84916" lon="3.17271">
        <ele>317.56</ele>
        <time>2009-11-30T15:06:54.000Z</time>
      </trkpt>
    </trkseg>
  </trk>
</gpx>